<?xml version="1.0" encoding="UTF-8" standalone="no" ?>
<gpx xmlns="http://www.topografix.com/GPX/1/1" xmlns:xsi="http://www.w3.org/2001/XMLSchema-instance" xsi:schemaLocation="http://www.topografix.com/GPX/1/1 http://www.topografix.com/GPX/1/1/gpx.xsd" version="1.1" creator="VisuGPX - https://www.visugpx.com">
  <metadata>
    <name>de Campagnac a Conques</name>
    <desc><![CDATA[Trace AlpineQuest 16/09/2012, 09:14:48]]></desc>
  </metadata>
  <wpt lat="44.59553" lon="2.54146">
    <ele>675</ele>
    <name><![CDATA[ferme bessole]]></name>
  </wpt>
  <trk>
    <name><![CDATA[de campagnac a Conques]]></name>
    <trkseg>
      <trkpt lat="44.59555" lon="2.54137">
        <ele>677</ele>
        <time>2012-09-16T07:14:48Z</time>
      </trkpt>
      <trkpt lat="44.59553" lon="2.54146">
        <ele>675</ele>
        <time>2012-09-16T07:15:01Z</time>
      </trkpt>
      <trkpt lat="44.5955" lon="2.5414">
        <ele>682</ele>
        <time>2012-09-16T07:15:18Z</time>
      </trkpt>
      <trkpt lat="44.59553" lon="2.5414">
        <ele>673</ele>
        <time>2012-09-16T07:19:33Z</time>
      </trkpt>
      <trkpt lat="44.59555" lon="2.54138">
        <ele>680</ele>
        <time>2012-09-16T07:20:22Z</time>
      </trkpt>
      <trkpt lat="44.59558" lon="2.54139">
        <ele>671</ele>
        <time>2012-09-16T07:20:48Z</time>
      </trkpt>
      <trkpt lat="44.59572" lon="2.54145">
        <ele>677</ele>
        <time>2012-09-16T07:21:00Z</time>
      </trkpt>
      <trkpt lat="44.59583" lon="2.54156">
        <ele>676</ele>
        <time>2012-09-16T07:21:14Z</time>
      </trkpt>
      <trkpt lat="44.59593" lon="2.54165">
        <ele>681</ele>
        <time>2012-09-16T07:21:24Z</time>
      </trkpt>
      <trkpt lat="44.59605" lon="2.54175">
        <ele>679</ele>
        <time>2012-09-16T07:21:36Z</time>
      </trkpt>
      <trkpt lat="44.59619" lon="2.54185">
        <ele>684</ele>
        <time>2012-09-16T07:21:48Z</time>
      </trkpt>
      <trkpt lat="44.59629" lon="2.54194">
        <ele>685</ele>
        <time>2012-09-16T07:21:59Z</time>
      </trkpt>
      <trkpt lat="44.59635" lon="2.54196">
        <ele>686</ele>
        <time>2012-09-16T07:22:12Z</time>
      </trkpt>
      <trkpt lat="44.59644" lon="2.54204">
        <ele>682</ele>
        <time>2012-09-16T07:22:22Z</time>
      </trkpt>
      <trkpt lat="44.5966" lon="2.5421">
        <ele>687</ele>
        <time>2012-09-16T07:22:35Z</time>
      </trkpt>
      <trkpt lat="44.59669" lon="2.54195">
        <ele>684</ele>
        <time>2012-09-16T07:22:46Z</time>
      </trkpt>
      <trkpt lat="44.59674" lon="2.54178">
        <ele>683</ele>
        <time>2012-09-16T07:22:57Z</time>
      </trkpt>
      <trkpt lat="44.59681" lon="2.54161">
        <ele>689</ele>
        <time>2012-09-16T07:23:09Z</time>
      </trkpt>
      <trkpt lat="44.59687" lon="2.54145">
        <ele>682</ele>
        <time>2012-09-16T07:23:20Z</time>
      </trkpt>
      <trkpt lat="44.59695" lon="2.54127">
        <ele>683</ele>
        <time>2012-09-16T07:23:32Z</time>
      </trkpt>
      <trkpt lat="44.59699" lon="2.54108">
        <ele>687</ele>
        <time>2012-09-16T07:23:44Z</time>
      </trkpt>
      <trkpt lat="44.59705" lon="2.54093">
        <ele>690</ele>
        <time>2012-09-16T07:23:56Z</time>
      </trkpt>
      <trkpt lat="44.59716" lon="2.54078">
        <ele>687</ele>
        <time>2012-09-16T07:24:07Z</time>
      </trkpt>
      <trkpt lat="44.59727" lon="2.54062">
        <ele>686</ele>
        <time>2012-09-16T07:24:19Z</time>
      </trkpt>
      <trkpt lat="44.59737" lon="2.54049">
        <ele>687</ele>
        <time>2012-09-16T07:24:30Z</time>
      </trkpt>
      <trkpt lat="44.59747" lon="2.54035">
        <ele>688</ele>
        <time>2012-09-16T07:24:42Z</time>
      </trkpt>
      <trkpt lat="44.59755" lon="2.5402">
        <ele>691</ele>
        <time>2012-09-16T07:24:55Z</time>
      </trkpt>
      <trkpt lat="44.59761" lon="2.54007">
        <ele>691</ele>
        <time>2012-09-16T07:25:05Z</time>
      </trkpt>
      <trkpt lat="44.59774" lon="2.53991">
        <ele>692</ele>
        <time>2012-09-16T07:25:17Z</time>
      </trkpt>
      <trkpt lat="44.59783" lon="2.53979">
        <ele>692</ele>
        <time>2012-09-16T07:25:29Z</time>
      </trkpt>
      <trkpt lat="44.59793" lon="2.53964">
        <ele>687</ele>
        <time>2012-09-16T07:25:39Z</time>
      </trkpt>
      <trkpt lat="44.59803" lon="2.53951">
        <ele>691</ele>
        <time>2012-09-16T07:25:50Z</time>
      </trkpt>
      <trkpt lat="44.59816" lon="2.53935">
        <ele>693</ele>
        <time>2012-09-16T07:26:03Z</time>
      </trkpt>
      <trkpt lat="44.59825" lon="2.53923">
        <ele>691</ele>
        <time>2012-09-16T07:26:14Z</time>
      </trkpt>
      <trkpt lat="44.59834" lon="2.53911">
        <ele>692</ele>
        <time>2012-09-16T07:26:24Z</time>
      </trkpt>
      <trkpt lat="44.59843" lon="2.539">
        <ele>693</ele>
        <time>2012-09-16T07:26:34Z</time>
      </trkpt>
      <trkpt lat="44.59852" lon="2.53886">
        <ele>693</ele>
        <time>2012-09-16T07:26:46Z</time>
      </trkpt>
      <trkpt lat="44.59861" lon="2.53873">
        <ele>694</ele>
        <time>2012-09-16T07:26:56Z</time>
      </trkpt>
      <trkpt lat="44.59872" lon="2.53856">
        <ele>693</ele>
        <time>2012-09-16T07:27:08Z</time>
      </trkpt>
      <trkpt lat="44.59882" lon="2.53842">
        <ele>693</ele>
        <time>2012-09-16T07:27:19Z</time>
      </trkpt>
      <trkpt lat="44.59889" lon="2.53828">
        <ele>692</ele>
        <time>2012-09-16T07:27:31Z</time>
      </trkpt>
      <trkpt lat="44.59898" lon="2.53816">
        <ele>696</ele>
        <time>2012-09-16T07:27:41Z</time>
      </trkpt>
      <trkpt lat="44.59907" lon="2.53801">
        <ele>696</ele>
        <time>2012-09-16T07:27:53Z</time>
      </trkpt>
      <trkpt lat="44.59916" lon="2.53786">
        <ele>696</ele>
        <time>2012-09-16T07:28:04Z</time>
      </trkpt>
      <trkpt lat="44.59921" lon="2.53779">
        <ele>695</ele>
        <time>2012-09-16T07:28:15Z</time>
      </trkpt>
      <trkpt lat="44.59931" lon="2.53763">
        <ele>697</ele>
        <time>2012-09-16T07:28:27Z</time>
      </trkpt>
      <trkpt lat="44.5994" lon="2.53749">
        <ele>696</ele>
        <time>2012-09-16T07:28:38Z</time>
      </trkpt>
      <trkpt lat="44.59953" lon="2.53739">
        <ele>697</ele>
        <time>2012-09-16T07:28:49Z</time>
      </trkpt>
      <trkpt lat="44.5996" lon="2.53729">
        <ele>694</ele>
        <time>2012-09-16T07:29:00Z</time>
      </trkpt>
      <trkpt lat="44.59966" lon="2.53714">
        <ele>698</ele>
        <time>2012-09-16T07:29:10Z</time>
      </trkpt>
      <trkpt lat="44.59976" lon="2.53699">
        <ele>694</ele>
        <time>2012-09-16T07:29:21Z</time>
      </trkpt>
      <trkpt lat="44.59987" lon="2.53685">
        <ele>697</ele>
        <time>2012-09-16T07:29:32Z</time>
      </trkpt>
      <trkpt lat="44.59997" lon="2.53673">
        <ele>695</ele>
        <time>2012-09-16T07:29:44Z</time>
      </trkpt>
      <trkpt lat="44.60006" lon="2.53658">
        <ele>697</ele>
        <time>2012-09-16T07:29:56Z</time>
      </trkpt>
      <trkpt lat="44.60015" lon="2.53644">
        <ele>695</ele>
        <time>2012-09-16T07:30:06Z</time>
      </trkpt>
      <trkpt lat="44.60023" lon="2.5363">
        <ele>692</ele>
        <time>2012-09-16T07:30:18Z</time>
      </trkpt>
      <trkpt lat="44.60023" lon="2.5361">
        <ele>695</ele>
        <time>2012-09-16T07:30:30Z</time>
      </trkpt>
      <trkpt lat="44.60018" lon="2.53598">
        <ele>693</ele>
        <time>2012-09-16T07:30:40Z</time>
      </trkpt>
      <trkpt lat="44.60012" lon="2.53586">
        <ele>692</ele>
        <time>2012-09-16T07:30:50Z</time>
      </trkpt>
      <trkpt lat="44.60004" lon="2.53572">
        <ele>692</ele>
        <time>2012-09-16T07:31:01Z</time>
      </trkpt>
      <trkpt lat="44.60001" lon="2.53554">
        <ele>690</ele>
        <time>2012-09-16T07:31:12Z</time>
      </trkpt>
      <trkpt lat="44.60006" lon="2.53536">
        <ele>692</ele>
        <time>2012-09-16T07:31:24Z</time>
      </trkpt>
      <trkpt lat="44.60014" lon="2.53522">
        <ele>688</ele>
        <time>2012-09-16T07:31:36Z</time>
      </trkpt>
      <trkpt lat="44.6002" lon="2.53509">
        <ele>688</ele>
        <time>2012-09-16T07:31:46Z</time>
      </trkpt>
      <trkpt lat="44.60026" lon="2.53493">
        <ele>686</ele>
        <time>2012-09-16T07:31:58Z</time>
      </trkpt>
      <trkpt lat="44.60032" lon="2.53475">
        <ele>682</ele>
        <time>2012-09-16T07:32:09Z</time>
      </trkpt>
      <trkpt lat="44.60035" lon="2.53453">
        <ele>682</ele>
        <time>2012-09-16T07:32:22Z</time>
      </trkpt>
      <trkpt lat="44.60036" lon="2.53435">
        <ele>683</ele>
        <time>2012-09-16T07:32:34Z</time>
      </trkpt>
      <trkpt lat="44.60038" lon="2.53418">
        <ele>683</ele>
        <time>2012-09-16T07:32:45Z</time>
      </trkpt>
      <trkpt lat="44.60043" lon="2.53401">
        <ele>681</ele>
        <time>2012-09-16T07:32:55Z</time>
      </trkpt>
      <trkpt lat="44.60045" lon="2.53383">
        <ele>678</ele>
        <time>2012-09-16T07:33:07Z</time>
      </trkpt>
      <trkpt lat="44.60045" lon="2.53363">
        <ele>676</ele>
        <time>2012-09-16T07:33:19Z</time>
      </trkpt>
      <trkpt lat="44.60045" lon="2.53349">
        <ele>673</ele>
        <time>2012-09-16T07:33:29Z</time>
      </trkpt>
      <trkpt lat="44.60045" lon="2.53335">
        <ele>677</ele>
        <time>2012-09-16T07:33:39Z</time>
      </trkpt>
      <trkpt lat="44.6005" lon="2.53317">
        <ele>674</ele>
        <time>2012-09-16T07:33:51Z</time>
      </trkpt>
      <trkpt lat="44.6005" lon="2.53299">
        <ele>670</ele>
        <time>2012-09-16T07:34:02Z</time>
      </trkpt>
      <trkpt lat="44.60041" lon="2.53293">
        <ele>670</ele>
        <time>2012-09-16T07:34:14Z</time>
      </trkpt>
      <trkpt lat="44.60031" lon="2.53307">
        <ele>667</ele>
        <time>2012-09-16T07:34:25Z</time>
      </trkpt>
      <trkpt lat="44.6002" lon="2.53319">
        <ele>670</ele>
        <time>2012-09-16T07:34:37Z</time>
      </trkpt>
      <trkpt lat="44.60011" lon="2.53334">
        <ele>664</ele>
        <time>2012-09-16T07:34:48Z</time>
      </trkpt>
      <trkpt lat="44.60003" lon="2.53348">
        <ele>663</ele>
        <time>2012-09-16T07:34:59Z</time>
      </trkpt>
      <trkpt lat="44.59995" lon="2.53357">
        <ele>664</ele>
        <time>2012-09-16T07:35:09Z</time>
      </trkpt>
      <trkpt lat="44.59986" lon="2.53369">
        <ele>656</ele>
        <time>2012-09-16T07:35:22Z</time>
      </trkpt>
      <trkpt lat="44.59974" lon="2.5338">
        <ele>659</ele>
        <time>2012-09-16T07:35:33Z</time>
      </trkpt>
      <trkpt lat="44.59962" lon="2.53391">
        <ele>659</ele>
        <time>2012-09-16T07:35:44Z</time>
      </trkpt>
      <trkpt lat="44.59952" lon="2.53393">
        <ele>655</ele>
        <time>2012-09-16T07:35:54Z</time>
      </trkpt>
      <trkpt lat="44.59938" lon="2.5339">
        <ele>655</ele>
        <time>2012-09-16T07:36:06Z</time>
      </trkpt>
      <trkpt lat="44.59935" lon="2.53374">
        <ele>659</ele>
        <time>2012-09-16T07:36:17Z</time>
      </trkpt>
      <trkpt lat="44.59947" lon="2.53359">
        <ele>652</ele>
        <time>2012-09-16T07:36:30Z</time>
      </trkpt>
      <trkpt lat="44.59955" lon="2.53348">
        <ele>653</ele>
        <time>2012-09-16T07:36:40Z</time>
      </trkpt>
      <trkpt lat="44.5996" lon="2.53338">
        <ele>652</ele>
        <time>2012-09-16T07:36:51Z</time>
      </trkpt>
      <trkpt lat="44.59963" lon="2.5332">
        <ele>653</ele>
        <time>2012-09-16T07:37:03Z</time>
      </trkpt>
      <trkpt lat="44.59959" lon="2.5331">
        <ele>649</ele>
        <time>2012-09-16T07:37:13Z</time>
      </trkpt>
      <trkpt lat="44.59966" lon="2.53296">
        <ele>653</ele>
        <time>2012-09-16T07:37:26Z</time>
      </trkpt>
      <trkpt lat="44.59966" lon="2.53277">
        <ele>656</ele>
        <time>2012-09-16T07:37:38Z</time>
      </trkpt>
      <trkpt lat="44.5997" lon="2.53261">
        <ele>653</ele>
        <time>2012-09-16T07:37:49Z</time>
      </trkpt>
      <trkpt lat="44.59973" lon="2.53242">
        <ele>647</ele>
        <time>2012-09-16T07:38:01Z</time>
      </trkpt>
      <trkpt lat="44.59975" lon="2.53228">
        <ele>652</ele>
        <time>2012-09-16T07:38:11Z</time>
      </trkpt>
      <trkpt lat="44.59975" lon="2.53214">
        <ele>651</ele>
        <time>2012-09-16T07:38:22Z</time>
      </trkpt>
      <trkpt lat="44.59978" lon="2.53191">
        <ele>651</ele>
        <time>2012-09-16T07:38:35Z</time>
      </trkpt>
      <trkpt lat="44.5998" lon="2.53179">
        <ele>642</ele>
        <time>2012-09-16T07:38:46Z</time>
      </trkpt>
      <trkpt lat="44.59982" lon="2.53161">
        <ele>639</ele>
        <time>2012-09-16T07:38:57Z</time>
      </trkpt>
      <trkpt lat="44.59983" lon="2.53148">
        <ele>634</ele>
        <time>2012-09-16T07:39:10Z</time>
      </trkpt>
      <trkpt lat="44.59987" lon="2.53128">
        <ele>635</ele>
        <time>2012-09-16T07:39:23Z</time>
      </trkpt>
      <trkpt lat="44.59991" lon="2.53112">
        <ele>628</ele>
        <time>2012-09-16T07:39:35Z</time>
      </trkpt>
      <trkpt lat="44.59995" lon="2.53095">
        <ele>632</ele>
        <time>2012-09-16T07:39:47Z</time>
      </trkpt>
      <trkpt lat="44.59997" lon="2.53078">
        <ele>628</ele>
        <time>2012-09-16T07:39:59Z</time>
      </trkpt>
      <trkpt lat="44.60001" lon="2.53059">
        <ele>626</ele>
        <time>2012-09-16T07:40:12Z</time>
      </trkpt>
      <trkpt lat="44.60006" lon="2.53043">
        <ele>625</ele>
        <time>2012-09-16T07:40:22Z</time>
      </trkpt>
      <trkpt lat="44.60009" lon="2.53025">
        <ele>627</ele>
        <time>2012-09-16T07:40:34Z</time>
      </trkpt>
      <trkpt lat="44.60018" lon="2.53012">
        <ele>623</ele>
        <time>2012-09-16T07:40:45Z</time>
      </trkpt>
      <trkpt lat="44.60027" lon="2.52997">
        <ele>626</ele>
        <time>2012-09-16T07:40:57Z</time>
      </trkpt>
      <trkpt lat="44.60038" lon="2.52985">
        <ele>623</ele>
        <time>2012-09-16T07:41:10Z</time>
      </trkpt>
      <trkpt lat="44.60048" lon="2.52973">
        <ele>617</ele>
        <time>2012-09-16T07:41:21Z</time>
      </trkpt>
      <trkpt lat="44.60057" lon="2.5296">
        <ele>616</ele>
        <time>2012-09-16T07:41:32Z</time>
      </trkpt>
      <trkpt lat="44.6007" lon="2.52944">
        <ele>617</ele>
        <time>2012-09-16T07:41:44Z</time>
      </trkpt>
      <trkpt lat="44.60081" lon="2.52933">
        <ele>617</ele>
        <time>2012-09-16T07:41:56Z</time>
      </trkpt>
      <trkpt lat="44.60091" lon="2.52925">
        <ele>616</ele>
        <time>2012-09-16T07:42:08Z</time>
      </trkpt>
      <trkpt lat="44.60102" lon="2.52916">
        <ele>614</ele>
        <time>2012-09-16T07:42:18Z</time>
      </trkpt>
      <trkpt lat="44.60113" lon="2.52907">
        <ele>611</ele>
        <time>2012-09-16T07:42:31Z</time>
      </trkpt>
      <trkpt lat="44.60122" lon="2.52894">
        <ele>611</ele>
        <time>2012-09-16T07:42:42Z</time>
      </trkpt>
      <trkpt lat="44.60132" lon="2.52881">
        <ele>606</ele>
        <time>2012-09-16T07:42:54Z</time>
      </trkpt>
      <trkpt lat="44.60142" lon="2.52873">
        <ele>607</ele>
        <time>2012-09-16T07:43:04Z</time>
      </trkpt>
      <trkpt lat="44.60151" lon="2.52862">
        <ele>604</ele>
        <time>2012-09-16T07:43:16Z</time>
      </trkpt>
      <trkpt lat="44.60163" lon="2.52854">
        <ele>603</ele>
        <time>2012-09-16T07:43:28Z</time>
      </trkpt>
      <trkpt lat="44.60175" lon="2.52847">
        <ele>603</ele>
        <time>2012-09-16T07:43:39Z</time>
      </trkpt>
      <trkpt lat="44.60187" lon="2.52842">
        <ele>604</ele>
        <time>2012-09-16T07:43:51Z</time>
      </trkpt>
      <trkpt lat="44.60197" lon="2.52832">
        <ele>605</ele>
        <time>2012-09-16T07:44:02Z</time>
      </trkpt>
      <trkpt lat="44.6021" lon="2.52829">
        <ele>602</ele>
        <time>2012-09-16T07:44:15Z</time>
      </trkpt>
      <trkpt lat="44.60208" lon="2.52822">
        <ele>602</ele>
        <time>2012-09-16T07:44:25Z</time>
      </trkpt>
      <trkpt lat="44.60192" lon="2.52815">
        <ele>602</ele>
        <time>2012-09-16T07:44:36Z</time>
      </trkpt>
      <trkpt lat="44.60184" lon="2.52815">
        <ele>603</ele>
        <time>2012-09-16T07:44:47Z</time>
      </trkpt>
      <trkpt lat="44.60175" lon="2.52812">
        <ele>606</ele>
        <time>2012-09-16T07:44:59Z</time>
      </trkpt>
      <trkpt lat="44.60159" lon="2.52806">
        <ele>601</ele>
        <time>2012-09-16T07:45:11Z</time>
      </trkpt>
      <trkpt lat="44.60146" lon="2.52802">
        <ele>600</ele>
        <time>2012-09-16T07:45:23Z</time>
      </trkpt>
      <trkpt lat="44.60136" lon="2.52801">
        <ele>589</ele>
        <time>2012-09-16T07:45:35Z</time>
      </trkpt>
      <trkpt lat="44.60122" lon="2.52796">
        <ele>595</ele>
        <time>2012-09-16T07:45:47Z</time>
      </trkpt>
      <trkpt lat="44.60109" lon="2.52795">
        <ele>590</ele>
        <time>2012-09-16T07:46:00Z</time>
      </trkpt>
      <trkpt lat="44.60098" lon="2.52799">
        <ele>588</ele>
        <time>2012-09-16T07:46:12Z</time>
      </trkpt>
      <trkpt lat="44.60088" lon="2.5281">
        <ele>584</ele>
        <time>2012-09-16T07:46:24Z</time>
      </trkpt>
      <trkpt lat="44.60075" lon="2.52817">
        <ele>586</ele>
        <time>2012-09-16T07:46:36Z</time>
      </trkpt>
      <trkpt lat="44.60064" lon="2.52824">
        <ele>581</ele>
        <time>2012-09-16T07:46:48Z</time>
      </trkpt>
      <trkpt lat="44.60051" lon="2.52831">
        <ele>583</ele>
        <time>2012-09-16T07:47:00Z</time>
      </trkpt>
      <trkpt lat="44.60039" lon="2.52838">
        <ele>579</ele>
        <time>2012-09-16T07:47:10Z</time>
      </trkpt>
      <trkpt lat="44.60026" lon="2.52844">
        <ele>585</ele>
        <time>2012-09-16T07:47:21Z</time>
      </trkpt>
      <trkpt lat="44.60015" lon="2.52844">
        <ele>582</ele>
        <time>2012-09-16T07:47:31Z</time>
      </trkpt>
      <trkpt lat="44.60003" lon="2.52835">
        <ele>583</ele>
        <time>2012-09-16T07:47:43Z</time>
      </trkpt>
      <trkpt lat="44.5999" lon="2.52829">
        <ele>583</ele>
        <time>2012-09-16T07:47:55Z</time>
      </trkpt>
      <trkpt lat="44.5998" lon="2.52822">
        <ele>574</ele>
        <time>2012-09-16T07:48:08Z</time>
      </trkpt>
      <trkpt lat="44.5997" lon="2.52809">
        <ele>573</ele>
        <time>2012-09-16T07:48:20Z</time>
      </trkpt>
      <trkpt lat="44.59974" lon="2.52791">
        <ele>569</ele>
        <time>2012-09-16T07:48:32Z</time>
      </trkpt>
      <trkpt lat="44.59991" lon="2.52782">
        <ele>565</ele>
        <time>2012-09-16T07:48:45Z</time>
      </trkpt>
      <trkpt lat="44.60004" lon="2.52777">
        <ele>563</ele>
        <time>2012-09-16T07:48:58Z</time>
      </trkpt>
      <trkpt lat="44.60015" lon="2.52774">
        <ele>564</ele>
        <time>2012-09-16T07:49:10Z</time>
      </trkpt>
      <trkpt lat="44.60026" lon="2.52765">
        <ele>561</ele>
        <time>2012-09-16T07:49:21Z</time>
      </trkpt>
      <trkpt lat="44.6004" lon="2.52757">
        <ele>557</ele>
        <time>2012-09-16T07:49:32Z</time>
      </trkpt>
      <trkpt lat="44.6005" lon="2.52745">
        <ele>557</ele>
        <time>2012-09-16T07:49:43Z</time>
      </trkpt>
      <trkpt lat="44.60059" lon="2.52733">
        <ele>561</ele>
        <time>2012-09-16T07:49:53Z</time>
      </trkpt>
      <trkpt lat="44.60066" lon="2.52723">
        <ele>554</ele>
        <time>2012-09-16T07:50:04Z</time>
      </trkpt>
      <trkpt lat="44.60075" lon="2.52709">
        <ele>557</ele>
        <time>2012-09-16T07:50:15Z</time>
      </trkpt>
      <trkpt lat="44.60083" lon="2.52694">
        <ele>565</ele>
        <time>2012-09-16T07:50:27Z</time>
      </trkpt>
      <trkpt lat="44.60093" lon="2.52682">
        <ele>555</ele>
        <time>2012-09-16T07:50:39Z</time>
      </trkpt>
      <trkpt lat="44.60102" lon="2.52676">
        <ele>551</ele>
        <time>2012-09-16T07:50:49Z</time>
      </trkpt>
      <trkpt lat="44.60104" lon="2.52674">
        <ele>554</ele>
        <time>2012-09-16T07:51:00Z</time>
      </trkpt>
      <trkpt lat="44.6011" lon="2.5267">
        <ele>556</ele>
        <time>2012-09-16T07:51:13Z</time>
      </trkpt>
      <trkpt lat="44.60123" lon="2.52671">
        <ele>560</ele>
        <time>2012-09-16T07:51:25Z</time>
      </trkpt>
      <trkpt lat="44.60135" lon="2.52671">
        <ele>559</ele>
        <time>2012-09-16T07:51:36Z</time>
      </trkpt>
      <trkpt lat="44.60152" lon="2.52665">
        <ele>560</ele>
        <time>2012-09-16T07:51:49Z</time>
      </trkpt>
      <trkpt lat="44.60166" lon="2.52653">
        <ele>558</ele>
        <time>2012-09-16T07:52:02Z</time>
      </trkpt>
      <trkpt lat="44.60174" lon="2.52637">
        <ele>559</ele>
        <time>2012-09-16T07:52:13Z</time>
      </trkpt>
      <trkpt lat="44.60178" lon="2.52621">
        <ele>556</ele>
        <time>2012-09-16T07:52:25Z</time>
      </trkpt>
      <trkpt lat="44.60183" lon="2.52603">
        <ele>551</ele>
        <time>2012-09-16T07:52:37Z</time>
      </trkpt>
      <trkpt lat="44.60189" lon="2.52586">
        <ele>549</ele>
        <time>2012-09-16T07:52:48Z</time>
      </trkpt>
      <trkpt lat="44.60201" lon="2.52569">
        <ele>548</ele>
        <time>2012-09-16T07:53:00Z</time>
      </trkpt>
      <trkpt lat="44.60213" lon="2.52555">
        <ele>544</ele>
        <time>2012-09-16T07:53:11Z</time>
      </trkpt>
      <trkpt lat="44.60225" lon="2.52548">
        <ele>541</ele>
        <time>2012-09-16T07:53:23Z</time>
      </trkpt>
      <trkpt lat="44.60237" lon="2.5254">
        <ele>545</ele>
        <time>2012-09-16T07:53:34Z</time>
      </trkpt>
      <trkpt lat="44.60247" lon="2.52529">
        <ele>541</ele>
        <time>2012-09-16T07:53:45Z</time>
      </trkpt>
      <trkpt lat="44.60262" lon="2.52517">
        <ele>542</ele>
        <time>2012-09-16T07:53:58Z</time>
      </trkpt>
      <trkpt lat="44.60276" lon="2.52511">
        <ele>541</ele>
        <time>2012-09-16T07:54:10Z</time>
      </trkpt>
      <trkpt lat="44.60288" lon="2.52503">
        <ele>536</ele>
        <time>2012-09-16T07:54:22Z</time>
      </trkpt>
      <trkpt lat="44.60299" lon="2.52493">
        <ele>539</ele>
        <time>2012-09-16T07:54:34Z</time>
      </trkpt>
      <trkpt lat="44.60312" lon="2.52482">
        <ele>540</ele>
        <time>2012-09-16T07:54:45Z</time>
      </trkpt>
      <trkpt lat="44.60323" lon="2.52472">
        <ele>543</ele>
        <time>2012-09-16T07:54:55Z</time>
      </trkpt>
      <trkpt lat="44.60335" lon="2.52466">
        <ele>545</ele>
        <time>2012-09-16T07:55:07Z</time>
      </trkpt>
      <trkpt lat="44.60349" lon="2.52461">
        <ele>545</ele>
        <time>2012-09-16T07:55:20Z</time>
      </trkpt>
      <trkpt lat="44.60362" lon="2.52459">
        <ele>546</ele>
        <time>2012-09-16T07:55:31Z</time>
      </trkpt>
      <trkpt lat="44.60378" lon="2.52451">
        <ele>540</ele>
        <time>2012-09-16T07:55:44Z</time>
      </trkpt>
      <trkpt lat="44.60386" lon="2.52432">
        <ele>541</ele>
        <time>2012-09-16T07:55:56Z</time>
      </trkpt>
      <trkpt lat="44.60392" lon="2.52413">
        <ele>542</ele>
        <time>2012-09-16T07:56:08Z</time>
      </trkpt>
      <trkpt lat="44.604" lon="2.52398">
        <ele>540</ele>
        <time>2012-09-16T07:56:19Z</time>
      </trkpt>
      <trkpt lat="44.60412" lon="2.52388">
        <ele>539</ele>
        <time>2012-09-16T07:56:29Z</time>
      </trkpt>
      <trkpt lat="44.60426" lon="2.52374">
        <ele>534</ele>
        <time>2012-09-16T07:56:42Z</time>
      </trkpt>
      <trkpt lat="44.60432" lon="2.52358">
        <ele>534</ele>
        <time>2012-09-16T07:56:53Z</time>
      </trkpt>
      <trkpt lat="44.60427" lon="2.52342">
        <ele>534</ele>
        <time>2012-09-16T07:57:06Z</time>
      </trkpt>
      <trkpt lat="44.60417" lon="2.52328">
        <ele>541</ele>
        <time>2012-09-16T07:57:18Z</time>
      </trkpt>
      <trkpt lat="44.60408" lon="2.52308">
        <ele>539</ele>
        <time>2012-09-16T07:57:30Z</time>
      </trkpt>
      <trkpt lat="44.60401" lon="2.52291">
        <ele>533</ele>
        <time>2012-09-16T07:57:42Z</time>
      </trkpt>
      <trkpt lat="44.60394" lon="2.52273">
        <ele>530</ele>
        <time>2012-09-16T07:57:56Z</time>
      </trkpt>
      <trkpt lat="44.60387" lon="2.52258">
        <ele>529</ele>
        <time>2012-09-16T07:58:07Z</time>
      </trkpt>
      <trkpt lat="44.6038" lon="2.52243">
        <ele>526</ele>
        <time>2012-09-16T07:58:18Z</time>
      </trkpt>
      <trkpt lat="44.60376" lon="2.52221">
        <ele>531</ele>
        <time>2012-09-16T07:58:30Z</time>
      </trkpt>
      <trkpt lat="44.60371" lon="2.52202">
        <ele>527</ele>
        <time>2012-09-16T07:58:41Z</time>
      </trkpt>
      <trkpt lat="44.60366" lon="2.52188">
        <ele>529</ele>
        <time>2012-09-16T07:58:51Z</time>
      </trkpt>
      <trkpt lat="44.6036" lon="2.52176">
        <ele>521</ele>
        <time>2012-09-16T07:59:01Z</time>
      </trkpt>
      <trkpt lat="44.60349" lon="2.5216">
        <ele>526</ele>
        <time>2012-09-16T07:59:13Z</time>
      </trkpt>
      <trkpt lat="44.60346" lon="2.52143">
        <ele>533</ele>
        <time>2012-09-16T07:59:23Z</time>
      </trkpt>
      <trkpt lat="44.60353" lon="2.52123">
        <ele>533</ele>
        <time>2012-09-16T07:59:35Z</time>
      </trkpt>
      <trkpt lat="44.60361" lon="2.52108">
        <ele>533</ele>
        <time>2012-09-16T07:59:46Z</time>
      </trkpt>
      <trkpt lat="44.60371" lon="2.52094">
        <ele>541</ele>
        <time>2012-09-16T07:59:58Z</time>
      </trkpt>
      <trkpt lat="44.60381" lon="2.52084">
        <ele>537</ele>
        <time>2012-09-16T08:00:09Z</time>
      </trkpt>
      <trkpt lat="44.60393" lon="2.52073">
        <ele>538</ele>
        <time>2012-09-16T08:00:20Z</time>
      </trkpt>
      <trkpt lat="44.60408" lon="2.52064">
        <ele>531</ele>
        <time>2012-09-16T08:00:31Z</time>
      </trkpt>
      <trkpt lat="44.60419" lon="2.52053">
        <ele>530</ele>
        <time>2012-09-16T08:00:41Z</time>
      </trkpt>
      <trkpt lat="44.60431" lon="2.52042">
        <ele>529</ele>
        <time>2012-09-16T08:00:52Z</time>
      </trkpt>
      <trkpt lat="44.60439" lon="2.5203">
        <ele>521</ele>
        <time>2012-09-16T08:01:03Z</time>
      </trkpt>
      <trkpt lat="44.6045" lon="2.52016">
        <ele>528</ele>
        <time>2012-09-16T08:01:15Z</time>
      </trkpt>
      <trkpt lat="44.60462" lon="2.52004">
        <ele>523</ele>
        <time>2012-09-16T08:01:28Z</time>
      </trkpt>
      <trkpt lat="44.6047" lon="2.51995">
        <ele>528</ele>
        <time>2012-09-16T08:01:39Z</time>
      </trkpt>
      <trkpt lat="44.60479" lon="2.5198">
        <ele>526</ele>
        <time>2012-09-16T08:01:49Z</time>
      </trkpt>
      <trkpt lat="44.60488" lon="2.51965">
        <ele>524</ele>
        <time>2012-09-16T08:02:01Z</time>
      </trkpt>
      <trkpt lat="44.60497" lon="2.5195">
        <ele>525</ele>
        <time>2012-09-16T08:02:13Z</time>
      </trkpt>
      <trkpt lat="44.60509" lon="2.51944">
        <ele>528</ele>
        <time>2012-09-16T08:02:25Z</time>
      </trkpt>
      <trkpt lat="44.60526" lon="2.51945">
        <ele>524</ele>
        <time>2012-09-16T08:02:36Z</time>
      </trkpt>
      <trkpt lat="44.60539" lon="2.51941">
        <ele>528</ele>
        <time>2012-09-16T08:02:48Z</time>
      </trkpt>
      <trkpt lat="44.60553" lon="2.5193">
        <ele>514</ele>
        <time>2012-09-16T08:03:01Z</time>
      </trkpt>
      <trkpt lat="44.60563" lon="2.51911">
        <ele>516</ele>
        <time>2012-09-16T08:03:13Z</time>
      </trkpt>
      <trkpt lat="44.60572" lon="2.51896">
        <ele>519</ele>
        <time>2012-09-16T08:03:25Z</time>
      </trkpt>
      <trkpt lat="44.60584" lon="2.51886">
        <ele>522</ele>
        <time>2012-09-16T08:03:36Z</time>
      </trkpt>
      <trkpt lat="44.60598" lon="2.51877">
        <ele>526</ele>
        <time>2012-09-16T08:03:48Z</time>
      </trkpt>
      <trkpt lat="44.60599" lon="2.51861">
        <ele>520</ele>
        <time>2012-09-16T08:03:59Z</time>
      </trkpt>
      <trkpt lat="44.60585" lon="2.51851">
        <ele>520</ele>
        <time>2012-09-16T08:04:10Z</time>
      </trkpt>
      <trkpt lat="44.60572" lon="2.51843">
        <ele>517</ele>
        <time>2012-09-16T08:04:21Z</time>
      </trkpt>
      <trkpt lat="44.60559" lon="2.51837">
        <ele>519</ele>
        <time>2012-09-16T08:04:32Z</time>
      </trkpt>
      <trkpt lat="44.60554" lon="2.51833">
        <ele>525</ele>
        <time>2012-09-16T08:04:48Z</time>
      </trkpt>
      <trkpt lat="44.60542" lon="2.51826">
        <ele>521</ele>
        <time>2012-09-16T08:05:00Z</time>
      </trkpt>
      <trkpt lat="44.60535" lon="2.51814">
        <ele>524</ele>
        <time>2012-09-16T08:05:11Z</time>
      </trkpt>
      <trkpt lat="44.60539" lon="2.51792">
        <ele>513</ele>
        <time>2012-09-16T08:05:23Z</time>
      </trkpt>
      <trkpt lat="44.6055" lon="2.51776">
        <ele>508</ele>
        <time>2012-09-16T08:05:34Z</time>
      </trkpt>
      <trkpt lat="44.60562" lon="2.51766">
        <ele>511</ele>
        <time>2012-09-16T08:05:45Z</time>
      </trkpt>
      <trkpt lat="44.60572" lon="2.51755">
        <ele>502</ele>
        <time>2012-09-16T08:05:55Z</time>
      </trkpt>
      <trkpt lat="44.60586" lon="2.51744">
        <ele>504</ele>
        <time>2012-09-16T08:06:07Z</time>
      </trkpt>
      <trkpt lat="44.60596" lon="2.51729">
        <ele>509</ele>
        <time>2012-09-16T08:06:19Z</time>
      </trkpt>
      <trkpt lat="44.60606" lon="2.51715">
        <ele>505</ele>
        <time>2012-09-16T08:06:31Z</time>
      </trkpt>
      <trkpt lat="44.60615" lon="2.51705">
        <ele>504</ele>
        <time>2012-09-16T08:06:41Z</time>
      </trkpt>
      <trkpt lat="44.60625" lon="2.51694">
        <ele>505</ele>
        <time>2012-09-16T08:06:53Z</time>
      </trkpt>
      <trkpt lat="44.60628" lon="2.51673">
        <ele>499</ele>
        <time>2012-09-16T08:07:06Z</time>
      </trkpt>
      <trkpt lat="44.60625" lon="2.51659">
        <ele>500</ele>
        <time>2012-09-16T08:07:17Z</time>
      </trkpt>
      <trkpt lat="44.60621" lon="2.51641">
        <ele>496</ele>
        <time>2012-09-16T08:07:27Z</time>
      </trkpt>
      <trkpt lat="44.60626" lon="2.51626">
        <ele>499</ele>
        <time>2012-09-16T08:07:38Z</time>
      </trkpt>
      <trkpt lat="44.60638" lon="2.51627">
        <ele>499</ele>
        <time>2012-09-16T08:07:49Z</time>
      </trkpt>
      <trkpt lat="44.60648" lon="2.51618">
        <ele>500</ele>
        <time>2012-09-16T08:08:00Z</time>
      </trkpt>
      <trkpt lat="44.6066" lon="2.5161">
        <ele>504</ele>
        <time>2012-09-16T08:08:13Z</time>
      </trkpt>
      <trkpt lat="44.60674" lon="2.51604">
        <ele>502</ele>
        <time>2012-09-16T08:08:25Z</time>
      </trkpt>
      <trkpt lat="44.60684" lon="2.51595">
        <ele>499</ele>
        <time>2012-09-16T08:08:37Z</time>
      </trkpt>
      <trkpt lat="44.60696" lon="2.51586">
        <ele>497</ele>
        <time>2012-09-16T08:08:50Z</time>
      </trkpt>
      <trkpt lat="44.60707" lon="2.51578">
        <ele>500</ele>
        <time>2012-09-16T08:09:01Z</time>
      </trkpt>
      <trkpt lat="44.60722" lon="2.5157">
        <ele>493</ele>
        <time>2012-09-16T08:09:14Z</time>
      </trkpt>
      <trkpt lat="44.60737" lon="2.51566">
        <ele>503</ele>
        <time>2012-09-16T08:09:26Z</time>
      </trkpt>
      <trkpt lat="44.60751" lon="2.51565">
        <ele>500</ele>
        <time>2012-09-16T08:09:38Z</time>
      </trkpt>
      <trkpt lat="44.60763" lon="2.51567">
        <ele>492</ele>
        <time>2012-09-16T08:09:48Z</time>
      </trkpt>
      <trkpt lat="44.60778" lon="2.51573">
        <ele>501</ele>
        <time>2012-09-16T08:10:00Z</time>
      </trkpt>
      <trkpt lat="44.60788" lon="2.51585">
        <ele>496</ele>
        <time>2012-09-16T08:10:11Z</time>
      </trkpt>
      <trkpt lat="44.608" lon="2.51604">
        <ele>492</ele>
        <time>2012-09-16T08:10:23Z</time>
      </trkpt>
      <trkpt lat="44.60814" lon="2.51617">
        <ele>495</ele>
        <time>2012-09-16T08:10:34Z</time>
      </trkpt>
      <trkpt lat="44.60826" lon="2.51625">
        <ele>503</ele>
        <time>2012-09-16T08:10:46Z</time>
      </trkpt>
      <trkpt lat="44.60832" lon="2.51633">
        <ele>508</ele>
        <time>2012-09-16T08:10:57Z</time>
      </trkpt>
      <trkpt lat="44.60841" lon="2.5163">
        <ele>510</ele>
        <time>2012-09-16T08:11:07Z</time>
      </trkpt>
      <trkpt lat="44.60851" lon="2.51632">
        <ele>510</ele>
        <time>2012-09-16T08:11:19Z</time>
      </trkpt>
      <trkpt lat="44.60864" lon="2.51626">
        <ele>518</ele>
        <time>2012-09-16T08:11:31Z</time>
      </trkpt>
      <trkpt lat="44.6088" lon="2.51636">
        <ele>522</ele>
        <time>2012-09-16T08:11:43Z</time>
      </trkpt>
      <trkpt lat="44.60889" lon="2.51644">
        <ele>527</ele>
        <time>2012-09-16T08:11:56Z</time>
      </trkpt>
      <trkpt lat="44.60891" lon="2.51646">
        <ele>516</ele>
        <time>2012-09-16T08:12:08Z</time>
      </trkpt>
      <trkpt lat="44.60892" lon="2.5165">
        <ele>508</ele>
        <time>2012-09-16T08:12:28Z</time>
      </trkpt>
      <trkpt lat="44.60893" lon="2.51646">
        <ele>500</ele>
        <time>2012-09-16T08:13:13Z</time>
      </trkpt>
      <trkpt lat="44.60895" lon="2.51643">
        <ele>504</ele>
        <time>2012-09-16T08:14:10Z</time>
      </trkpt>
      <trkpt lat="44.60907" lon="2.51657">
        <ele>505</ele>
        <time>2012-09-16T08:14:22Z</time>
      </trkpt>
      <trkpt lat="44.60917" lon="2.51646">
        <ele>502</ele>
        <time>2012-09-16T08:14:33Z</time>
      </trkpt>
      <trkpt lat="44.60919" lon="2.5163">
        <ele>503</ele>
        <time>2012-09-16T08:14:46Z</time>
      </trkpt>
      <trkpt lat="44.60921" lon="2.51611">
        <ele>504</ele>
        <time>2012-09-16T08:14:57Z</time>
      </trkpt>
      <trkpt lat="44.60919" lon="2.51599">
        <ele>507</ele>
        <time>2012-09-16T08:15:07Z</time>
      </trkpt>
      <trkpt lat="44.60919" lon="2.51586">
        <ele>500</ele>
        <time>2012-09-16T08:15:18Z</time>
      </trkpt>
      <trkpt lat="44.60928" lon="2.5157">
        <ele>504</ele>
        <time>2012-09-16T08:15:31Z</time>
      </trkpt>
      <trkpt lat="44.6094" lon="2.51569">
        <ele>508</ele>
        <time>2012-09-16T08:15:44Z</time>
      </trkpt>
      <trkpt lat="44.60957" lon="2.51567">
        <ele>512</ele>
        <time>2012-09-16T08:15:57Z</time>
      </trkpt>
      <trkpt lat="44.60968" lon="2.51557">
        <ele>507</ele>
        <time>2012-09-16T08:16:09Z</time>
      </trkpt>
      <trkpt lat="44.60974" lon="2.51548">
        <ele>503</ele>
        <time>2012-09-16T08:16:21Z</time>
      </trkpt>
      <trkpt lat="44.60989" lon="2.51542">
        <ele>504</ele>
        <time>2012-09-16T08:16:33Z</time>
      </trkpt>
      <trkpt lat="44.61002" lon="2.51538">
        <ele>502</ele>
        <time>2012-09-16T08:16:44Z</time>
      </trkpt>
      <trkpt lat="44.61013" lon="2.5153">
        <ele>500</ele>
        <time>2012-09-16T08:16:57Z</time>
      </trkpt>
      <trkpt lat="44.61024" lon="2.51524">
        <ele>496</ele>
        <time>2012-09-16T08:17:08Z</time>
      </trkpt>
      <trkpt lat="44.61038" lon="2.51518">
        <ele>502</ele>
        <time>2012-09-16T08:17:21Z</time>
      </trkpt>
      <trkpt lat="44.61033" lon="2.51512">
        <ele>504</ele>
        <time>2012-09-16T08:17:32Z</time>
      </trkpt>
      <trkpt lat="44.61037" lon="2.51495">
        <ele>508</ele>
        <time>2012-09-16T08:17:45Z</time>
      </trkpt>
      <trkpt lat="44.61038" lon="2.51478">
        <ele>503</ele>
        <time>2012-09-16T08:17:58Z</time>
      </trkpt>
      <trkpt lat="44.61033" lon="2.51467">
        <ele>499</ele>
        <time>2012-09-16T08:18:10Z</time>
      </trkpt>
      <trkpt lat="44.61031" lon="2.51454">
        <ele>505</ele>
        <time>2012-09-16T08:18:22Z</time>
      </trkpt>
      <trkpt lat="44.61031" lon="2.51436">
        <ele>498</ele>
        <time>2012-09-16T08:18:35Z</time>
      </trkpt>
      <trkpt lat="44.61033" lon="2.51428">
        <ele>496</ele>
        <time>2012-09-16T08:18:49Z</time>
      </trkpt>
      <trkpt lat="44.61042" lon="2.51416">
        <ele>489</ele>
        <time>2012-09-16T08:19:00Z</time>
      </trkpt>
      <trkpt lat="44.6105" lon="2.51401">
        <ele>490</ele>
        <time>2012-09-16T08:19:12Z</time>
      </trkpt>
      <trkpt lat="44.61048" lon="2.51389">
        <ele>492</ele>
        <time>2012-09-16T08:19:23Z</time>
      </trkpt>
      <trkpt lat="44.61048" lon="2.51375">
        <ele>489</ele>
        <time>2012-09-16T08:19:36Z</time>
      </trkpt>
      <trkpt lat="44.6106" lon="2.51361">
        <ele>475</ele>
        <time>2012-09-16T08:19:47Z</time>
      </trkpt>
      <trkpt lat="44.61069" lon="2.51358">
        <ele>479</ele>
        <time>2012-09-16T08:19:57Z</time>
      </trkpt>
      <trkpt lat="44.61084" lon="2.5136">
        <ele>482</ele>
        <time>2012-09-16T08:20:08Z</time>
      </trkpt>
      <trkpt lat="44.61094" lon="2.51358">
        <ele>471</ele>
        <time>2012-09-16T08:20:18Z</time>
      </trkpt>
      <trkpt lat="44.61105" lon="2.51351">
        <ele>470</ele>
        <time>2012-09-16T08:20:29Z</time>
      </trkpt>
      <trkpt lat="44.6112" lon="2.51351">
        <ele>476</ele>
        <time>2012-09-16T08:20:42Z</time>
      </trkpt>
      <trkpt lat="44.61127" lon="2.51365">
        <ele>474</ele>
        <time>2012-09-16T08:20:56Z</time>
      </trkpt>
      <trkpt lat="44.6114" lon="2.51379">
        <ele>464</ele>
        <time>2012-09-16T08:21:08Z</time>
      </trkpt>
      <trkpt lat="44.61147" lon="2.51399">
        <ele>470</ele>
        <time>2012-09-16T08:21:21Z</time>
      </trkpt>
      <trkpt lat="44.61146" lon="2.51418">
        <ele>474</ele>
        <time>2012-09-16T08:21:34Z</time>
      </trkpt>
      <trkpt lat="44.61149" lon="2.5143">
        <ele>477</ele>
        <time>2012-09-16T08:21:47Z</time>
      </trkpt>
      <trkpt lat="44.61152" lon="2.51433">
        <ele>478</ele>
        <time>2012-09-16T08:21:58Z</time>
      </trkpt>
      <trkpt lat="44.61159" lon="2.5144">
        <ele>476</ele>
        <time>2012-09-16T08:22:08Z</time>
      </trkpt>
      <trkpt lat="44.61169" lon="2.51445">
        <ele>478</ele>
        <time>2012-09-16T08:22:18Z</time>
      </trkpt>
      <trkpt lat="44.6118" lon="2.51445">
        <ele>474</ele>
        <time>2012-09-16T08:22:29Z</time>
      </trkpt>
      <trkpt lat="44.61194" lon="2.5145">
        <ele>476</ele>
        <time>2012-09-16T08:22:40Z</time>
      </trkpt>
      <trkpt lat="44.61205" lon="2.51458">
        <ele>475</ele>
        <time>2012-09-16T08:22:52Z</time>
      </trkpt>
      <trkpt lat="44.61216" lon="2.51468">
        <ele>477</ele>
        <time>2012-09-16T08:23:04Z</time>
      </trkpt>
      <trkpt lat="44.61218" lon="2.51485">
        <ele>466</ele>
        <time>2012-09-16T08:23:15Z</time>
      </trkpt>
      <trkpt lat="44.61216" lon="2.51503">
        <ele>478</ele>
        <time>2012-09-16T08:23:27Z</time>
      </trkpt>
      <trkpt lat="44.61209" lon="2.5153">
        <ele>479</ele>
        <time>2012-09-16T08:23:41Z</time>
      </trkpt>
      <trkpt lat="44.61207" lon="2.51534">
        <ele>478</ele>
        <time>2012-09-16T08:23:54Z</time>
      </trkpt>
      <trkpt lat="44.61209" lon="2.51522">
        <ele>475</ele>
        <time>2012-09-16T08:24:06Z</time>
      </trkpt>
      <trkpt lat="44.61212" lon="2.51513">
        <ele>475</ele>
        <time>2012-09-16T08:24:16Z</time>
      </trkpt>
      <trkpt lat="44.61221" lon="2.51499">
        <ele>479</ele>
        <time>2012-09-16T08:24:28Z</time>
      </trkpt>
      <trkpt lat="44.61222" lon="2.51483">
        <ele>477</ele>
        <time>2012-09-16T08:24:39Z</time>
      </trkpt>
      <trkpt lat="44.61222" lon="2.51465">
        <ele>475</ele>
        <time>2012-09-16T08:24:52Z</time>
      </trkpt>
      <trkpt lat="44.61227" lon="2.5144">
        <ele>482</ele>
        <time>2012-09-16T08:25:04Z</time>
      </trkpt>
      <trkpt lat="44.61225" lon="2.51422">
        <ele>482</ele>
        <time>2012-09-16T08:25:15Z</time>
      </trkpt>
      <trkpt lat="44.6122" lon="2.51408">
        <ele>460</ele>
        <time>2012-09-16T08:25:28Z</time>
      </trkpt>
      <trkpt lat="44.61218" lon="2.514">
        <ele>457</ele>
        <time>2012-09-16T08:25:38Z</time>
      </trkpt>
      <trkpt lat="44.61221" lon="2.51383">
        <ele>449</ele>
        <time>2012-09-16T08:25:51Z</time>
      </trkpt>
      <trkpt lat="44.61228" lon="2.51371">
        <ele>445</ele>
        <time>2012-09-16T08:26:03Z</time>
      </trkpt>
      <trkpt lat="44.61236" lon="2.51364">
        <ele>456</ele>
        <time>2012-09-16T08:26:14Z</time>
      </trkpt>
      <trkpt lat="44.6124" lon="2.51352">
        <ele>447</ele>
        <time>2012-09-16T08:26:24Z</time>
      </trkpt>
      <trkpt lat="44.61247" lon="2.51332">
        <ele>455</ele>
        <time>2012-09-16T08:26:36Z</time>
      </trkpt>
      <trkpt lat="44.61254" lon="2.51319">
        <ele>447</ele>
        <time>2012-09-16T08:26:47Z</time>
      </trkpt>
      <trkpt lat="44.61258" lon="2.51307">
        <ele>457</ele>
        <time>2012-09-16T08:26:59Z</time>
      </trkpt>
      <trkpt lat="44.61251" lon="2.51293">
        <ele>457</ele>
        <time>2012-09-16T08:27:09Z</time>
      </trkpt>
      <trkpt lat="44.61248" lon="2.51266">
        <ele>455</ele>
        <time>2012-09-16T08:27:22Z</time>
      </trkpt>
      <trkpt lat="44.61244" lon="2.51248">
        <ele>454</ele>
        <time>2012-09-16T08:27:33Z</time>
      </trkpt>
      <trkpt lat="44.6124" lon="2.51231">
        <ele>453</ele>
        <time>2012-09-16T08:27:44Z</time>
      </trkpt>
      <trkpt lat="44.61239" lon="2.51212">
        <ele>453</ele>
        <time>2012-09-16T08:27:55Z</time>
      </trkpt>
      <trkpt lat="44.61239" lon="2.51192">
        <ele>450</ele>
        <time>2012-09-16T08:28:06Z</time>
      </trkpt>
      <trkpt lat="44.61243" lon="2.51175">
        <ele>452</ele>
        <time>2012-09-16T08:28:18Z</time>
      </trkpt>
      <trkpt lat="44.61249" lon="2.51154">
        <ele>457</ele>
        <time>2012-09-16T08:28:31Z</time>
      </trkpt>
      <trkpt lat="44.61253" lon="2.51138">
        <ele>454</ele>
        <time>2012-09-16T08:28:41Z</time>
      </trkpt>
      <trkpt lat="44.61258" lon="2.5112">
        <ele>456</ele>
        <time>2012-09-16T08:28:52Z</time>
      </trkpt>
      <trkpt lat="44.61263" lon="2.51104">
        <ele>451</ele>
        <time>2012-09-16T08:29:03Z</time>
      </trkpt>
      <trkpt lat="44.61268" lon="2.51087">
        <ele>447</ele>
        <time>2012-09-16T08:29:13Z</time>
      </trkpt>
      <trkpt lat="44.61276" lon="2.51075">
        <ele>447</ele>
        <time>2012-09-16T08:29:24Z</time>
      </trkpt>
      <trkpt lat="44.61275" lon="2.51063">
        <ele>450</ele>
        <time>2012-09-16T08:29:35Z</time>
      </trkpt>
      <trkpt lat="44.6127" lon="2.51053">
        <ele>447</ele>
        <time>2012-09-16T08:29:48Z</time>
      </trkpt>
      <trkpt lat="44.61262" lon="2.51044">
        <ele>450</ele>
        <time>2012-09-16T08:29:58Z</time>
      </trkpt>
      <trkpt lat="44.61257" lon="2.51028">
        <ele>450</ele>
        <time>2012-09-16T08:30:08Z</time>
      </trkpt>
      <trkpt lat="44.61252" lon="2.51009">
        <ele>443</ele>
        <time>2012-09-16T08:30:19Z</time>
      </trkpt>
      <trkpt lat="44.61246" lon="2.50992">
        <ele>442</ele>
        <time>2012-09-16T08:30:31Z</time>
      </trkpt>
      <trkpt lat="44.61242" lon="2.5097">
        <ele>443</ele>
        <time>2012-09-16T08:30:43Z</time>
      </trkpt>
      <trkpt lat="44.61238" lon="2.50952">
        <ele>444</ele>
        <time>2012-09-16T08:30:56Z</time>
      </trkpt>
      <trkpt lat="44.61227" lon="2.50942">
        <ele>444</ele>
        <time>2012-09-16T08:31:07Z</time>
      </trkpt>
      <trkpt lat="44.61216" lon="2.50934">
        <ele>441</ele>
        <time>2012-09-16T08:31:19Z</time>
      </trkpt>
      <trkpt lat="44.61205" lon="2.50926">
        <ele>445</ele>
        <time>2012-09-16T08:31:29Z</time>
      </trkpt>
      <trkpt lat="44.6119" lon="2.50923">
        <ele>444</ele>
        <time>2012-09-16T08:31:42Z</time>
      </trkpt>
      <trkpt lat="44.61179" lon="2.50935">
        <ele>448</ele>
        <time>2012-09-16T08:31:54Z</time>
      </trkpt>
      <trkpt lat="44.6118" lon="2.5096">
        <ele>444</ele>
        <time>2012-09-16T08:32:07Z</time>
      </trkpt>
      <trkpt lat="44.61181" lon="2.5098">
        <ele>445</ele>
        <time>2012-09-16T08:32:19Z</time>
      </trkpt>
      <trkpt lat="44.61184" lon="2.50998">
        <ele>446</ele>
        <time>2012-09-16T08:32:30Z</time>
      </trkpt>
      <trkpt lat="44.61188" lon="2.51009">
        <ele>440</ele>
        <time>2012-09-16T08:32:40Z</time>
      </trkpt>
      <trkpt lat="44.61185" lon="2.51006">
        <ele>438</ele>
        <time>2012-09-16T08:33:09Z</time>
      </trkpt>
      <trkpt lat="44.61174" lon="2.50996">
        <ele>440</ele>
        <time>2012-09-16T08:33:22Z</time>
      </trkpt>
      <trkpt lat="44.61163" lon="2.50985">
        <ele>441</ele>
        <time>2012-09-16T08:33:33Z</time>
      </trkpt>
      <trkpt lat="44.6116" lon="2.50976">
        <ele>439</ele>
        <time>2012-09-16T08:34:02Z</time>
      </trkpt>
      <trkpt lat="44.61159" lon="2.50979">
        <ele>438</ele>
        <time>2012-09-16T08:34:21Z</time>
      </trkpt>
      <trkpt lat="44.61158" lon="2.50976">
        <ele>443</ele>
        <time>2012-09-16T08:34:53Z</time>
      </trkpt>
      <trkpt lat="44.61148" lon="2.50991">
        <ele>444</ele>
        <time>2012-09-16T08:35:17Z</time>
      </trkpt>
      <trkpt lat="44.61153" lon="2.50981">
        <ele>439</ele>
        <time>2012-09-16T08:35:29Z</time>
      </trkpt>
      <trkpt lat="44.61156" lon="2.50972">
        <ele>442</ele>
        <time>2012-09-16T08:35:43Z</time>
      </trkpt>
      <trkpt lat="44.61157" lon="2.50979">
        <ele>442</ele>
        <time>2012-09-16T08:35:58Z</time>
      </trkpt>
      <trkpt lat="44.61158" lon="2.51001">
        <ele>443</ele>
        <time>2012-09-16T08:36:12Z</time>
      </trkpt>
      <trkpt lat="44.61172" lon="2.51021">
        <ele>444</ele>
        <time>2012-09-16T08:36:42Z</time>
      </trkpt>
      <trkpt lat="44.61163" lon="2.51029">
        <ele>444</ele>
        <time>2012-09-16T08:37:04Z</time>
      </trkpt>
      <trkpt lat="44.61169" lon="2.51017">
        <ele>450</ele>
        <time>2012-09-16T08:37:25Z</time>
      </trkpt>
      <trkpt lat="44.61168" lon="2.51002">
        <ele>444</ele>
        <time>2012-09-16T08:37:36Z</time>
      </trkpt>
      <trkpt lat="44.61169" lon="2.50997">
        <ele>442</ele>
        <time>2012-09-16T08:37:56Z</time>
      </trkpt>
      <trkpt lat="44.61167" lon="2.50993">
        <ele>447</ele>
        <time>2012-09-16T08:38:21Z</time>
      </trkpt>
      <trkpt lat="44.61149" lon="2.50992">
        <ele>440</ele>
        <time>2012-09-16T08:38:53Z</time>
      </trkpt>
      <trkpt lat="44.61153" lon="2.50993">
        <ele>442</ele>
        <time>2012-09-16T08:39:17Z</time>
      </trkpt>
      <trkpt lat="44.61148" lon="2.50975">
        <ele>436</ele>
        <time>2012-09-16T08:39:28Z</time>
      </trkpt>
      <trkpt lat="44.61141" lon="2.50954">
        <ele>441</ele>
        <time>2012-09-16T08:39:40Z</time>
      </trkpt>
      <trkpt lat="44.61134" lon="2.50946">
        <ele>442</ele>
        <time>2012-09-16T08:39:52Z</time>
      </trkpt>
      <trkpt lat="44.61123" lon="2.50937">
        <ele>437</ele>
        <time>2012-09-16T08:40:02Z</time>
      </trkpt>
      <trkpt lat="44.61113" lon="2.50926">
        <ele>432</ele>
        <time>2012-09-16T08:40:14Z</time>
      </trkpt>
      <trkpt lat="44.61102" lon="2.50915">
        <ele>427</ele>
        <time>2012-09-16T08:40:26Z</time>
      </trkpt>
      <trkpt lat="44.61091" lon="2.50904">
        <ele>424</ele>
        <time>2012-09-16T08:40:38Z</time>
      </trkpt>
      <trkpt lat="44.61081" lon="2.50892">
        <ele>429</ele>
        <time>2012-09-16T08:40:51Z</time>
      </trkpt>
      <trkpt lat="44.61071" lon="2.5088">
        <ele>421</ele>
        <time>2012-09-16T08:41:03Z</time>
      </trkpt>
      <trkpt lat="44.61063" lon="2.50871">
        <ele>424</ele>
        <time>2012-09-16T08:41:14Z</time>
      </trkpt>
      <trkpt lat="44.61052" lon="2.50858">
        <ele>427</ele>
        <time>2012-09-16T08:41:25Z</time>
      </trkpt>
      <trkpt lat="44.61042" lon="2.50847">
        <ele>425</ele>
        <time>2012-09-16T08:41:39Z</time>
      </trkpt>
      <trkpt lat="44.61029" lon="2.50843">
        <ele>421</ele>
        <time>2012-09-16T08:41:50Z</time>
      </trkpt>
      <trkpt lat="44.61016" lon="2.5084">
        <ele>420</ele>
        <time>2012-09-16T08:42:02Z</time>
      </trkpt>
      <trkpt lat="44.61003" lon="2.50835">
        <ele>411</ele>
        <time>2012-09-16T08:42:15Z</time>
      </trkpt>
      <trkpt lat="44.60994" lon="2.5083">
        <ele>420</ele>
        <time>2012-09-16T08:42:28Z</time>
      </trkpt>
      <trkpt lat="44.60982" lon="2.50842">
        <ele>414</ele>
        <time>2012-09-16T08:42:42Z</time>
      </trkpt>
      <trkpt lat="44.60974" lon="2.50856">
        <ele>413</ele>
        <time>2012-09-16T08:42:56Z</time>
      </trkpt>
      <trkpt lat="44.60976" lon="2.50863">
        <ele>414</ele>
        <time>2012-09-16T08:43:06Z</time>
      </trkpt>
      <trkpt lat="44.60977" lon="2.50874">
        <ele>418</ele>
        <time>2012-09-16T08:43:17Z</time>
      </trkpt>
      <trkpt lat="44.60965" lon="2.50885">
        <ele>421</ele>
        <time>2012-09-16T08:43:30Z</time>
      </trkpt>
      <trkpt lat="44.60961" lon="2.50891">
        <ele>424</ele>
        <time>2012-09-16T08:43:45Z</time>
      </trkpt>
      <trkpt lat="44.60955" lon="2.50902">
        <ele>422</ele>
        <time>2012-09-16T08:43:55Z</time>
      </trkpt>
      <trkpt lat="44.60944" lon="2.50911">
        <ele>421</ele>
        <time>2012-09-16T08:44:08Z</time>
      </trkpt>
      <trkpt lat="44.60942" lon="2.50919">
        <ele>422</ele>
        <time>2012-09-16T08:44:19Z</time>
      </trkpt>
      <trkpt lat="44.60937" lon="2.50931">
        <ele>423</ele>
        <time>2012-09-16T08:44:29Z</time>
      </trkpt>
      <trkpt lat="44.60932" lon="2.50941">
        <ele>429</ele>
        <time>2012-09-16T08:44:45Z</time>
      </trkpt>
      <trkpt lat="44.60927" lon="2.50958">
        <ele>435</ele>
        <time>2012-09-16T08:44:56Z</time>
      </trkpt>
      <trkpt lat="44.60918" lon="2.5097">
        <ele>430</ele>
        <time>2012-09-16T08:45:07Z</time>
      </trkpt>
      <trkpt lat="44.60913" lon="2.50962">
        <ele>438</ele>
        <time>2012-09-16T08:45:20Z</time>
      </trkpt>
      <trkpt lat="44.6091" lon="2.50944">
        <ele>441</ele>
        <time>2012-09-16T08:45:33Z</time>
      </trkpt>
      <trkpt lat="44.60911" lon="2.50926">
        <ele>439</ele>
        <time>2012-09-16T08:45:46Z</time>
      </trkpt>
      <trkpt lat="44.6091" lon="2.50911">
        <ele>446</ele>
        <time>2012-09-16T08:45:58Z</time>
      </trkpt>
      <trkpt lat="44.60907" lon="2.50892">
        <ele>438</ele>
        <time>2012-09-16T08:46:10Z</time>
      </trkpt>
      <trkpt lat="44.60906" lon="2.50879">
        <ele>438</ele>
        <time>2012-09-16T08:46:21Z</time>
      </trkpt>
      <trkpt lat="44.60899" lon="2.50861">
        <ele>437</ele>
        <time>2012-09-16T08:46:32Z</time>
      </trkpt>
      <trkpt lat="44.60892" lon="2.50842">
        <ele>445</ele>
        <time>2012-09-16T08:46:42Z</time>
      </trkpt>
      <trkpt lat="44.60886" lon="2.50826">
        <ele>440</ele>
        <time>2012-09-16T08:46:54Z</time>
      </trkpt>
      <trkpt lat="44.60884" lon="2.50819">
        <ele>444</ele>
        <time>2012-09-16T08:47:32Z</time>
      </trkpt>
      <trkpt lat="44.60879" lon="2.508">
        <ele>444</ele>
        <time>2012-09-16T08:47:44Z</time>
      </trkpt>
      <trkpt lat="44.60875" lon="2.50783">
        <ele>448</ele>
        <time>2012-09-16T08:47:57Z</time>
      </trkpt>
      <trkpt lat="44.60873" lon="2.50768">
        <ele>445</ele>
        <time>2012-09-16T08:48:07Z</time>
      </trkpt>
      <trkpt lat="44.60872" lon="2.5075">
        <ele>447</ele>
        <time>2012-09-16T08:48:19Z</time>
      </trkpt>
      <trkpt lat="44.60873" lon="2.50734">
        <ele>450</ele>
        <time>2012-09-16T08:48:31Z</time>
      </trkpt>
      <trkpt lat="44.60873" lon="2.5072">
        <ele>449</ele>
        <time>2012-09-16T08:48:42Z</time>
      </trkpt>
      <trkpt lat="44.60873" lon="2.50706">
        <ele>452</ele>
        <time>2012-09-16T08:48:56Z</time>
      </trkpt>
      <trkpt lat="44.60872" lon="2.50689">
        <ele>453</ele>
        <time>2012-09-16T08:49:09Z</time>
      </trkpt>
      <trkpt lat="44.60877" lon="2.50672">
        <ele>446</ele>
        <time>2012-09-16T08:49:22Z</time>
      </trkpt>
      <trkpt lat="44.60873" lon="2.50656">
        <ele>453</ele>
        <time>2012-09-16T08:49:33Z</time>
      </trkpt>
      <trkpt lat="44.60871" lon="2.50642">
        <ele>451</ele>
        <time>2012-09-16T08:49:43Z</time>
      </trkpt>
      <trkpt lat="44.60869" lon="2.50623">
        <ele>461</ele>
        <time>2012-09-16T08:49:55Z</time>
      </trkpt>
      <trkpt lat="44.60864" lon="2.50604">
        <ele>458</ele>
        <time>2012-09-16T08:50:06Z</time>
      </trkpt>
      <trkpt lat="44.60858" lon="2.50585">
        <ele>455</ele>
        <time>2012-09-16T08:50:19Z</time>
      </trkpt>
      <trkpt lat="44.60854" lon="2.50568">
        <ele>463</ele>
        <time>2012-09-16T08:50:29Z</time>
      </trkpt>
      <trkpt lat="44.60851" lon="2.50551">
        <ele>465</ele>
        <time>2012-09-16T08:50:40Z</time>
      </trkpt>
      <trkpt lat="44.60847" lon="2.50532">
        <ele>470</ele>
        <time>2012-09-16T08:50:52Z</time>
      </trkpt>
      <trkpt lat="44.60843" lon="2.50515">
        <ele>464</ele>
        <time>2012-09-16T08:51:04Z</time>
      </trkpt>
      <trkpt lat="44.6084" lon="2.50497">
        <ele>464</ele>
        <time>2012-09-16T08:51:14Z</time>
      </trkpt>
      <trkpt lat="44.60836" lon="2.5048">
        <ele>467</ele>
        <time>2012-09-16T08:51:25Z</time>
      </trkpt>
      <trkpt lat="44.6083" lon="2.50463">
        <ele>472</ele>
        <time>2012-09-16T08:51:37Z</time>
      </trkpt>
      <trkpt lat="44.60821" lon="2.50442">
        <ele>475</ele>
        <time>2012-09-16T08:51:50Z</time>
      </trkpt>
      <trkpt lat="44.60813" lon="2.50428">
        <ele>471</ele>
        <time>2012-09-16T08:52:01Z</time>
      </trkpt>
      <trkpt lat="44.60802" lon="2.50418">
        <ele>471</ele>
        <time>2012-09-16T08:52:11Z</time>
      </trkpt>
      <trkpt lat="44.60791" lon="2.50409">
        <ele>466</ele>
        <time>2012-09-16T08:52:23Z</time>
      </trkpt>
      <trkpt lat="44.6078" lon="2.50396">
        <ele>467</ele>
        <time>2012-09-16T08:52:34Z</time>
      </trkpt>
      <trkpt lat="44.60767" lon="2.50386">
        <ele>467</ele>
        <time>2012-09-16T08:52:45Z</time>
      </trkpt>
      <trkpt lat="44.60755" lon="2.50375">
        <ele>470</ele>
        <time>2012-09-16T08:52:56Z</time>
      </trkpt>
      <trkpt lat="44.60744" lon="2.50366">
        <ele>470</ele>
        <time>2012-09-16T08:53:08Z</time>
      </trkpt>
      <trkpt lat="44.60731" lon="2.5036">
        <ele>472</ele>
        <time>2012-09-16T08:53:20Z</time>
      </trkpt>
      <trkpt lat="44.60715" lon="2.50358">
        <ele>484</ele>
        <time>2012-09-16T08:53:32Z</time>
      </trkpt>
      <trkpt lat="44.60701" lon="2.50353">
        <ele>477</ele>
        <time>2012-09-16T08:53:44Z</time>
      </trkpt>
      <trkpt lat="44.60696" lon="2.50337">
        <ele>477</ele>
        <time>2012-09-16T08:53:54Z</time>
      </trkpt>
      <trkpt lat="44.60693" lon="2.5032">
        <ele>473</ele>
        <time>2012-09-16T08:54:05Z</time>
      </trkpt>
      <trkpt lat="44.60695" lon="2.50307">
        <ele>468</ele>
        <time>2012-09-16T08:54:16Z</time>
      </trkpt>
      <trkpt lat="44.60696" lon="2.50289">
        <ele>464</ele>
        <time>2012-09-16T08:54:28Z</time>
      </trkpt>
      <trkpt lat="44.60698" lon="2.50271">
        <ele>460</ele>
        <time>2012-09-16T08:54:41Z</time>
      </trkpt>
      <trkpt lat="44.60689" lon="2.50258">
        <ele>466</ele>
        <time>2012-09-16T08:54:53Z</time>
      </trkpt>
      <trkpt lat="44.60674" lon="2.50252">
        <ele>461</ele>
        <time>2012-09-16T08:55:05Z</time>
      </trkpt>
      <trkpt lat="44.60662" lon="2.50245">
        <ele>460</ele>
        <time>2012-09-16T08:55:16Z</time>
      </trkpt>
      <trkpt lat="44.60651" lon="2.50236">
        <ele>458</ele>
        <time>2012-09-16T08:55:28Z</time>
      </trkpt>
      <trkpt lat="44.60642" lon="2.5023">
        <ele>457</ele>
        <time>2012-09-16T08:55:41Z</time>
      </trkpt>
      <trkpt lat="44.60637" lon="2.50233">
        <ele>466</ele>
        <time>2012-09-16T08:55:58Z</time>
      </trkpt>
      <trkpt lat="44.6063" lon="2.50218">
        <ele>465</ele>
        <time>2012-09-16T08:56:09Z</time>
      </trkpt>
      <trkpt lat="44.60629" lon="2.50199">
        <ele>465</ele>
        <time>2012-09-16T08:56:20Z</time>
      </trkpt>
      <trkpt lat="44.6063" lon="2.50187">
        <ele>468</ele>
        <time>2012-09-16T08:56:30Z</time>
      </trkpt>
      <trkpt lat="44.6063" lon="2.50167">
        <ele>465</ele>
        <time>2012-09-16T08:56:42Z</time>
      </trkpt>
      <trkpt lat="44.60627" lon="2.5015">
        <ele>462</ele>
        <time>2012-09-16T08:56:54Z</time>
      </trkpt>
      <trkpt lat="44.60627" lon="2.50131">
        <ele>465</ele>
        <time>2012-09-16T08:57:06Z</time>
      </trkpt>
      <trkpt lat="44.60628" lon="2.50113">
        <ele>459</ele>
        <time>2012-09-16T08:57:18Z</time>
      </trkpt>
      <trkpt lat="44.60625" lon="2.50093">
        <ele>464</ele>
        <time>2012-09-16T08:57:31Z</time>
      </trkpt>
      <trkpt lat="44.60622" lon="2.50076">
        <ele>469</ele>
        <time>2012-09-16T08:57:42Z</time>
      </trkpt>
      <trkpt lat="44.60617" lon="2.50065">
        <ele>472</ele>
        <time>2012-09-16T08:57:53Z</time>
      </trkpt>
      <trkpt lat="44.60605" lon="2.50054">
        <ele>473</ele>
        <time>2012-09-16T08:58:05Z</time>
      </trkpt>
      <trkpt lat="44.60593" lon="2.50044">
        <ele>468</ele>
        <time>2012-09-16T08:58:16Z</time>
      </trkpt>
      <trkpt lat="44.60579" lon="2.50037">
        <ele>466</ele>
        <time>2012-09-16T08:58:28Z</time>
      </trkpt>
      <trkpt lat="44.60566" lon="2.50028">
        <ele>461</ele>
        <time>2012-09-16T08:58:39Z</time>
      </trkpt>
      <trkpt lat="44.60553" lon="2.50019">
        <ele>470</ele>
        <time>2012-09-16T08:58:51Z</time>
      </trkpt>
      <trkpt lat="44.60543" lon="2.50011">
        <ele>471</ele>
        <time>2012-09-16T08:59:02Z</time>
      </trkpt>
      <trkpt lat="44.60532" lon="2.5">
        <ele>471</ele>
        <time>2012-09-16T08:59:12Z</time>
      </trkpt>
      <trkpt lat="44.60521" lon="2.49996">
        <ele>472</ele>
        <time>2012-09-16T08:59:25Z</time>
      </trkpt>
      <trkpt lat="44.60509" lon="2.49985">
        <ele>485</ele>
        <time>2012-09-16T08:59:36Z</time>
      </trkpt>
      <trkpt lat="44.605" lon="2.4997">
        <ele>485</ele>
        <time>2012-09-16T08:59:47Z</time>
      </trkpt>
      <trkpt lat="44.6049" lon="2.49947">
        <ele>477</ele>
        <time>2012-09-16T08:59:59Z</time>
      </trkpt>
      <trkpt lat="44.60484" lon="2.49925">
        <ele>475</ele>
        <time>2012-09-16T09:00:12Z</time>
      </trkpt>
      <trkpt lat="44.6048" lon="2.49907">
        <ele>472</ele>
        <time>2012-09-16T09:00:22Z</time>
      </trkpt>
      <trkpt lat="44.60477" lon="2.49889">
        <ele>472</ele>
        <time>2012-09-16T09:00:33Z</time>
      </trkpt>
      <trkpt lat="44.60478" lon="2.49869">
        <ele>470</ele>
        <time>2012-09-16T09:00:45Z</time>
      </trkpt>
      <trkpt lat="44.6048" lon="2.49852">
        <ele>470</ele>
        <time>2012-09-16T09:00:55Z</time>
      </trkpt>
      <trkpt lat="44.6048" lon="2.4983">
        <ele>474</ele>
        <time>2012-09-16T09:01:07Z</time>
      </trkpt>
      <trkpt lat="44.60479" lon="2.49809">
        <ele>470</ele>
        <time>2012-09-16T09:01:18Z</time>
      </trkpt>
      <trkpt lat="44.60479" lon="2.49793">
        <ele>468</ele>
        <time>2012-09-16T09:01:28Z</time>
      </trkpt>
      <trkpt lat="44.60479" lon="2.49772">
        <ele>469</ele>
        <time>2012-09-16T09:01:40Z</time>
      </trkpt>
      <trkpt lat="44.60481" lon="2.49753">
        <ele>473</ele>
        <time>2012-09-16T09:01:51Z</time>
      </trkpt>
      <trkpt lat="44.60487" lon="2.49733">
        <ele>471</ele>
        <time>2012-09-16T09:02:02Z</time>
      </trkpt>
      <trkpt lat="44.6049" lon="2.49713">
        <ele>471</ele>
        <time>2012-09-16T09:02:14Z</time>
      </trkpt>
      <trkpt lat="44.60498" lon="2.49694">
        <ele>474</ele>
        <time>2012-09-16T09:02:25Z</time>
      </trkpt>
      <trkpt lat="44.60504" lon="2.49678">
        <ele>476</ele>
        <time>2012-09-16T09:02:35Z</time>
      </trkpt>
      <trkpt lat="44.60509" lon="2.49659">
        <ele>476</ele>
        <time>2012-09-16T09:02:46Z</time>
      </trkpt>
      <trkpt lat="44.60516" lon="2.49639">
        <ele>469</ele>
        <time>2012-09-16T09:02:59Z</time>
      </trkpt>
      <trkpt lat="44.60518" lon="2.49626">
        <ele>471</ele>
        <time>2012-09-16T09:03:10Z</time>
      </trkpt>
      <trkpt lat="44.60518" lon="2.49609">
        <ele>469</ele>
        <time>2012-09-16T09:03:22Z</time>
      </trkpt>
      <trkpt lat="44.60511" lon="2.49594">
        <ele>473</ele>
        <time>2012-09-16T09:03:34Z</time>
      </trkpt>
      <trkpt lat="44.60508" lon="2.49582">
        <ele>471</ele>
        <time>2012-09-16T09:03:45Z</time>
      </trkpt>
      <trkpt lat="44.60505" lon="2.49563">
        <ele>473</ele>
        <time>2012-09-16T09:03:57Z</time>
      </trkpt>
      <trkpt lat="44.60508" lon="2.4955">
        <ele>481</ele>
        <time>2012-09-16T09:04:10Z</time>
      </trkpt>
      <trkpt lat="44.6051" lon="2.49535">
        <ele>478</ele>
        <time>2012-09-16T09:04:24Z</time>
      </trkpt>
      <trkpt lat="44.60506" lon="2.49523">
        <ele>478</ele>
        <time>2012-09-16T09:04:35Z</time>
      </trkpt>
      <trkpt lat="44.60507" lon="2.4951">
        <ele>477</ele>
        <time>2012-09-16T09:04:45Z</time>
      </trkpt>
      <trkpt lat="44.60509" lon="2.49493">
        <ele>485</ele>
        <time>2012-09-16T09:04:59Z</time>
      </trkpt>
      <trkpt lat="44.60511" lon="2.49479">
        <ele>487</ele>
        <time>2012-09-16T09:05:11Z</time>
      </trkpt>
      <trkpt lat="44.60509" lon="2.49467">
        <ele>499</ele>
        <time>2012-09-16T09:05:25Z</time>
      </trkpt>
      <trkpt lat="44.60503" lon="2.49456">
        <ele>488</ele>
        <time>2012-09-16T09:05:35Z</time>
      </trkpt>
      <trkpt lat="44.60496" lon="2.49441">
        <ele>496</ele>
        <time>2012-09-16T09:05:48Z</time>
      </trkpt>
      <trkpt lat="44.60495" lon="2.49424">
        <ele>485</ele>
        <time>2012-09-16T09:06:02Z</time>
      </trkpt>
      <trkpt lat="44.605" lon="2.49413">
        <ele>497</ele>
        <time>2012-09-16T09:06:13Z</time>
      </trkpt>
      <trkpt lat="44.60502" lon="2.49399">
        <ele>502</ele>
        <time>2012-09-16T09:06:24Z</time>
      </trkpt>
      <trkpt lat="44.60501" lon="2.49387">
        <ele>496</ele>
        <time>2012-09-16T09:06:35Z</time>
      </trkpt>
      <trkpt lat="44.605" lon="2.49374">
        <ele>500</ele>
        <time>2012-09-16T09:06:46Z</time>
      </trkpt>
      <trkpt lat="44.60497" lon="2.49356">
        <ele>510</ele>
        <time>2012-09-16T09:06:59Z</time>
      </trkpt>
      <trkpt lat="44.60494" lon="2.49343">
        <ele>507</ele>
        <time>2012-09-16T09:07:09Z</time>
      </trkpt>
      <trkpt lat="44.60491" lon="2.49331">
        <ele>511</ele>
        <time>2012-09-16T09:07:19Z</time>
      </trkpt>
      <trkpt lat="44.60483" lon="2.49315">
        <ele>509</ele>
        <time>2012-09-16T09:07:31Z</time>
      </trkpt>
      <trkpt lat="44.60477" lon="2.49304">
        <ele>508</ele>
        <time>2012-09-16T09:07:41Z</time>
      </trkpt>
      <trkpt lat="44.60471" lon="2.49289">
        <ele>511</ele>
        <time>2012-09-16T09:07:58Z</time>
      </trkpt>
      <trkpt lat="44.60466" lon="2.49278">
        <ele>512</ele>
        <time>2012-09-16T09:08:09Z</time>
      </trkpt>
      <trkpt lat="44.60458" lon="2.49257">
        <ele>514</ele>
        <time>2012-09-16T09:08:21Z</time>
      </trkpt>
      <trkpt lat="44.60453" lon="2.49242">
        <ele>513</ele>
        <time>2012-09-16T09:08:33Z</time>
      </trkpt>
      <trkpt lat="44.60456" lon="2.49225">
        <ele>513</ele>
        <time>2012-09-16T09:08:46Z</time>
      </trkpt>
      <trkpt lat="44.60455" lon="2.49213">
        <ele>523</ele>
        <time>2012-09-16T09:08:57Z</time>
      </trkpt>
      <trkpt lat="44.60447" lon="2.49208">
        <ele>523</ele>
        <time>2012-09-16T09:09:07Z</time>
      </trkpt>
      <trkpt lat="44.60438" lon="2.49201">
        <ele>523</ele>
        <time>2012-09-16T09:09:20Z</time>
      </trkpt>
      <trkpt lat="44.60431" lon="2.49193">
        <ele>519</ele>
        <time>2012-09-16T09:09:30Z</time>
      </trkpt>
      <trkpt lat="44.60424" lon="2.49178">
        <ele>526</ele>
        <time>2012-09-16T09:09:42Z</time>
      </trkpt>
      <trkpt lat="44.60416" lon="2.49162">
        <ele>529</ele>
        <time>2012-09-16T09:09:53Z</time>
      </trkpt>
      <trkpt lat="44.60413" lon="2.4915">
        <ele>529</ele>
        <time>2012-09-16T09:10:04Z</time>
      </trkpt>
      <trkpt lat="44.60413" lon="2.49138">
        <ele>533</ele>
        <time>2012-09-16T09:10:14Z</time>
      </trkpt>
      <trkpt lat="44.60419" lon="2.4912">
        <ele>533</ele>
        <time>2012-09-16T09:10:26Z</time>
      </trkpt>
      <trkpt lat="44.60426" lon="2.49103">
        <ele>532</ele>
        <time>2012-09-16T09:10:37Z</time>
      </trkpt>
      <trkpt lat="44.60431" lon="2.49087">
        <ele>536</ele>
        <time>2012-09-16T09:10:49Z</time>
      </trkpt>
      <trkpt lat="44.60441" lon="2.49067">
        <ele>537</ele>
        <time>2012-09-16T09:11:02Z</time>
      </trkpt>
      <trkpt lat="44.60447" lon="2.4905">
        <ele>528</ele>
        <time>2012-09-16T09:11:14Z</time>
      </trkpt>
      <trkpt lat="44.6045" lon="2.49032">
        <ele>536</ele>
        <time>2012-09-16T09:11:27Z</time>
      </trkpt>
      <trkpt lat="44.60454" lon="2.49015">
        <ele>540</ele>
        <time>2012-09-16T09:11:38Z</time>
      </trkpt>
      <trkpt lat="44.6046" lon="2.48999">
        <ele>537</ele>
        <time>2012-09-16T09:11:49Z</time>
      </trkpt>
      <trkpt lat="44.60465" lon="2.48983">
        <ele>543</ele>
        <time>2012-09-16T09:11:59Z</time>
      </trkpt>
      <trkpt lat="44.60471" lon="2.48966">
        <ele>545</ele>
        <time>2012-09-16T09:12:10Z</time>
      </trkpt>
      <trkpt lat="44.60476" lon="2.48951">
        <ele>545</ele>
        <time>2012-09-16T09:12:21Z</time>
      </trkpt>
      <trkpt lat="44.60485" lon="2.48936">
        <ele>549</ele>
        <time>2012-09-16T09:12:32Z</time>
      </trkpt>
      <trkpt lat="44.60491" lon="2.4892">
        <ele>549</ele>
        <time>2012-09-16T09:12:43Z</time>
      </trkpt>
      <trkpt lat="44.60497" lon="2.48901">
        <ele>553</ele>
        <time>2012-09-16T09:12:54Z</time>
      </trkpt>
      <trkpt lat="44.60503" lon="2.48887">
        <ele>552</ele>
        <time>2012-09-16T09:13:04Z</time>
      </trkpt>
      <trkpt lat="44.60509" lon="2.48869">
        <ele>551</ele>
        <time>2012-09-16T09:13:16Z</time>
      </trkpt>
      <trkpt lat="44.60514" lon="2.48851">
        <ele>553</ele>
        <time>2012-09-16T09:13:27Z</time>
      </trkpt>
      <trkpt lat="44.60519" lon="2.48833">
        <ele>558</ele>
        <time>2012-09-16T09:13:38Z</time>
      </trkpt>
      <trkpt lat="44.60521" lon="2.48829">
        <ele>551</ele>
        <time>2012-09-16T09:17:01Z</time>
      </trkpt>
      <trkpt lat="44.60518" lon="2.4881">
        <ele>552</ele>
        <time>2012-09-16T09:17:11Z</time>
      </trkpt>
      <trkpt lat="44.6052" lon="2.48792">
        <ele>558</ele>
        <time>2012-09-16T09:17:42Z</time>
      </trkpt>
      <trkpt lat="44.60523" lon="2.48774">
        <ele>554</ele>
        <time>2012-09-16T09:17:53Z</time>
      </trkpt>
      <trkpt lat="44.60524" lon="2.48769">
        <ele>555</ele>
        <time>2012-09-16T09:18:03Z</time>
      </trkpt>
      <trkpt lat="44.60524" lon="2.48751">
        <ele>555</ele>
        <time>2012-09-16T09:18:13Z</time>
      </trkpt>
      <trkpt lat="44.60526" lon="2.48741">
        <ele>553</ele>
        <time>2012-09-16T09:18:25Z</time>
      </trkpt>
      <trkpt lat="44.60526" lon="2.48723">
        <ele>556</ele>
        <time>2012-09-16T09:18:37Z</time>
      </trkpt>
      <trkpt lat="44.60521" lon="2.48706">
        <ele>555</ele>
        <time>2012-09-16T09:18:49Z</time>
      </trkpt>
      <trkpt lat="44.60513" lon="2.48692">
        <ele>554</ele>
        <time>2012-09-16T09:19:01Z</time>
      </trkpt>
      <trkpt lat="44.60503" lon="2.4868">
        <ele>554</ele>
        <time>2012-09-16T09:19:11Z</time>
      </trkpt>
      <trkpt lat="44.60496" lon="2.48667">
        <ele>560</ele>
        <time>2012-09-16T09:19:22Z</time>
      </trkpt>
      <trkpt lat="44.60492" lon="2.4865">
        <ele>559</ele>
        <time>2012-09-16T09:19:35Z</time>
      </trkpt>
      <trkpt lat="44.60501" lon="2.48636">
        <ele>555</ele>
        <time>2012-09-16T09:19:47Z</time>
      </trkpt>
      <trkpt lat="44.60506" lon="2.4862">
        <ele>563</ele>
        <time>2012-09-16T09:19:59Z</time>
      </trkpt>
      <trkpt lat="44.60513" lon="2.48603">
        <ele>561</ele>
        <time>2012-09-16T09:20:10Z</time>
      </trkpt>
      <trkpt lat="44.60516" lon="2.48584">
        <ele>559</ele>
        <time>2012-09-16T09:20:22Z</time>
      </trkpt>
      <trkpt lat="44.60521" lon="2.48566">
        <ele>559</ele>
        <time>2012-09-16T09:20:34Z</time>
      </trkpt>
      <trkpt lat="44.60524" lon="2.48558">
        <ele>557</ele>
        <time>2012-09-16T09:20:47Z</time>
      </trkpt>
      <trkpt lat="44.60533" lon="2.48558">
        <ele>561</ele>
        <time>2012-09-16T09:21:06Z</time>
      </trkpt>
      <trkpt lat="44.60535" lon="2.48561">
        <ele>557</ele>
        <time>2012-09-16T09:21:18Z</time>
      </trkpt>
      <trkpt lat="44.60529" lon="2.48566">
        <ele>556</ele>
        <time>2012-09-16T09:21:56Z</time>
      </trkpt>
      <trkpt lat="44.60526" lon="2.48555">
        <ele>552</ele>
        <time>2012-09-16T09:22:07Z</time>
      </trkpt>
      <trkpt lat="44.6053" lon="2.4854">
        <ele>553</ele>
        <time>2012-09-16T09:22:18Z</time>
      </trkpt>
      <trkpt lat="44.60533" lon="2.48525">
        <ele>551</ele>
        <time>2012-09-16T09:22:31Z</time>
      </trkpt>
      <trkpt lat="44.60524" lon="2.48512">
        <ele>554</ele>
        <time>2012-09-16T09:22:43Z</time>
      </trkpt>
      <trkpt lat="44.60518" lon="2.48496">
        <ele>557</ele>
        <time>2012-09-16T09:22:55Z</time>
      </trkpt>
      <trkpt lat="44.60511" lon="2.48481">
        <ele>554</ele>
        <time>2012-09-16T09:23:07Z</time>
      </trkpt>
      <trkpt lat="44.60503" lon="2.48466">
        <ele>558</ele>
        <time>2012-09-16T09:23:18Z</time>
      </trkpt>
      <trkpt lat="44.60499" lon="2.4845">
        <ele>557</ele>
        <time>2012-09-16T09:23:30Z</time>
      </trkpt>
      <trkpt lat="44.60495" lon="2.48438">
        <ele>554</ele>
        <time>2012-09-16T09:23:40Z</time>
      </trkpt>
      <trkpt lat="44.60487" lon="2.48421">
        <ele>558</ele>
        <time>2012-09-16T09:23:53Z</time>
      </trkpt>
      <trkpt lat="44.60476" lon="2.48414">
        <ele>562</ele>
        <time>2012-09-16T09:24:04Z</time>
      </trkpt>
      <trkpt lat="44.60466" lon="2.48403">
        <ele>553</ele>
        <time>2012-09-16T09:24:15Z</time>
      </trkpt>
      <trkpt lat="44.60454" lon="2.48392">
        <ele>557</ele>
        <time>2012-09-16T09:24:26Z</time>
      </trkpt>
      <trkpt lat="44.60449" lon="2.48376">
        <ele>560</ele>
        <time>2012-09-16T09:24:39Z</time>
      </trkpt>
      <trkpt lat="44.60446" lon="2.48356">
        <ele>557</ele>
        <time>2012-09-16T09:24:51Z</time>
      </trkpt>
      <trkpt lat="44.60448" lon="2.48339">
        <ele>561</ele>
        <time>2012-09-16T09:25:02Z</time>
      </trkpt>
      <trkpt lat="44.60449" lon="2.48319">
        <ele>561</ele>
        <time>2012-09-16T09:25:14Z</time>
      </trkpt>
      <trkpt lat="44.60451" lon="2.48302">
        <ele>559</ele>
        <time>2012-09-16T09:25:26Z</time>
      </trkpt>
      <trkpt lat="44.60453" lon="2.48284">
        <ele>559</ele>
        <time>2012-09-16T09:25:39Z</time>
      </trkpt>
      <trkpt lat="44.60458" lon="2.48268">
        <ele>564</ele>
        <time>2012-09-16T09:25:52Z</time>
      </trkpt>
      <trkpt lat="44.60466" lon="2.48254">
        <ele>560</ele>
        <time>2012-09-16T09:26:03Z</time>
      </trkpt>
      <trkpt lat="44.60478" lon="2.48245">
        <ele>565</ele>
        <time>2012-09-16T09:26:16Z</time>
      </trkpt>
      <trkpt lat="44.60482" lon="2.48236">
        <ele>560</ele>
        <time>2012-09-16T09:26:32Z</time>
      </trkpt>
      <trkpt lat="44.6048" lon="2.48232">
        <ele>576</ele>
        <time>2012-09-16T09:26:46Z</time>
      </trkpt>
      <trkpt lat="44.6049" lon="2.48222">
        <ele>572</ele>
        <time>2012-09-16T09:26:57Z</time>
      </trkpt>
      <trkpt lat="44.60498" lon="2.48214">
        <ele>573</ele>
        <time>2012-09-16T09:27:07Z</time>
      </trkpt>
      <trkpt lat="44.60498" lon="2.48215">
        <ele>572</ele>
        <time>2012-09-16T09:27:21Z</time>
      </trkpt>
      <trkpt lat="44.60504" lon="2.48225">
        <ele>578</ele>
        <time>2012-09-16T09:27:34Z</time>
      </trkpt>
      <trkpt lat="44.60514" lon="2.48233">
        <ele>572</ele>
        <time>2012-09-16T09:27:45Z</time>
      </trkpt>
      <trkpt lat="44.60516" lon="2.48251">
        <ele>579</ele>
        <time>2012-09-16T09:27:57Z</time>
      </trkpt>
      <trkpt lat="44.60519" lon="2.48268">
        <ele>579</ele>
        <time>2012-09-16T09:29:00Z</time>
      </trkpt>
      <trkpt lat="44.60517" lon="2.48267">
        <ele>572</ele>
        <time>2012-09-16T09:34:22Z</time>
      </trkpt>
      <trkpt lat="44.60523" lon="2.48268">
        <ele>602</ele>
        <time>2012-09-16T09:34:52Z</time>
      </trkpt>
      <trkpt lat="44.60521" lon="2.48271">
        <ele>579</ele>
        <time>2012-09-16T09:37:56Z</time>
      </trkpt>
      <trkpt lat="44.60523" lon="2.48269">
        <ele>571</ele>
        <time>2012-09-16T09:39:06Z</time>
      </trkpt>
      <trkpt lat="44.60522" lon="2.48265">
        <ele>575</ele>
        <time>2012-09-16T09:42:22Z</time>
      </trkpt>
      <trkpt lat="44.60519" lon="2.48266">
        <ele>585</ele>
        <time>2012-09-16T09:43:17Z</time>
      </trkpt>
      <trkpt lat="44.60516" lon="2.48266">
        <ele>572</ele>
        <time>2012-09-16T09:43:42Z</time>
      </trkpt>
      <trkpt lat="44.60511" lon="2.48266">
        <ele>573</ele>
        <time>2012-09-16T09:44:09Z</time>
      </trkpt>
      <trkpt lat="44.6051" lon="2.48253">
        <ele>564</ele>
        <time>2012-09-16T09:44:21Z</time>
      </trkpt>
      <trkpt lat="44.60508" lon="2.48241">
        <ele>574</ele>
        <time>2012-09-16T09:44:31Z</time>
      </trkpt>
      <trkpt lat="44.605" lon="2.48228">
        <ele>572</ele>
        <time>2012-09-16T09:44:45Z</time>
      </trkpt>
      <trkpt lat="44.60494" lon="2.4822">
        <ele>575</ele>
        <time>2012-09-16T09:44:56Z</time>
      </trkpt>
      <trkpt lat="44.60501" lon="2.4821">
        <ele>574</ele>
        <time>2012-09-16T09:45:08Z</time>
      </trkpt>
      <trkpt lat="44.60508" lon="2.48192">
        <ele>574</ele>
        <time>2012-09-16T09:45:21Z</time>
      </trkpt>
      <trkpt lat="44.60515" lon="2.48182">
        <ele>577</ele>
        <time>2012-09-16T09:45:32Z</time>
      </trkpt>
      <trkpt lat="44.60516" lon="2.48175">
        <ele>580</ele>
        <time>2012-09-16T09:45:45Z</time>
      </trkpt>
      <trkpt lat="44.60519" lon="2.48162">
        <ele>582</ele>
        <time>2012-09-16T09:45:59Z</time>
      </trkpt>
      <trkpt lat="44.60516" lon="2.48152">
        <ele>584</ele>
        <time>2012-09-16T09:46:10Z</time>
      </trkpt>
      <trkpt lat="44.60519" lon="2.48143">
        <ele>585</ele>
        <time>2012-09-16T09:46:23Z</time>
      </trkpt>
      <trkpt lat="44.60526" lon="2.48136">
        <ele>579</ele>
        <time>2012-09-16T09:46:35Z</time>
      </trkpt>
      <trkpt lat="44.60534" lon="2.48124">
        <ele>586</ele>
        <time>2012-09-16T09:46:47Z</time>
      </trkpt>
      <trkpt lat="44.60541" lon="2.4811">
        <ele>587</ele>
        <time>2012-09-16T09:46:59Z</time>
      </trkpt>
      <trkpt lat="44.60543" lon="2.48095">
        <ele>588</ele>
        <time>2012-09-16T09:47:11Z</time>
      </trkpt>
      <trkpt lat="44.60548" lon="2.48081">
        <ele>588</ele>
        <time>2012-09-16T09:47:22Z</time>
      </trkpt>
      <trkpt lat="44.6055" lon="2.48069">
        <ele>592</ele>
        <time>2012-09-16T09:47:33Z</time>
      </trkpt>
      <trkpt lat="44.60553" lon="2.48061">
        <ele>594</ele>
        <time>2012-09-16T09:47:43Z</time>
      </trkpt>
      <trkpt lat="44.60555" lon="2.48054">
        <ele>597</ele>
        <time>2012-09-16T09:47:54Z</time>
      </trkpt>
      <trkpt lat="44.60555" lon="2.48041">
        <ele>596</ele>
        <time>2012-09-16T09:48:06Z</time>
      </trkpt>
      <trkpt lat="44.60553" lon="2.48024">
        <ele>597</ele>
        <time>2012-09-16T09:48:18Z</time>
      </trkpt>
      <trkpt lat="44.60553" lon="2.48011">
        <ele>599</ele>
        <time>2012-09-16T09:48:28Z</time>
      </trkpt>
      <trkpt lat="44.60548" lon="2.48004">
        <ele>603</ele>
        <time>2012-09-16T09:48:40Z</time>
      </trkpt>
      <trkpt lat="44.60543" lon="2.47999">
        <ele>594</ele>
        <time>2012-09-16T09:48:55Z</time>
      </trkpt>
      <trkpt lat="44.60536" lon="2.48013">
        <ele>591</ele>
        <time>2012-09-16T09:49:14Z</time>
      </trkpt>
      <trkpt lat="44.60542" lon="2.48015">
        <ele>595</ele>
        <time>2012-09-16T09:50:38Z</time>
      </trkpt>
      <trkpt lat="44.60542" lon="2.48002">
        <ele>593</ele>
        <time>2012-09-16T09:50:52Z</time>
      </trkpt>
      <trkpt lat="44.60544" lon="2.47999">
        <ele>604</ele>
        <time>2012-09-16T09:51:14Z</time>
      </trkpt>
      <trkpt lat="44.60544" lon="2.48004">
        <ele>599</ele>
        <time>2012-09-16T09:51:25Z</time>
      </trkpt>
      <trkpt lat="44.60544" lon="2.47997">
        <ele>600</ele>
        <time>2012-09-16T09:51:39Z</time>
      </trkpt>
      <trkpt lat="44.60546" lon="2.47991">
        <ele>595</ele>
        <time>2012-09-16T09:51:55Z</time>
      </trkpt>
      <trkpt lat="44.60552" lon="2.47987">
        <ele>589</ele>
        <time>2012-09-16T09:52:07Z</time>
      </trkpt>
      <trkpt lat="44.60559" lon="2.47988">
        <ele>587</ele>
        <time>2012-09-16T09:52:18Z</time>
      </trkpt>
      <trkpt lat="44.60558" lon="2.47987">
        <ele>602</ele>
        <time>2012-09-16T09:52:31Z</time>
      </trkpt>
      <trkpt lat="44.60555" lon="2.47982">
        <ele>607</ele>
        <time>2012-09-16T09:52:44Z</time>
      </trkpt>
      <trkpt lat="44.60556" lon="2.4797">
        <ele>608</ele>
        <time>2012-09-16T09:52:56Z</time>
      </trkpt>
      <trkpt lat="44.60558" lon="2.47956">
        <ele>609</ele>
        <time>2012-09-16T09:53:08Z</time>
      </trkpt>
      <trkpt lat="44.60561" lon="2.47947">
        <ele>608</ele>
        <time>2012-09-16T09:53:19Z</time>
      </trkpt>
      <trkpt lat="44.60566" lon="2.47941">
        <ele>618</ele>
        <time>2012-09-16T09:53:30Z</time>
      </trkpt>
      <trkpt lat="44.60571" lon="2.47938">
        <ele>612</ele>
        <time>2012-09-16T09:53:42Z</time>
      </trkpt>
      <trkpt lat="44.60579" lon="2.47925">
        <ele>612</ele>
        <time>2012-09-16T09:53:54Z</time>
      </trkpt>
      <trkpt lat="44.60588" lon="2.47918">
        <ele>613</ele>
        <time>2012-09-16T09:54:05Z</time>
      </trkpt>
      <trkpt lat="44.60588" lon="2.47911">
        <ele>620</ele>
        <time>2012-09-16T09:54:16Z</time>
      </trkpt>
      <trkpt lat="44.60594" lon="2.47895">
        <ele>620</ele>
        <time>2012-09-16T09:54:35Z</time>
      </trkpt>
      <trkpt lat="44.606" lon="2.47879">
        <ele>633</ele>
        <time>2012-09-16T09:54:47Z</time>
      </trkpt>
      <trkpt lat="44.606" lon="2.47865">
        <ele>637</ele>
        <time>2012-09-16T09:54:58Z</time>
      </trkpt>
      <trkpt lat="44.60603" lon="2.47854">
        <ele>630</ele>
        <time>2012-09-16T09:55:09Z</time>
      </trkpt>
      <trkpt lat="44.6061" lon="2.47838">
        <ele>625</ele>
        <time>2012-09-16T09:55:21Z</time>
      </trkpt>
      <trkpt lat="44.60615" lon="2.47833">
        <ele>625</ele>
        <time>2012-09-16T09:55:33Z</time>
      </trkpt>
      <trkpt lat="44.60619" lon="2.47816">
        <ele>637</ele>
        <time>2012-09-16T09:55:45Z</time>
      </trkpt>
      <trkpt lat="44.60617" lon="2.47799">
        <ele>637</ele>
        <time>2012-09-16T09:55:57Z</time>
      </trkpt>
      <trkpt lat="44.60617" lon="2.47782">
        <ele>639</ele>
        <time>2012-09-16T09:56:10Z</time>
      </trkpt>
      <trkpt lat="44.60608" lon="2.4777">
        <ele>643</ele>
        <time>2012-09-16T09:56:24Z</time>
      </trkpt>
      <trkpt lat="44.60603" lon="2.47756">
        <ele>645</ele>
        <time>2012-09-16T09:56:36Z</time>
      </trkpt>
      <trkpt lat="44.60593" lon="2.47742">
        <ele>649</ele>
        <time>2012-09-16T09:56:47Z</time>
      </trkpt>
      <trkpt lat="44.60592" lon="2.47727">
        <ele>638</ele>
        <time>2012-09-16T09:57:27Z</time>
      </trkpt>
      <trkpt lat="44.60596" lon="2.47721">
        <ele>633</ele>
        <time>2012-09-16T09:57:59Z</time>
      </trkpt>
      <trkpt lat="44.60589" lon="2.4771">
        <ele>641</ele>
        <time>2012-09-16T09:58:09Z</time>
      </trkpt>
      <trkpt lat="44.60582" lon="2.47694">
        <ele>643</ele>
        <time>2012-09-16T09:58:21Z</time>
      </trkpt>
      <trkpt lat="44.60573" lon="2.47679">
        <ele>637</ele>
        <time>2012-09-16T09:58:53Z</time>
      </trkpt>
      <trkpt lat="44.60566" lon="2.47659">
        <ele>644</ele>
        <time>2012-09-16T09:59:05Z</time>
      </trkpt>
      <trkpt lat="44.60559" lon="2.47645">
        <ele>639</ele>
        <time>2012-09-16T09:59:16Z</time>
      </trkpt>
      <trkpt lat="44.60553" lon="2.47631">
        <ele>638</ele>
        <time>2012-09-16T09:59:26Z</time>
      </trkpt>
      <trkpt lat="44.60548" lon="2.47613">
        <ele>633</ele>
        <time>2012-09-16T09:59:37Z</time>
      </trkpt>
      <trkpt lat="44.60546" lon="2.47595">
        <ele>633</ele>
        <time>2012-09-16T09:59:48Z</time>
      </trkpt>
      <trkpt lat="44.60542" lon="2.47579">
        <ele>642</ele>
        <time>2012-09-16T09:59:59Z</time>
      </trkpt>
      <trkpt lat="44.60539" lon="2.47561">
        <ele>639</ele>
        <time>2012-09-16T10:00:11Z</time>
      </trkpt>
      <trkpt lat="44.60535" lon="2.47549">
        <ele>636</ele>
        <time>2012-09-16T10:00:22Z</time>
      </trkpt>
      <trkpt lat="44.60533" lon="2.47531">
        <ele>642</ele>
        <time>2012-09-16T10:00:34Z</time>
      </trkpt>
      <trkpt lat="44.60532" lon="2.47509">
        <ele>645</ele>
        <time>2012-09-16T10:00:47Z</time>
      </trkpt>
      <trkpt lat="44.60527" lon="2.47497">
        <ele>644</ele>
        <time>2012-09-16T10:00:58Z</time>
      </trkpt>
      <trkpt lat="44.60524" lon="2.4748">
        <ele>648</ele>
        <time>2012-09-16T10:01:10Z</time>
      </trkpt>
      <trkpt lat="44.60526" lon="2.47462">
        <ele>647</ele>
        <time>2012-09-16T10:01:23Z</time>
      </trkpt>
      <trkpt lat="44.60531" lon="2.47439">
        <ele>640</ele>
        <time>2012-09-16T10:01:36Z</time>
      </trkpt>
      <trkpt lat="44.60538" lon="2.47417">
        <ele>646</ele>
        <time>2012-09-16T10:01:48Z</time>
      </trkpt>
      <trkpt lat="44.60544" lon="2.47401">
        <ele>649</ele>
        <time>2012-09-16T10:02:00Z</time>
      </trkpt>
      <trkpt lat="44.60545" lon="2.47389">
        <ele>648</ele>
        <time>2012-09-16T10:02:10Z</time>
      </trkpt>
      <trkpt lat="44.60543" lon="2.47372">
        <ele>654</ele>
        <time>2012-09-16T10:02:23Z</time>
      </trkpt>
      <trkpt lat="44.60537" lon="2.47361">
        <ele>652</ele>
        <time>2012-09-16T10:02:34Z</time>
      </trkpt>
      <trkpt lat="44.60535" lon="2.47342">
        <ele>645</ele>
        <time>2012-09-16T10:02:45Z</time>
      </trkpt>
      <trkpt lat="44.60535" lon="2.47325">
        <ele>656</ele>
        <time>2012-09-16T10:02:57Z</time>
      </trkpt>
      <trkpt lat="44.60534" lon="2.47307">
        <ele>660</ele>
        <time>2012-09-16T10:03:09Z</time>
      </trkpt>
      <trkpt lat="44.60532" lon="2.47286">
        <ele>663</ele>
        <time>2012-09-16T10:03:21Z</time>
      </trkpt>
      <trkpt lat="44.60528" lon="2.47266">
        <ele>652</ele>
        <time>2012-09-16T10:03:34Z</time>
      </trkpt>
      <trkpt lat="44.60521" lon="2.47254">
        <ele>653</ele>
        <time>2012-09-16T10:03:48Z</time>
      </trkpt>
      <trkpt lat="44.60516" lon="2.47255">
        <ele>650</ele>
        <time>2012-09-16T10:03:59Z</time>
      </trkpt>
      <trkpt lat="44.60515" lon="2.47264">
        <ele>642</ele>
        <time>2012-09-16T10:04:11Z</time>
      </trkpt>
      <trkpt lat="44.60516" lon="2.47259">
        <ele>647</ele>
        <time>2012-09-16T10:04:21Z</time>
      </trkpt>
      <trkpt lat="44.60519" lon="2.47247">
        <ele>649</ele>
        <time>2012-09-16T10:04:33Z</time>
      </trkpt>
      <trkpt lat="44.60514" lon="2.47229">
        <ele>648</ele>
        <time>2012-09-16T10:04:44Z</time>
      </trkpt>
      <trkpt lat="44.60505" lon="2.47216">
        <ele>642</ele>
        <time>2012-09-16T10:04:57Z</time>
      </trkpt>
      <trkpt lat="44.605" lon="2.47203">
        <ele>652</ele>
        <time>2012-09-16T10:05:09Z</time>
      </trkpt>
      <trkpt lat="44.60497" lon="2.47186">
        <ele>658</ele>
        <time>2012-09-16T10:05:22Z</time>
      </trkpt>
      <trkpt lat="44.60507" lon="2.47161">
        <ele>663</ele>
        <time>2012-09-16T10:05:33Z</time>
      </trkpt>
      <trkpt lat="44.60519" lon="2.47126">
        <ele>659</ele>
        <time>2012-09-16T10:05:44Z</time>
      </trkpt>
      <trkpt lat="44.60524" lon="2.47108">
        <ele>662</ele>
        <time>2012-09-16T10:05:54Z</time>
      </trkpt>
      <trkpt lat="44.60525" lon="2.47092">
        <ele>656</ele>
        <time>2012-09-16T10:06:05Z</time>
      </trkpt>
      <trkpt lat="44.6053" lon="2.47069">
        <ele>654</ele>
        <time>2012-09-16T10:06:18Z</time>
      </trkpt>
      <trkpt lat="44.60535" lon="2.47057">
        <ele>659</ele>
        <time>2012-09-16T10:06:28Z</time>
      </trkpt>
      <trkpt lat="44.6054" lon="2.47038">
        <ele>661</ele>
        <time>2012-09-16T10:06:40Z</time>
      </trkpt>
      <trkpt lat="44.60545" lon="2.4702">
        <ele>661</ele>
        <time>2012-09-16T10:06:51Z</time>
      </trkpt>
      <trkpt lat="44.6055" lon="2.47002">
        <ele>661</ele>
        <time>2012-09-16T10:07:01Z</time>
      </trkpt>
      <trkpt lat="44.60554" lon="2.46984">
        <ele>653</ele>
        <time>2012-09-16T10:07:12Z</time>
      </trkpt>
      <trkpt lat="44.60556" lon="2.46963">
        <ele>657</ele>
        <time>2012-09-16T10:07:24Z</time>
      </trkpt>
      <trkpt lat="44.60562" lon="2.46945">
        <ele>661</ele>
        <time>2012-09-16T10:07:37Z</time>
      </trkpt>
      <trkpt lat="44.60567" lon="2.46929">
        <ele>657</ele>
        <time>2012-09-16T10:07:50Z</time>
      </trkpt>
      <trkpt lat="44.60573" lon="2.46915">
        <ele>654</ele>
        <time>2012-09-16T10:08:01Z</time>
      </trkpt>
      <trkpt lat="44.60583" lon="2.46896">
        <ele>655</ele>
        <time>2012-09-16T10:08:12Z</time>
      </trkpt>
      <trkpt lat="44.60589" lon="2.4688">
        <ele>655</ele>
        <time>2012-09-16T10:08:23Z</time>
      </trkpt>
      <trkpt lat="44.60591" lon="2.46861">
        <ele>660</ele>
        <time>2012-09-16T10:08:34Z</time>
      </trkpt>
      <trkpt lat="44.60592" lon="2.46843">
        <ele>653</ele>
        <time>2012-09-16T10:08:47Z</time>
      </trkpt>
      <trkpt lat="44.6059" lon="2.46822">
        <ele>653</ele>
        <time>2012-09-16T10:08:58Z</time>
      </trkpt>
      <trkpt lat="44.60591" lon="2.46804">
        <ele>656</ele>
        <time>2012-09-16T10:09:09Z</time>
      </trkpt>
      <trkpt lat="44.60592" lon="2.46785">
        <ele>655</ele>
        <time>2012-09-16T10:09:20Z</time>
      </trkpt>
      <trkpt lat="44.60596" lon="2.46767">
        <ele>652</ele>
        <time>2012-09-16T10:09:30Z</time>
      </trkpt>
      <trkpt lat="44.60604" lon="2.46746">
        <ele>658</ele>
        <time>2012-09-16T10:09:43Z</time>
      </trkpt>
      <trkpt lat="44.60606" lon="2.46733">
        <ele>658</ele>
        <time>2012-09-16T10:09:53Z</time>
      </trkpt>
      <trkpt lat="44.60609" lon="2.46716">
        <ele>658</ele>
        <time>2012-09-16T10:10:04Z</time>
      </trkpt>
      <trkpt lat="44.60616" lon="2.46699">
        <ele>662</ele>
        <time>2012-09-16T10:10:16Z</time>
      </trkpt>
      <trkpt lat="44.60621" lon="2.46679">
        <ele>662</ele>
        <time>2012-09-16T10:10:27Z</time>
      </trkpt>
      <trkpt lat="44.60627" lon="2.46663">
        <ele>659</ele>
        <time>2012-09-16T10:10:39Z</time>
      </trkpt>
      <trkpt lat="44.60634" lon="2.46648">
        <ele>663</ele>
        <time>2012-09-16T10:10:50Z</time>
      </trkpt>
      <trkpt lat="44.60638" lon="2.4663">
        <ele>662</ele>
        <time>2012-09-16T10:11:02Z</time>
      </trkpt>
      <trkpt lat="44.60647" lon="2.46608">
        <ele>659</ele>
        <time>2012-09-16T10:11:14Z</time>
      </trkpt>
      <trkpt lat="44.60654" lon="2.46589">
        <ele>660</ele>
        <time>2012-09-16T10:11:25Z</time>
      </trkpt>
      <trkpt lat="44.60657" lon="2.46571">
        <ele>662</ele>
        <time>2012-09-16T10:11:37Z</time>
      </trkpt>
      <trkpt lat="44.6066" lon="2.4655">
        <ele>660</ele>
        <time>2012-09-16T10:11:49Z</time>
      </trkpt>
      <trkpt lat="44.60662" lon="2.46532">
        <ele>662</ele>
        <time>2012-09-16T10:12:00Z</time>
      </trkpt>
      <trkpt lat="44.60662" lon="2.46513">
        <ele>657</ele>
        <time>2012-09-16T10:12:12Z</time>
      </trkpt>
      <trkpt lat="44.60662" lon="2.46493">
        <ele>659</ele>
        <time>2012-09-16T10:12:22Z</time>
      </trkpt>
      <trkpt lat="44.60663" lon="2.46471">
        <ele>658</ele>
        <time>2012-09-16T10:12:34Z</time>
      </trkpt>
      <trkpt lat="44.60661" lon="2.46453">
        <ele>659</ele>
        <time>2012-09-16T10:12:46Z</time>
      </trkpt>
      <trkpt lat="44.60663" lon="2.46435">
        <ele>660</ele>
        <time>2012-09-16T10:12:56Z</time>
      </trkpt>
      <trkpt lat="44.60662" lon="2.46416">
        <ele>661</ele>
        <time>2012-09-16T10:13:07Z</time>
      </trkpt>
      <trkpt lat="44.60665" lon="2.46395">
        <ele>663</ele>
        <time>2012-09-16T10:13:19Z</time>
      </trkpt>
      <trkpt lat="44.60666" lon="2.46375">
        <ele>660</ele>
        <time>2012-09-16T10:13:31Z</time>
      </trkpt>
      <trkpt lat="44.60669" lon="2.46357">
        <ele>660</ele>
        <time>2012-09-16T10:13:43Z</time>
      </trkpt>
      <trkpt lat="44.60673" lon="2.4634">
        <ele>659</ele>
        <time>2012-09-16T10:13:55Z</time>
      </trkpt>
      <trkpt lat="44.60677" lon="2.46324">
        <ele>667</ele>
        <time>2012-09-16T10:14:06Z</time>
      </trkpt>
      <trkpt lat="44.60679" lon="2.4631">
        <ele>670</ele>
        <time>2012-09-16T10:14:16Z</time>
      </trkpt>
      <trkpt lat="44.60685" lon="2.46293">
        <ele>672</ele>
        <time>2012-09-16T10:14:29Z</time>
      </trkpt>
      <trkpt lat="44.60688" lon="2.46273">
        <ele>669</ele>
        <time>2012-09-16T10:14:41Z</time>
      </trkpt>
      <trkpt lat="44.60692" lon="2.46253">
        <ele>670</ele>
        <time>2012-09-16T10:14:53Z</time>
      </trkpt>
      <trkpt lat="44.60694" lon="2.46236">
        <ele>673</ele>
        <time>2012-09-16T10:15:05Z</time>
      </trkpt>
      <trkpt lat="44.60698" lon="2.46219">
        <ele>672</ele>
        <time>2012-09-16T10:15:16Z</time>
      </trkpt>
      <trkpt lat="44.60698" lon="2.46204">
        <ele>675</ele>
        <time>2012-09-16T10:15:27Z</time>
      </trkpt>
      <trkpt lat="44.60698" lon="2.46182">
        <ele>676</ele>
        <time>2012-09-16T10:15:38Z</time>
      </trkpt>
      <trkpt lat="44.60699" lon="2.46162">
        <ele>674</ele>
        <time>2012-09-16T10:15:49Z</time>
      </trkpt>
      <trkpt lat="44.60703" lon="2.46145">
        <ele>679</ele>
        <time>2012-09-16T10:16:00Z</time>
      </trkpt>
      <trkpt lat="44.60713" lon="2.46135">
        <ele>675</ele>
        <time>2012-09-16T10:16:11Z</time>
      </trkpt>
      <trkpt lat="44.60727" lon="2.46127">
        <ele>676</ele>
        <time>2012-09-16T10:16:24Z</time>
      </trkpt>
      <trkpt lat="44.60744" lon="2.46124">
        <ele>680</ele>
        <time>2012-09-16T10:16:37Z</time>
      </trkpt>
      <trkpt lat="44.60755" lon="2.46123">
        <ele>678</ele>
        <time>2012-09-16T10:16:47Z</time>
      </trkpt>
      <trkpt lat="44.60755" lon="2.46121">
        <ele>670</ele>
        <time>2012-09-16T10:17:09Z</time>
      </trkpt>
      <trkpt lat="44.60757" lon="2.46119">
        <ele>674</ele>
        <time>2012-09-16T10:17:28Z</time>
      </trkpt>
      <trkpt lat="44.6076" lon="2.46118">
        <ele>678</ele>
        <time>2012-09-16T10:17:40Z</time>
      </trkpt>
      <trkpt lat="44.60763" lon="2.46119">
        <ele>676</ele>
        <time>2012-09-16T10:17:52Z</time>
      </trkpt>
      <trkpt lat="44.60766" lon="2.46118">
        <ele>679</ele>
        <time>2012-09-16T10:18:59Z</time>
      </trkpt>
      <trkpt lat="44.60784" lon="2.46115">
        <ele>672</ele>
        <time>2012-09-16T10:19:10Z</time>
      </trkpt>
      <trkpt lat="44.60794" lon="2.46112">
        <ele>684</ele>
        <time>2012-09-16T10:19:21Z</time>
      </trkpt>
      <trkpt lat="44.60807" lon="2.46108">
        <ele>676</ele>
        <time>2012-09-16T10:19:32Z</time>
      </trkpt>
      <trkpt lat="44.60821" lon="2.46102">
        <ele>685</ele>
        <time>2012-09-16T10:19:43Z</time>
      </trkpt>
      <trkpt lat="44.60834" lon="2.46096">
        <ele>684</ele>
        <time>2012-09-16T10:19:54Z</time>
      </trkpt>
      <trkpt lat="44.60846" lon="2.46092">
        <ele>678</ele>
        <time>2012-09-16T10:20:05Z</time>
      </trkpt>
      <trkpt lat="44.60857" lon="2.46083">
        <ele>678</ele>
        <time>2012-09-16T10:20:16Z</time>
      </trkpt>
      <trkpt lat="44.60873" lon="2.46077">
        <ele>677</ele>
        <time>2012-09-16T10:20:26Z</time>
      </trkpt>
      <trkpt lat="44.60886" lon="2.46069">
        <ele>675</ele>
        <time>2012-09-16T10:20:38Z</time>
      </trkpt>
      <trkpt lat="44.60898" lon="2.46063">
        <ele>678</ele>
        <time>2012-09-16T10:20:49Z</time>
      </trkpt>
      <trkpt lat="44.60915" lon="2.46057">
        <ele>680</ele>
        <time>2012-09-16T10:21:01Z</time>
      </trkpt>
      <trkpt lat="44.60926" lon="2.46052">
        <ele>680</ele>
        <time>2012-09-16T10:21:11Z</time>
      </trkpt>
      <trkpt lat="44.60939" lon="2.46047">
        <ele>679</ele>
        <time>2012-09-16T10:21:21Z</time>
      </trkpt>
      <trkpt lat="44.60951" lon="2.4604">
        <ele>679</ele>
        <time>2012-09-16T10:21:32Z</time>
      </trkpt>
      <trkpt lat="44.60963" lon="2.46034">
        <ele>677</ele>
        <time>2012-09-16T10:21:42Z</time>
      </trkpt>
      <trkpt lat="44.60976" lon="2.4603">
        <ele>682</ele>
        <time>2012-09-16T10:21:54Z</time>
      </trkpt>
      <trkpt lat="44.60989" lon="2.46025">
        <ele>681</ele>
        <time>2012-09-16T10:22:06Z</time>
      </trkpt>
      <trkpt lat="44.61003" lon="2.46021">
        <ele>677</ele>
        <time>2012-09-16T10:22:18Z</time>
      </trkpt>
      <trkpt lat="44.61016" lon="2.46018">
        <ele>680</ele>
        <time>2012-09-16T10:22:29Z</time>
      </trkpt>
      <trkpt lat="44.61029" lon="2.46012">
        <ele>679</ele>
        <time>2012-09-16T10:22:39Z</time>
      </trkpt>
      <trkpt lat="44.61043" lon="2.46007">
        <ele>678</ele>
        <time>2012-09-16T10:22:52Z</time>
      </trkpt>
      <trkpt lat="44.61058" lon="2.46002">
        <ele>673</ele>
        <time>2012-09-16T10:23:04Z</time>
      </trkpt>
      <trkpt lat="44.61073" lon="2.45998">
        <ele>675</ele>
        <time>2012-09-16T10:23:16Z</time>
      </trkpt>
      <trkpt lat="44.61087" lon="2.45991">
        <ele>673</ele>
        <time>2012-09-16T10:23:29Z</time>
      </trkpt>
      <trkpt lat="44.611" lon="2.45985">
        <ele>679</ele>
        <time>2012-09-16T10:23:39Z</time>
      </trkpt>
      <trkpt lat="44.611" lon="2.45983">
        <ele>673</ele>
        <time>2012-09-16T10:24:25Z</time>
      </trkpt>
      <trkpt lat="44.61099" lon="2.45979">
        <ele>674</ele>
        <time>2012-09-16T10:27:17Z</time>
      </trkpt>
      <trkpt lat="44.61097" lon="2.45976">
        <ele>669</ele>
        <time>2012-09-16T10:29:09Z</time>
      </trkpt>
      <trkpt lat="44.61097" lon="2.45964">
        <ele>671</ele>
        <time>2012-09-16T10:29:20Z</time>
      </trkpt>
      <trkpt lat="44.61103" lon="2.45946">
        <ele>676</ele>
        <time>2012-09-16T10:29:31Z</time>
      </trkpt>
      <trkpt lat="44.61109" lon="2.45928">
        <ele>673</ele>
        <time>2012-09-16T10:29:43Z</time>
      </trkpt>
      <trkpt lat="44.61114" lon="2.45916">
        <ele>673</ele>
        <time>2012-09-16T10:29:53Z</time>
      </trkpt>
      <trkpt lat="44.61119" lon="2.45901">
        <ele>676</ele>
        <time>2012-09-16T10:30:05Z</time>
      </trkpt>
      <trkpt lat="44.61126" lon="2.45885">
        <ele>675</ele>
        <time>2012-09-16T10:30:16Z</time>
      </trkpt>
      <trkpt lat="44.61131" lon="2.45869">
        <ele>675</ele>
        <time>2012-09-16T10:30:27Z</time>
      </trkpt>
      <trkpt lat="44.61137" lon="2.4585">
        <ele>676</ele>
        <time>2012-09-16T10:30:40Z</time>
      </trkpt>
      <trkpt lat="44.61143" lon="2.4583">
        <ele>675</ele>
        <time>2012-09-16T10:30:52Z</time>
      </trkpt>
      <trkpt lat="44.61148" lon="2.45812">
        <ele>675</ele>
        <time>2012-09-16T10:31:03Z</time>
      </trkpt>
      <trkpt lat="44.61153" lon="2.45794">
        <ele>678</ele>
        <time>2012-09-16T10:31:16Z</time>
      </trkpt>
      <trkpt lat="44.61154" lon="2.45776">
        <ele>675</ele>
        <time>2012-09-16T10:31:27Z</time>
      </trkpt>
      <trkpt lat="44.6116" lon="2.45754">
        <ele>676</ele>
        <time>2012-09-16T10:31:39Z</time>
      </trkpt>
      <trkpt lat="44.61167" lon="2.45737">
        <ele>675</ele>
        <time>2012-09-16T10:31:51Z</time>
      </trkpt>
      <trkpt lat="44.61177" lon="2.45722">
        <ele>674</ele>
        <time>2012-09-16T10:32:03Z</time>
      </trkpt>
      <trkpt lat="44.61188" lon="2.45709">
        <ele>675</ele>
        <time>2012-09-16T10:32:14Z</time>
      </trkpt>
      <trkpt lat="44.61195" lon="2.45701">
        <ele>673</ele>
        <time>2012-09-16T10:32:24Z</time>
      </trkpt>
      <trkpt lat="44.61201" lon="2.45691">
        <ele>670</ele>
        <time>2012-09-16T10:32:35Z</time>
      </trkpt>
      <trkpt lat="44.61208" lon="2.45682">
        <ele>675</ele>
        <time>2012-09-16T10:32:47Z</time>
      </trkpt>
      <trkpt lat="44.61217" lon="2.45675">
        <ele>665</ele>
        <time>2012-09-16T10:33:02Z</time>
      </trkpt>
      <trkpt lat="44.61222" lon="2.45665">
        <ele>669</ele>
        <time>2012-09-16T10:33:12Z</time>
      </trkpt>
      <trkpt lat="44.61232" lon="2.45655">
        <ele>668</ele>
        <time>2012-09-16T10:33:24Z</time>
      </trkpt>
      <trkpt lat="44.61244" lon="2.45643">
        <ele>662</ele>
        <time>2012-09-16T10:33:37Z</time>
      </trkpt>
      <trkpt lat="44.61259" lon="2.45632">
        <ele>665</ele>
        <time>2012-09-16T10:33:48Z</time>
      </trkpt>
      <trkpt lat="44.61267" lon="2.4562">
        <ele>658</ele>
        <time>2012-09-16T10:34:00Z</time>
      </trkpt>
      <trkpt lat="44.61272" lon="2.45614">
        <ele>664</ele>
        <time>2012-09-16T10:34:12Z</time>
      </trkpt>
      <trkpt lat="44.61274" lon="2.45603">
        <ele>659</ele>
        <time>2012-09-16T10:34:22Z</time>
      </trkpt>
      <trkpt lat="44.6128" lon="2.45591">
        <ele>654</ele>
        <time>2012-09-16T10:34:33Z</time>
      </trkpt>
      <trkpt lat="44.61287" lon="2.45577">
        <ele>659</ele>
        <time>2012-09-16T10:34:45Z</time>
      </trkpt>
      <trkpt lat="44.61294" lon="2.45558">
        <ele>659</ele>
        <time>2012-09-16T10:34:58Z</time>
      </trkpt>
      <trkpt lat="44.61298" lon="2.4554">
        <ele>659</ele>
        <time>2012-09-16T10:35:11Z</time>
      </trkpt>
      <trkpt lat="44.61299" lon="2.45522">
        <ele>656</ele>
        <time>2012-09-16T10:35:21Z</time>
      </trkpt>
      <trkpt lat="44.61293" lon="2.45505">
        <ele>659</ele>
        <time>2012-09-16T10:35:33Z</time>
      </trkpt>
      <trkpt lat="44.61285" lon="2.45492">
        <ele>660</ele>
        <time>2012-09-16T10:35:44Z</time>
      </trkpt>
      <trkpt lat="44.61278" lon="2.45476">
        <ele>658</ele>
        <time>2012-09-16T10:35:56Z</time>
      </trkpt>
      <trkpt lat="44.61274" lon="2.45464">
        <ele>658</ele>
        <time>2012-09-16T10:36:07Z</time>
      </trkpt>
      <trkpt lat="44.61267" lon="2.45448">
        <ele>659</ele>
        <time>2012-09-16T10:36:18Z</time>
      </trkpt>
      <trkpt lat="44.61259" lon="2.45428">
        <ele>659</ele>
        <time>2012-09-16T10:36:31Z</time>
      </trkpt>
      <trkpt lat="44.61254" lon="2.45406">
        <ele>662</ele>
        <time>2012-09-16T10:36:43Z</time>
      </trkpt>
      <trkpt lat="44.61245" lon="2.4539">
        <ele>659</ele>
        <time>2012-09-16T10:36:55Z</time>
      </trkpt>
      <trkpt lat="44.61235" lon="2.45371">
        <ele>662</ele>
        <time>2012-09-16T10:37:07Z</time>
      </trkpt>
      <trkpt lat="44.61229" lon="2.45355">
        <ele>664</ele>
        <time>2012-09-16T10:37:18Z</time>
      </trkpt>
      <trkpt lat="44.61219" lon="2.45337">
        <ele>659</ele>
        <time>2012-09-16T10:37:30Z</time>
      </trkpt>
      <trkpt lat="44.61209" lon="2.45325">
        <ele>661</ele>
        <time>2012-09-16T10:37:41Z</time>
      </trkpt>
      <trkpt lat="44.61199" lon="2.45315">
        <ele>661</ele>
        <time>2012-09-16T10:37:52Z</time>
      </trkpt>
      <trkpt lat="44.61188" lon="2.45302">
        <ele>662</ele>
        <time>2012-09-16T10:38:03Z</time>
      </trkpt>
      <trkpt lat="44.61177" lon="2.45284">
        <ele>663</ele>
        <time>2012-09-16T10:38:16Z</time>
      </trkpt>
      <trkpt lat="44.61166" lon="2.45271">
        <ele>663</ele>
        <time>2012-09-16T10:38:28Z</time>
      </trkpt>
      <trkpt lat="44.61158" lon="2.45257">
        <ele>658</ele>
        <time>2012-09-16T10:38:39Z</time>
      </trkpt>
      <trkpt lat="44.61146" lon="2.4524">
        <ele>658</ele>
        <time>2012-09-16T10:38:52Z</time>
      </trkpt>
      <trkpt lat="44.61134" lon="2.4523">
        <ele>657</ele>
        <time>2012-09-16T10:39:03Z</time>
      </trkpt>
      <trkpt lat="44.61123" lon="2.45212">
        <ele>661</ele>
        <time>2012-09-16T10:39:15Z</time>
      </trkpt>
      <trkpt lat="44.61113" lon="2.45203">
        <ele>661</ele>
        <time>2012-09-16T10:39:25Z</time>
      </trkpt>
      <trkpt lat="44.61102" lon="2.45192">
        <ele>659</ele>
        <time>2012-09-16T10:39:36Z</time>
      </trkpt>
      <trkpt lat="44.61094" lon="2.45178">
        <ele>660</ele>
        <time>2012-09-16T10:39:48Z</time>
      </trkpt>
      <trkpt lat="44.61087" lon="2.4516">
        <ele>660</ele>
        <time>2012-09-16T10:40:01Z</time>
      </trkpt>
      <trkpt lat="44.61081" lon="2.45143">
        <ele>662</ele>
        <time>2012-09-16T10:40:13Z</time>
      </trkpt>
      <trkpt lat="44.61073" lon="2.45127">
        <ele>662</ele>
        <time>2012-09-16T10:40:26Z</time>
      </trkpt>
      <trkpt lat="44.61066" lon="2.45112">
        <ele>659</ele>
        <time>2012-09-16T10:40:36Z</time>
      </trkpt>
      <trkpt lat="44.61058" lon="2.45094">
        <ele>663</ele>
        <time>2012-09-16T10:40:48Z</time>
      </trkpt>
      <trkpt lat="44.61051" lon="2.45078">
        <ele>660</ele>
        <time>2012-09-16T10:40:59Z</time>
      </trkpt>
      <trkpt lat="44.61045" lon="2.4506">
        <ele>661</ele>
        <time>2012-09-16T10:41:11Z</time>
      </trkpt>
      <trkpt lat="44.61045" lon="2.45056">
        <ele>662</ele>
        <time>2012-09-16T10:41:25Z</time>
      </trkpt>
      <trkpt lat="44.61041" lon="2.45034">
        <ele>666</ele>
        <time>2012-09-16T10:41:37Z</time>
      </trkpt>
      <trkpt lat="44.61039" lon="2.45016">
        <ele>661</ele>
        <time>2012-09-16T10:41:48Z</time>
      </trkpt>
      <trkpt lat="44.61033" lon="2.45001">
        <ele>661</ele>
        <time>2012-09-16T10:41:59Z</time>
      </trkpt>
      <trkpt lat="44.61027" lon="2.44987">
        <ele>664</ele>
        <time>2012-09-16T10:42:10Z</time>
      </trkpt>
      <trkpt lat="44.6102" lon="2.4497">
        <ele>664</ele>
        <time>2012-09-16T10:42:22Z</time>
      </trkpt>
      <trkpt lat="44.61014" lon="2.44953">
        <ele>665</ele>
        <time>2012-09-16T10:42:33Z</time>
      </trkpt>
      <trkpt lat="44.61004" lon="2.44941">
        <ele>662</ele>
        <time>2012-09-16T10:42:47Z</time>
      </trkpt>
      <trkpt lat="44.60991" lon="2.44934">
        <ele>665</ele>
        <time>2012-09-16T10:42:59Z</time>
      </trkpt>
      <trkpt lat="44.60979" lon="2.44924">
        <ele>664</ele>
        <time>2012-09-16T10:43:10Z</time>
      </trkpt>
      <trkpt lat="44.60965" lon="2.44913">
        <ele>668</ele>
        <time>2012-09-16T10:43:21Z</time>
      </trkpt>
      <trkpt lat="44.60954" lon="2.44904">
        <ele>665</ele>
        <time>2012-09-16T10:43:31Z</time>
      </trkpt>
      <trkpt lat="44.60943" lon="2.44897">
        <ele>657</ele>
        <time>2012-09-16T10:43:42Z</time>
      </trkpt>
      <trkpt lat="44.60933" lon="2.44886">
        <ele>656</ele>
        <time>2012-09-16T10:43:55Z</time>
      </trkpt>
      <trkpt lat="44.60924" lon="2.44874">
        <ele>657</ele>
        <time>2012-09-16T10:44:05Z</time>
      </trkpt>
      <trkpt lat="44.60921" lon="2.44861">
        <ele>663</ele>
        <time>2012-09-16T10:44:15Z</time>
      </trkpt>
      <trkpt lat="44.60917" lon="2.44847">
        <ele>659</ele>
        <time>2012-09-16T10:44:25Z</time>
      </trkpt>
      <trkpt lat="44.60904" lon="2.44844">
        <ele>658</ele>
        <time>2012-09-16T10:44:37Z</time>
      </trkpt>
      <trkpt lat="44.60891" lon="2.4485">
        <ele>658</ele>
        <time>2012-09-16T10:44:47Z</time>
      </trkpt>
      <trkpt lat="44.60879" lon="2.44845">
        <ele>658</ele>
        <time>2012-09-16T10:44:59Z</time>
      </trkpt>
      <trkpt lat="44.6087" lon="2.4484">
        <ele>655</ele>
        <time>2012-09-16T10:45:09Z</time>
      </trkpt>
      <trkpt lat="44.60863" lon="2.44828">
        <ele>660</ele>
        <time>2012-09-16T10:45:27Z</time>
      </trkpt>
      <trkpt lat="44.60863" lon="2.44823">
        <ele>651</ele>
        <time>2012-09-16T10:46:14Z</time>
      </trkpt>
      <trkpt lat="44.60863" lon="2.44805">
        <ele>654</ele>
        <time>2012-09-16T10:46:26Z</time>
      </trkpt>
      <trkpt lat="44.60869" lon="2.44785">
        <ele>656</ele>
        <time>2012-09-16T10:46:38Z</time>
      </trkpt>
      <trkpt lat="44.60874" lon="2.44768">
        <ele>657</ele>
        <time>2012-09-16T10:46:49Z</time>
      </trkpt>
      <trkpt lat="44.60881" lon="2.44753">
        <ele>654</ele>
        <time>2012-09-16T10:47:00Z</time>
      </trkpt>
      <trkpt lat="44.60886" lon="2.44737">
        <ele>659</ele>
        <time>2012-09-16T10:47:11Z</time>
      </trkpt>
      <trkpt lat="44.60897" lon="2.44719">
        <ele>658</ele>
        <time>2012-09-16T10:47:24Z</time>
      </trkpt>
      <trkpt lat="44.60902" lon="2.44707">
        <ele>656</ele>
        <time>2012-09-16T10:47:35Z</time>
      </trkpt>
      <trkpt lat="44.60909" lon="2.44692">
        <ele>654</ele>
        <time>2012-09-16T10:47:45Z</time>
      </trkpt>
      <trkpt lat="44.60915" lon="2.44677">
        <ele>652</ele>
        <time>2012-09-16T10:47:56Z</time>
      </trkpt>
      <trkpt lat="44.60923" lon="2.44663">
        <ele>653</ele>
        <time>2012-09-16T10:48:07Z</time>
      </trkpt>
      <trkpt lat="44.60929" lon="2.44648">
        <ele>653</ele>
        <time>2012-09-16T10:48:18Z</time>
      </trkpt>
      <trkpt lat="44.60935" lon="2.44633">
        <ele>653</ele>
        <time>2012-09-16T10:48:29Z</time>
      </trkpt>
      <trkpt lat="44.60936" lon="2.44614">
        <ele>652</ele>
        <time>2012-09-16T10:48:39Z</time>
      </trkpt>
      <trkpt lat="44.60937" lon="2.446">
        <ele>651</ele>
        <time>2012-09-16T10:48:49Z</time>
      </trkpt>
      <trkpt lat="44.6094" lon="2.44583">
        <ele>654</ele>
        <time>2012-09-16T10:49:01Z</time>
      </trkpt>
      <trkpt lat="44.60947" lon="2.44565">
        <ele>654</ele>
        <time>2012-09-16T10:49:11Z</time>
      </trkpt>
      <trkpt lat="44.60951" lon="2.44552">
        <ele>654</ele>
        <time>2012-09-16T10:49:23Z</time>
      </trkpt>
      <trkpt lat="44.60956" lon="2.44535">
        <ele>651</ele>
        <time>2012-09-16T10:49:36Z</time>
      </trkpt>
      <trkpt lat="44.60958" lon="2.44522">
        <ele>651</ele>
        <time>2012-09-16T10:49:47Z</time>
      </trkpt>
      <trkpt lat="44.60963" lon="2.44507">
        <ele>649</ele>
        <time>2012-09-16T10:49:58Z</time>
      </trkpt>
      <trkpt lat="44.60966" lon="2.44488">
        <ele>649</ele>
        <time>2012-09-16T10:50:08Z</time>
      </trkpt>
      <trkpt lat="44.60964" lon="2.44474">
        <ele>650</ele>
        <time>2012-09-16T10:50:18Z</time>
      </trkpt>
      <trkpt lat="44.60957" lon="2.44459">
        <ele>652</ele>
        <time>2012-09-16T10:50:31Z</time>
      </trkpt>
      <trkpt lat="44.60946" lon="2.44448">
        <ele>649</ele>
        <time>2012-09-16T10:50:42Z</time>
      </trkpt>
      <trkpt lat="44.60936" lon="2.44439">
        <ele>646</ele>
        <time>2012-09-16T10:50:52Z</time>
      </trkpt>
      <trkpt lat="44.60924" lon="2.44431">
        <ele>646</ele>
        <time>2012-09-16T10:51:05Z</time>
      </trkpt>
      <trkpt lat="44.60914" lon="2.44415">
        <ele>648</ele>
        <time>2012-09-16T10:51:17Z</time>
      </trkpt>
      <trkpt lat="44.60912" lon="2.44396">
        <ele>645</ele>
        <time>2012-09-16T10:51:30Z</time>
      </trkpt>
      <trkpt lat="44.60914" lon="2.44377">
        <ele>645</ele>
        <time>2012-09-16T10:51:40Z</time>
      </trkpt>
      <trkpt lat="44.60916" lon="2.44355">
        <ele>648</ele>
        <time>2012-09-16T10:51:52Z</time>
      </trkpt>
      <trkpt lat="44.60921" lon="2.44338">
        <ele>641</ele>
        <time>2012-09-16T10:52:04Z</time>
      </trkpt>
      <trkpt lat="44.60923" lon="2.44326">
        <ele>642</ele>
        <time>2012-09-16T10:52:15Z</time>
      </trkpt>
      <trkpt lat="44.60927" lon="2.44305">
        <ele>647</ele>
        <time>2012-09-16T10:52:26Z</time>
      </trkpt>
      <trkpt lat="44.60928" lon="2.44296">
        <ele>641</ele>
        <time>2012-09-16T10:52:40Z</time>
      </trkpt>
      <trkpt lat="44.60934" lon="2.44282">
        <ele>647</ele>
        <time>2012-09-16T10:52:50Z</time>
      </trkpt>
      <trkpt lat="44.60939" lon="2.4427">
        <ele>645</ele>
        <time>2012-09-16T10:53:00Z</time>
      </trkpt>
      <trkpt lat="44.60942" lon="2.44256">
        <ele>641</ele>
        <time>2012-09-16T10:53:10Z</time>
      </trkpt>
      <trkpt lat="44.6095" lon="2.44241">
        <ele>639</ele>
        <time>2012-09-16T10:53:23Z</time>
      </trkpt>
      <trkpt lat="44.60958" lon="2.44229">
        <ele>638</ele>
        <time>2012-09-16T10:53:35Z</time>
      </trkpt>
      <trkpt lat="44.60966" lon="2.4421">
        <ele>642</ele>
        <time>2012-09-16T10:53:48Z</time>
      </trkpt>
      <trkpt lat="44.60969" lon="2.44191">
        <ele>639</ele>
        <time>2012-09-16T10:54:00Z</time>
      </trkpt>
      <trkpt lat="44.60968" lon="2.44173">
        <ele>642</ele>
        <time>2012-09-16T10:54:10Z</time>
      </trkpt>
      <trkpt lat="44.60962" lon="2.44158">
        <ele>643</ele>
        <time>2012-09-16T10:54:22Z</time>
      </trkpt>
      <trkpt lat="44.60956" lon="2.44146">
        <ele>637</ele>
        <time>2012-09-16T10:54:32Z</time>
      </trkpt>
      <trkpt lat="44.60948" lon="2.4413">
        <ele>642</ele>
        <time>2012-09-16T10:54:44Z</time>
      </trkpt>
      <trkpt lat="44.60938" lon="2.44115">
        <ele>639</ele>
        <time>2012-09-16T10:54:56Z</time>
      </trkpt>
      <trkpt lat="44.60933" lon="2.44097">
        <ele>647</ele>
        <time>2012-09-16T10:55:08Z</time>
      </trkpt>
      <trkpt lat="44.60931" lon="2.44079">
        <ele>638</ele>
        <time>2012-09-16T10:55:19Z</time>
      </trkpt>
      <trkpt lat="44.60934" lon="2.44061">
        <ele>639</ele>
        <time>2012-09-16T10:55:30Z</time>
      </trkpt>
      <trkpt lat="44.60939" lon="2.44042">
        <ele>640</ele>
        <time>2012-09-16T10:55:42Z</time>
      </trkpt>
      <trkpt lat="44.60945" lon="2.44022">
        <ele>640</ele>
        <time>2012-09-16T10:55:55Z</time>
      </trkpt>
      <trkpt lat="44.6095" lon="2.44011">
        <ele>638</ele>
        <time>2012-09-16T10:56:05Z</time>
      </trkpt>
      <trkpt lat="44.60956" lon="2.43995">
        <ele>637</ele>
        <time>2012-09-16T10:56:21Z</time>
      </trkpt>
      <trkpt lat="44.60962" lon="2.43977">
        <ele>637</ele>
        <time>2012-09-16T10:56:34Z</time>
      </trkpt>
      <trkpt lat="44.60962" lon="2.43958">
        <ele>633</ele>
        <time>2012-09-16T10:56:45Z</time>
      </trkpt>
      <trkpt lat="44.6096" lon="2.43938">
        <ele>629</ele>
        <time>2012-09-16T10:56:58Z</time>
      </trkpt>
      <trkpt lat="44.60954" lon="2.43921">
        <ele>632</ele>
        <time>2012-09-16T10:57:10Z</time>
      </trkpt>
      <trkpt lat="44.6095" lon="2.43903">
        <ele>637</ele>
        <time>2012-09-16T10:57:22Z</time>
      </trkpt>
      <trkpt lat="44.60947" lon="2.43887">
        <ele>634</ele>
        <time>2012-09-16T10:57:34Z</time>
      </trkpt>
      <trkpt lat="44.60949" lon="2.43868">
        <ele>638</ele>
        <time>2012-09-16T10:57:46Z</time>
      </trkpt>
      <trkpt lat="44.60954" lon="2.4385">
        <ele>636</ele>
        <time>2012-09-16T10:57:58Z</time>
      </trkpt>
      <trkpt lat="44.60965" lon="2.43842">
        <ele>635</ele>
        <time>2012-09-16T10:58:09Z</time>
      </trkpt>
      <trkpt lat="44.60976" lon="2.43829">
        <ele>635</ele>
        <time>2012-09-16T10:58:21Z</time>
      </trkpt>
      <trkpt lat="44.60984" lon="2.43814">
        <ele>639</ele>
        <time>2012-09-16T10:58:33Z</time>
      </trkpt>
      <trkpt lat="44.60985" lon="2.43799">
        <ele>639</ele>
        <time>2012-09-16T10:58:43Z</time>
      </trkpt>
      <trkpt lat="44.60987" lon="2.43786">
        <ele>636</ele>
        <time>2012-09-16T10:58:53Z</time>
      </trkpt>
      <trkpt lat="44.60988" lon="2.43768">
        <ele>639</ele>
        <time>2012-09-16T10:59:04Z</time>
      </trkpt>
      <trkpt lat="44.60989" lon="2.4375">
        <ele>635</ele>
        <time>2012-09-16T10:59:15Z</time>
      </trkpt>
      <trkpt lat="44.60992" lon="2.43736">
        <ele>632</ele>
        <time>2012-09-16T10:59:26Z</time>
      </trkpt>
      <trkpt lat="44.60999" lon="2.4372">
        <ele>632</ele>
        <time>2012-09-16T10:59:37Z</time>
      </trkpt>
      <trkpt lat="44.6101" lon="2.43703">
        <ele>632</ele>
        <time>2012-09-16T10:59:49Z</time>
      </trkpt>
      <trkpt lat="44.61023" lon="2.43694">
        <ele>631</ele>
        <time>2012-09-16T11:00:00Z</time>
      </trkpt>
      <trkpt lat="44.61035" lon="2.43688">
        <ele>629</ele>
        <time>2012-09-16T11:00:11Z</time>
      </trkpt>
      <trkpt lat="44.61047" lon="2.43682">
        <ele>628</ele>
        <time>2012-09-16T11:00:24Z</time>
      </trkpt>
      <trkpt lat="44.61056" lon="2.43682">
        <ele>630</ele>
        <time>2012-09-16T11:00:34Z</time>
      </trkpt>
      <trkpt lat="44.61065" lon="2.43675">
        <ele>627</ele>
        <time>2012-09-16T11:00:44Z</time>
      </trkpt>
      <trkpt lat="44.61078" lon="2.43671">
        <ele>631</ele>
        <time>2012-09-16T11:00:56Z</time>
      </trkpt>
      <trkpt lat="44.61087" lon="2.43669">
        <ele>628</ele>
        <time>2012-09-16T11:01:07Z</time>
      </trkpt>
      <trkpt lat="44.61095" lon="2.43663">
        <ele>633</ele>
        <time>2012-09-16T11:01:18Z</time>
      </trkpt>
      <trkpt lat="44.61095" lon="2.4365">
        <ele>633</ele>
        <time>2012-09-16T11:01:30Z</time>
      </trkpt>
      <trkpt lat="44.61104" lon="2.43659">
        <ele>637</ele>
        <time>2012-09-16T11:01:41Z</time>
      </trkpt>
      <trkpt lat="44.61106" lon="2.43677">
        <ele>638</ele>
        <time>2012-09-16T11:01:57Z</time>
      </trkpt>
      <trkpt lat="44.61104" lon="2.43679">
        <ele>631</ele>
        <time>2012-09-16T11:02:55Z</time>
      </trkpt>
      <trkpt lat="44.61103" lon="2.43679">
        <ele>633</ele>
        <time>2012-09-16T11:03:18Z</time>
      </trkpt>
      <trkpt lat="44.61098" lon="2.43679">
        <ele>636</ele>
        <time>2012-09-16T11:03:30Z</time>
      </trkpt>
      <trkpt lat="44.61092" lon="2.43681">
        <ele>631</ele>
        <time>2012-09-16T11:03:48Z</time>
      </trkpt>
      <trkpt lat="44.61087" lon="2.43685">
        <ele>632</ele>
        <time>2012-09-16T11:04:00Z</time>
      </trkpt>
      <trkpt lat="44.61086" lon="2.43693">
        <ele>632</ele>
        <time>2012-09-16T11:04:10Z</time>
      </trkpt>
      <trkpt lat="44.61087" lon="2.43697">
        <ele>631</ele>
        <time>2012-09-16T11:05:05Z</time>
      </trkpt>
      <trkpt lat="44.61098" lon="2.43675">
        <ele>633</ele>
        <time>2012-09-16T11:05:21Z</time>
      </trkpt>
      <trkpt lat="44.61093" lon="2.43672">
        <ele>632</ele>
        <time>2012-09-16T11:05:51Z</time>
      </trkpt>
      <trkpt lat="44.61091" lon="2.4368">
        <ele>631</ele>
        <time>2012-09-16T11:06:03Z</time>
      </trkpt>
      <trkpt lat="44.61096" lon="2.43684">
        <ele>631</ele>
        <time>2012-09-16T11:06:17Z</time>
      </trkpt>
      <trkpt lat="44.611" lon="2.43687">
        <ele>631</ele>
        <time>2012-09-16T11:06:30Z</time>
      </trkpt>
      <trkpt lat="44.61103" lon="2.43686">
        <ele>632</ele>
        <time>2012-09-16T11:06:44Z</time>
      </trkpt>
      <trkpt lat="44.61097" lon="2.43681">
        <ele>626</ele>
        <time>2012-09-16T11:07:15Z</time>
      </trkpt>
      <trkpt lat="44.6109" lon="2.43672">
        <ele>631</ele>
        <time>2012-09-16T11:07:35Z</time>
      </trkpt>
      <trkpt lat="44.61089" lon="2.43668">
        <ele>631</ele>
        <time>2012-09-16T11:07:53Z</time>
      </trkpt>
      <trkpt lat="44.61087" lon="2.43665">
        <ele>632</ele>
        <time>2012-09-16T11:08:06Z</time>
      </trkpt>
      <trkpt lat="44.6109" lon="2.4367">
        <ele>627</ele>
        <time>2012-09-16T11:08:53Z</time>
      </trkpt>
      <trkpt lat="44.6109" lon="2.43668">
        <ele>632</ele>
        <time>2012-09-16T11:09:43Z</time>
      </trkpt>
      <trkpt lat="44.61085" lon="2.43666">
        <ele>630</ele>
        <time>2012-09-16T11:09:57Z</time>
      </trkpt>
      <trkpt lat="44.61092" lon="2.43674">
        <ele>624</ele>
        <time>2012-09-16T11:10:20Z</time>
      </trkpt>
      <trkpt lat="44.611" lon="2.43681">
        <ele>632</ele>
        <time>2012-09-16T11:10:38Z</time>
      </trkpt>
      <trkpt lat="44.61102" lon="2.43675">
        <ele>641</ele>
        <time>2012-09-16T11:11:18Z</time>
      </trkpt>
      <trkpt lat="44.61099" lon="2.4367">
        <ele>635</ele>
        <time>2012-09-16T11:11:56Z</time>
      </trkpt>
      <trkpt lat="44.61097" lon="2.43672">
        <ele>633</ele>
        <time>2012-09-16T11:12:15Z</time>
      </trkpt>
      <trkpt lat="44.61098" lon="2.43676">
        <ele>626</ele>
        <time>2012-09-16T11:12:30Z</time>
      </trkpt>
      <trkpt lat="44.61095" lon="2.43675">
        <ele>631</ele>
        <time>2012-09-16T11:12:58Z</time>
      </trkpt>
      <trkpt lat="44.61092" lon="2.43672">
        <ele>632</ele>
        <time>2012-09-16T11:13:45Z</time>
      </trkpt>
      <trkpt lat="44.61089" lon="2.4367">
        <ele>626</ele>
        <time>2012-09-16T11:14:20Z</time>
      </trkpt>
      <trkpt lat="44.61092" lon="2.43673">
        <ele>634</ele>
        <time>2012-09-16T11:14:38Z</time>
      </trkpt>
      <trkpt lat="44.61098" lon="2.43676">
        <ele>649</ele>
        <time>2012-09-16T11:15:06Z</time>
      </trkpt>
      <trkpt lat="44.61096" lon="2.43682">
        <ele>634</ele>
        <time>2012-09-16T11:15:46Z</time>
      </trkpt>
      <trkpt lat="44.61098" lon="2.43678">
        <ele>649</ele>
        <time>2012-09-16T11:16:01Z</time>
      </trkpt>
      <trkpt lat="44.61102" lon="2.43669">
        <ele>640</ele>
        <time>2012-09-16T11:16:20Z</time>
      </trkpt>
      <trkpt lat="44.611" lon="2.43673">
        <ele>635</ele>
        <time>2012-09-16T11:16:30Z</time>
      </trkpt>
      <trkpt lat="44.61095" lon="2.43672">
        <ele>636</ele>
        <time>2012-09-16T11:17:00Z</time>
      </trkpt>
      <trkpt lat="44.61093" lon="2.43667">
        <ele>632</ele>
        <time>2012-09-16T11:17:25Z</time>
      </trkpt>
      <trkpt lat="44.6109" lon="2.43672">
        <ele>637</ele>
        <time>2012-09-16T11:17:48Z</time>
      </trkpt>
      <trkpt lat="44.61094" lon="2.43672">
        <ele>643</ele>
        <time>2012-09-16T11:18:07Z</time>
      </trkpt>
      <trkpt lat="44.61092" lon="2.43676">
        <ele>633</ele>
        <time>2012-09-16T11:18:23Z</time>
      </trkpt>
      <trkpt lat="44.61094" lon="2.43677">
        <ele>630</ele>
        <time>2012-09-16T11:19:53Z</time>
      </trkpt>
      <trkpt lat="44.61092" lon="2.43675">
        <ele>621</ele>
        <time>2012-09-16T11:20:05Z</time>
      </trkpt>
      <trkpt lat="44.61093" lon="2.43673">
        <ele>634</ele>
        <time>2012-09-16T11:20:56Z</time>
      </trkpt>
      <trkpt lat="44.61098" lon="2.43674">
        <ele>647</ele>
        <time>2012-09-16T11:21:19Z</time>
      </trkpt>
      <trkpt lat="44.61105" lon="2.43677">
        <ele>647</ele>
        <time>2012-09-16T11:21:38Z</time>
      </trkpt>
      <trkpt lat="44.61105" lon="2.43676">
        <ele>642</ele>
        <time>2012-09-16T11:22:00Z</time>
      </trkpt>
      <trkpt lat="44.611" lon="2.43674">
        <ele>638</ele>
        <time>2012-09-16T11:23:39Z</time>
      </trkpt>
      <trkpt lat="44.61092" lon="2.4367">
        <ele>633</ele>
        <time>2012-09-16T11:23:57Z</time>
      </trkpt>
      <trkpt lat="44.61091" lon="2.43665">
        <ele>630</ele>
        <time>2012-09-16T11:24:14Z</time>
      </trkpt>
      <trkpt lat="44.61089" lon="2.43669">
        <ele>631</ele>
        <time>2012-09-16T11:24:31Z</time>
      </trkpt>
      <trkpt lat="44.6109" lon="2.43677">
        <ele>632</ele>
        <time>2012-09-16T11:24:42Z</time>
      </trkpt>
      <trkpt lat="44.61088" lon="2.43674">
        <ele>628</ele>
        <time>2012-09-16T11:24:56Z</time>
      </trkpt>
      <trkpt lat="44.61085" lon="2.43674">
        <ele>634</ele>
        <time>2012-09-16T11:26:01Z</time>
      </trkpt>
      <trkpt lat="44.61087" lon="2.4367">
        <ele>623</ele>
        <time>2012-09-16T11:27:17Z</time>
      </trkpt>
      <trkpt lat="44.6109" lon="2.43673">
        <ele>627</ele>
        <time>2012-09-16T11:27:35Z</time>
      </trkpt>
      <trkpt lat="44.61095" lon="2.43676">
        <ele>633</ele>
        <time>2012-09-16T11:28:06Z</time>
      </trkpt>
      <trkpt lat="44.61095" lon="2.43672">
        <ele>632</ele>
        <time>2012-09-16T11:28:29Z</time>
      </trkpt>
      <trkpt lat="44.61094" lon="2.43678">
        <ele>621</ele>
        <time>2012-09-16T11:29:37Z</time>
      </trkpt>
      <trkpt lat="44.61097" lon="2.43678">
        <ele>638</ele>
        <time>2012-09-16T11:30:57Z</time>
      </trkpt>
      <trkpt lat="44.61109" lon="2.43677">
        <ele>633</ele>
        <time>2012-09-16T11:31:26Z</time>
      </trkpt>
      <trkpt lat="44.61106" lon="2.43674">
        <ele>634</ele>
        <time>2012-09-16T11:31:46Z</time>
      </trkpt>
      <trkpt lat="44.611" lon="2.43675">
        <ele>633</ele>
        <time>2012-09-16T11:31:57Z</time>
      </trkpt>
      <trkpt lat="44.6109" lon="2.43672">
        <ele>631</ele>
        <time>2012-09-16T11:32:14Z</time>
      </trkpt>
      <trkpt lat="44.61086" lon="2.43674">
        <ele>628</ele>
        <time>2012-09-16T11:32:42Z</time>
      </trkpt>
      <trkpt lat="44.61087" lon="2.43678">
        <ele>641</ele>
        <time>2012-09-16T11:33:08Z</time>
      </trkpt>
      <trkpt lat="44.61096" lon="2.43674">
        <ele>623</ele>
        <time>2012-09-16T11:34:07Z</time>
      </trkpt>
      <trkpt lat="44.61099" lon="2.43676">
        <ele>631</ele>
        <time>2012-09-16T11:35:30Z</time>
      </trkpt>
      <trkpt lat="44.61105" lon="2.43669">
        <ele>632</ele>
        <time>2012-09-16T11:36:33Z</time>
      </trkpt>
      <trkpt lat="44.61101" lon="2.43677">
        <ele>637</ele>
        <time>2012-09-16T11:36:47Z</time>
      </trkpt>
      <trkpt lat="44.61098" lon="2.43677">
        <ele>635</ele>
        <time>2012-09-16T11:37:07Z</time>
      </trkpt>
      <trkpt lat="44.61095" lon="2.43674">
        <ele>625</ele>
        <time>2012-09-16T11:37:28Z</time>
      </trkpt>
      <trkpt lat="44.6109" lon="2.43671">
        <ele>616</ele>
        <time>2012-09-16T11:38:16Z</time>
      </trkpt>
      <trkpt lat="44.61092" lon="2.43674">
        <ele>628</ele>
        <time>2012-09-16T11:39:26Z</time>
      </trkpt>
      <trkpt lat="44.61089" lon="2.43674">
        <ele>618</ele>
        <time>2012-09-16T11:40:47Z</time>
      </trkpt>
      <trkpt lat="44.61092" lon="2.43672">
        <ele>626</ele>
        <time>2012-09-16T11:41:12Z</time>
      </trkpt>
      <trkpt lat="44.61089" lon="2.43671">
        <ele>622</ele>
        <time>2012-09-16T11:41:24Z</time>
      </trkpt>
      <trkpt lat="44.61081" lon="2.43665">
        <ele>631</ele>
        <time>2012-09-16T11:41:38Z</time>
      </trkpt>
      <trkpt lat="44.61084" lon="2.4365">
        <ele>628</ele>
        <time>2012-09-16T11:41:52Z</time>
      </trkpt>
      <trkpt lat="44.61091" lon="2.43639">
        <ele>625</ele>
        <time>2012-09-16T11:42:04Z</time>
      </trkpt>
      <trkpt lat="44.61098" lon="2.4362">
        <ele>636</ele>
        <time>2012-09-16T11:42:18Z</time>
      </trkpt>
      <trkpt lat="44.61102" lon="2.43604">
        <ele>643</ele>
        <time>2012-09-16T11:42:30Z</time>
      </trkpt>
      <trkpt lat="44.61105" lon="2.43587">
        <ele>627</ele>
        <time>2012-09-16T11:42:43Z</time>
      </trkpt>
      <trkpt lat="44.61104" lon="2.43573">
        <ele>624</ele>
        <time>2012-09-16T11:42:54Z</time>
      </trkpt>
      <trkpt lat="44.61108" lon="2.43556">
        <ele>631</ele>
        <time>2012-09-16T11:43:06Z</time>
      </trkpt>
      <trkpt lat="44.61105" lon="2.43537">
        <ele>619</ele>
        <time>2012-09-16T11:43:18Z</time>
      </trkpt>
      <trkpt lat="44.61106" lon="2.43519">
        <ele>618</ele>
        <time>2012-09-16T11:43:30Z</time>
      </trkpt>
      <trkpt lat="44.61103" lon="2.43502">
        <ele>621</ele>
        <time>2012-09-16T11:43:42Z</time>
      </trkpt>
      <trkpt lat="44.61102" lon="2.43483">
        <ele>619</ele>
        <time>2012-09-16T11:43:53Z</time>
      </trkpt>
      <trkpt lat="44.61102" lon="2.43465">
        <ele>623</ele>
        <time>2012-09-16T11:44:04Z</time>
      </trkpt>
      <trkpt lat="44.61099" lon="2.43448">
        <ele>621</ele>
        <time>2012-09-16T11:44:17Z</time>
      </trkpt>
      <trkpt lat="44.61096" lon="2.43436">
        <ele>621</ele>
        <time>2012-09-16T11:44:27Z</time>
      </trkpt>
      <trkpt lat="44.6109" lon="2.43417">
        <ele>620</ele>
        <time>2012-09-16T11:44:40Z</time>
      </trkpt>
      <trkpt lat="44.61086" lon="2.43406">
        <ele>623</ele>
        <time>2012-09-16T11:44:50Z</time>
      </trkpt>
      <trkpt lat="44.61081" lon="2.4339">
        <ele>626</ele>
        <time>2012-09-16T11:45:02Z</time>
      </trkpt>
      <trkpt lat="44.61073" lon="2.43372">
        <ele>621</ele>
        <time>2012-09-16T11:45:14Z</time>
      </trkpt>
      <trkpt lat="44.61068" lon="2.43356">
        <ele>624</ele>
        <time>2012-09-16T11:45:25Z</time>
      </trkpt>
      <trkpt lat="44.61066" lon="2.43339">
        <ele>629</ele>
        <time>2012-09-16T11:45:37Z</time>
      </trkpt>
      <trkpt lat="44.61064" lon="2.43321">
        <ele>621</ele>
        <time>2012-09-16T11:45:49Z</time>
      </trkpt>
      <trkpt lat="44.61065" lon="2.43303">
        <ele>627</ele>
        <time>2012-09-16T11:46:00Z</time>
      </trkpt>
      <trkpt lat="44.61065" lon="2.43288">
        <ele>623</ele>
        <time>2012-09-16T11:46:11Z</time>
      </trkpt>
      <trkpt lat="44.61065" lon="2.43273">
        <ele>621</ele>
        <time>2012-09-16T11:46:21Z</time>
      </trkpt>
      <trkpt lat="44.61066" lon="2.43256">
        <ele>626</ele>
        <time>2012-09-16T11:46:34Z</time>
      </trkpt>
      <trkpt lat="44.61068" lon="2.43239">
        <ele>625</ele>
        <time>2012-09-16T11:46:44Z</time>
      </trkpt>
      <trkpt lat="44.61071" lon="2.43219">
        <ele>619</ele>
        <time>2012-09-16T11:46:55Z</time>
      </trkpt>
      <trkpt lat="44.61076" lon="2.43203">
        <ele>620</ele>
        <time>2012-09-16T11:47:06Z</time>
      </trkpt>
      <trkpt lat="44.61081" lon="2.43192">
        <ele>621</ele>
        <time>2012-09-16T11:47:16Z</time>
      </trkpt>
      <trkpt lat="44.61082" lon="2.43188">
        <ele>623</ele>
        <time>2012-09-16T11:47:30Z</time>
      </trkpt>
      <trkpt lat="44.61089" lon="2.43171">
        <ele>619</ele>
        <time>2012-09-16T11:47:42Z</time>
      </trkpt>
      <trkpt lat="44.61096" lon="2.43161">
        <ele>624</ele>
        <time>2012-09-16T11:47:52Z</time>
      </trkpt>
      <trkpt lat="44.61106" lon="2.43147">
        <ele>622</ele>
        <time>2012-09-16T11:48:05Z</time>
      </trkpt>
      <trkpt lat="44.61117" lon="2.4313">
        <ele>626</ele>
        <time>2012-09-16T11:48:18Z</time>
      </trkpt>
      <trkpt lat="44.61128" lon="2.43119">
        <ele>624</ele>
        <time>2012-09-16T11:48:30Z</time>
      </trkpt>
      <trkpt lat="44.61139" lon="2.43108">
        <ele>622</ele>
        <time>2012-09-16T11:48:42Z</time>
      </trkpt>
      <trkpt lat="44.61148" lon="2.43095">
        <ele>624</ele>
        <time>2012-09-16T11:48:54Z</time>
      </trkpt>
      <trkpt lat="44.61159" lon="2.43084">
        <ele>621</ele>
        <time>2012-09-16T11:49:04Z</time>
      </trkpt>
      <trkpt lat="44.61168" lon="2.4307">
        <ele>621</ele>
        <time>2012-09-16T11:49:15Z</time>
      </trkpt>
      <trkpt lat="44.61173" lon="2.43052">
        <ele>623</ele>
        <time>2012-09-16T11:49:26Z</time>
      </trkpt>
      <trkpt lat="44.61174" lon="2.43032">
        <ele>621</ele>
        <time>2012-09-16T11:49:37Z</time>
      </trkpt>
      <trkpt lat="44.61171" lon="2.43016">
        <ele>618</ele>
        <time>2012-09-16T11:49:48Z</time>
      </trkpt>
      <trkpt lat="44.6116" lon="2.42998">
        <ele>617</ele>
        <time>2012-09-16T11:50:01Z</time>
      </trkpt>
      <trkpt lat="44.61152" lon="2.42983">
        <ele>616</ele>
        <time>2012-09-16T11:50:12Z</time>
      </trkpt>
      <trkpt lat="44.61139" lon="2.42977">
        <ele>615</ele>
        <time>2012-09-16T11:50:24Z</time>
      </trkpt>
      <trkpt lat="44.61126" lon="2.42972">
        <ele>615</ele>
        <time>2012-09-16T11:50:34Z</time>
      </trkpt>
      <trkpt lat="44.61113" lon="2.42965">
        <ele>619</ele>
        <time>2012-09-16T11:50:46Z</time>
      </trkpt>
      <trkpt lat="44.61098" lon="2.42957">
        <ele>626</ele>
        <time>2012-09-16T11:50:58Z</time>
      </trkpt>
      <trkpt lat="44.61083" lon="2.42949">
        <ele>619</ele>
        <time>2012-09-16T11:51:11Z</time>
      </trkpt>
      <trkpt lat="44.61071" lon="2.42943">
        <ele>621</ele>
        <time>2012-09-16T11:51:22Z</time>
      </trkpt>
      <trkpt lat="44.61061" lon="2.42939">
        <ele>618</ele>
        <time>2012-09-16T11:51:33Z</time>
      </trkpt>
      <trkpt lat="44.61044" lon="2.42929">
        <ele>614</ele>
        <time>2012-09-16T11:51:45Z</time>
      </trkpt>
      <trkpt lat="44.61031" lon="2.42923">
        <ele>612</ele>
        <time>2012-09-16T11:51:57Z</time>
      </trkpt>
      <trkpt lat="44.61018" lon="2.42918">
        <ele>623</ele>
        <time>2012-09-16T11:52:08Z</time>
      </trkpt>
      <trkpt lat="44.61003" lon="2.4291">
        <ele>628</ele>
        <time>2012-09-16T11:52:19Z</time>
      </trkpt>
      <trkpt lat="44.60991" lon="2.42903">
        <ele>627</ele>
        <time>2012-09-16T11:52:29Z</time>
      </trkpt>
      <trkpt lat="44.60985" lon="2.42884">
        <ele>612</ele>
        <time>2012-09-16T11:52:40Z</time>
      </trkpt>
      <trkpt lat="44.60982" lon="2.42866">
        <ele>616</ele>
        <time>2012-09-16T11:52:50Z</time>
      </trkpt>
      <trkpt lat="44.60981" lon="2.42845">
        <ele>611</ele>
        <time>2012-09-16T11:53:04Z</time>
      </trkpt>
      <trkpt lat="44.60976" lon="2.42828">
        <ele>624</ele>
        <time>2012-09-16T11:53:14Z</time>
      </trkpt>
      <trkpt lat="44.6097" lon="2.42809">
        <ele>623</ele>
        <time>2012-09-16T11:53:24Z</time>
      </trkpt>
      <trkpt lat="44.60964" lon="2.42793">
        <ele>622</ele>
        <time>2012-09-16T11:53:34Z</time>
      </trkpt>
      <trkpt lat="44.60962" lon="2.42776">
        <ele>624</ele>
        <time>2012-09-16T11:53:46Z</time>
      </trkpt>
      <trkpt lat="44.60958" lon="2.42757">
        <ele>623</ele>
        <time>2012-09-16T11:53:58Z</time>
      </trkpt>
      <trkpt lat="44.60952" lon="2.4274">
        <ele>615</ele>
        <time>2012-09-16T11:54:08Z</time>
      </trkpt>
      <trkpt lat="44.60948" lon="2.42719">
        <ele>616</ele>
        <time>2012-09-16T11:54:19Z</time>
      </trkpt>
      <trkpt lat="44.60946" lon="2.42706">
        <ele>612</ele>
        <time>2012-09-16T11:54:30Z</time>
      </trkpt>
      <trkpt lat="44.60941" lon="2.42688">
        <ele>607</ele>
        <time>2012-09-16T11:54:42Z</time>
      </trkpt>
      <trkpt lat="44.60941" lon="2.42667">
        <ele>611</ele>
        <time>2012-09-16T11:54:52Z</time>
      </trkpt>
      <trkpt lat="44.60941" lon="2.42648">
        <ele>613</ele>
        <time>2012-09-16T11:55:04Z</time>
      </trkpt>
      <trkpt lat="44.6094" lon="2.42628">
        <ele>612</ele>
        <time>2012-09-16T11:55:15Z</time>
      </trkpt>
      <trkpt lat="44.60943" lon="2.42607">
        <ele>616</ele>
        <time>2012-09-16T11:55:27Z</time>
      </trkpt>
      <trkpt lat="44.60944" lon="2.42584">
        <ele>619</ele>
        <time>2012-09-16T11:55:39Z</time>
      </trkpt>
      <trkpt lat="44.60942" lon="2.42566">
        <ele>616</ele>
        <time>2012-09-16T11:55:50Z</time>
      </trkpt>
      <trkpt lat="44.60943" lon="2.42546">
        <ele>615</ele>
        <time>2012-09-16T11:56:01Z</time>
      </trkpt>
      <trkpt lat="44.60943" lon="2.42526">
        <ele>610</ele>
        <time>2012-09-16T11:56:13Z</time>
      </trkpt>
      <trkpt lat="44.60942" lon="2.42503">
        <ele>612</ele>
        <time>2012-09-16T11:56:25Z</time>
      </trkpt>
      <trkpt lat="44.60937" lon="2.42486">
        <ele>608</ele>
        <time>2012-09-16T11:56:35Z</time>
      </trkpt>
      <trkpt lat="44.60933" lon="2.42467">
        <ele>610</ele>
        <time>2012-09-16T11:56:46Z</time>
      </trkpt>
      <trkpt lat="44.60925" lon="2.42451">
        <ele>613</ele>
        <time>2012-09-16T11:56:58Z</time>
      </trkpt>
      <trkpt lat="44.60917" lon="2.42435">
        <ele>613</ele>
        <time>2012-09-16T11:57:10Z</time>
      </trkpt>
      <trkpt lat="44.60909" lon="2.4242">
        <ele>615</ele>
        <time>2012-09-16T11:57:20Z</time>
      </trkpt>
      <trkpt lat="44.60901" lon="2.42406">
        <ele>618</ele>
        <time>2012-09-16T11:57:31Z</time>
      </trkpt>
      <trkpt lat="44.60891" lon="2.42391">
        <ele>613</ele>
        <time>2012-09-16T11:57:43Z</time>
      </trkpt>
      <trkpt lat="44.6088" lon="2.42379">
        <ele>617</ele>
        <time>2012-09-16T11:57:54Z</time>
      </trkpt>
      <trkpt lat="44.6087" lon="2.42367">
        <ele>618</ele>
        <time>2012-09-16T11:58:05Z</time>
      </trkpt>
      <trkpt lat="44.60858" lon="2.42358">
        <ele>618</ele>
        <time>2012-09-16T11:58:16Z</time>
      </trkpt>
      <trkpt lat="44.60847" lon="2.42347">
        <ele>611</ele>
        <time>2012-09-16T11:58:27Z</time>
      </trkpt>
      <trkpt lat="44.60837" lon="2.42334">
        <ele>613</ele>
        <time>2012-09-16T11:58:38Z</time>
      </trkpt>
      <trkpt lat="44.60828" lon="2.42321">
        <ele>614</ele>
        <time>2012-09-16T11:58:49Z</time>
      </trkpt>
      <trkpt lat="44.60818" lon="2.42308">
        <ele>615</ele>
        <time>2012-09-16T11:59:01Z</time>
      </trkpt>
      <trkpt lat="44.60808" lon="2.42296">
        <ele>619</ele>
        <time>2012-09-16T11:59:13Z</time>
      </trkpt>
      <trkpt lat="44.60798" lon="2.42283">
        <ele>620</ele>
        <time>2012-09-16T11:59:24Z</time>
      </trkpt>
      <trkpt lat="44.60789" lon="2.42271">
        <ele>619</ele>
        <time>2012-09-16T11:59:35Z</time>
      </trkpt>
      <trkpt lat="44.60777" lon="2.42256">
        <ele>620</ele>
        <time>2012-09-16T11:59:48Z</time>
      </trkpt>
      <trkpt lat="44.6077" lon="2.42247">
        <ele>623</ele>
        <time>2012-09-16T11:59:58Z</time>
      </trkpt>
      <trkpt lat="44.60762" lon="2.42231">
        <ele>628</ele>
        <time>2012-09-16T12:00:10Z</time>
      </trkpt>
      <trkpt lat="44.60755" lon="2.42216">
        <ele>627</ele>
        <time>2012-09-16T12:00:22Z</time>
      </trkpt>
      <trkpt lat="44.60749" lon="2.42205">
        <ele>631</ele>
        <time>2012-09-16T12:00:32Z</time>
      </trkpt>
      <trkpt lat="44.60744" lon="2.42186">
        <ele>627</ele>
        <time>2012-09-16T12:00:43Z</time>
      </trkpt>
      <trkpt lat="44.60744" lon="2.42167">
        <ele>628</ele>
        <time>2012-09-16T12:00:54Z</time>
      </trkpt>
      <trkpt lat="44.60747" lon="2.42147">
        <ele>626</ele>
        <time>2012-09-16T12:01:06Z</time>
      </trkpt>
      <trkpt lat="44.60751" lon="2.42129">
        <ele>624</ele>
        <time>2012-09-16T12:01:18Z</time>
      </trkpt>
      <trkpt lat="44.60751" lon="2.4211">
        <ele>623</ele>
        <time>2012-09-16T12:01:29Z</time>
      </trkpt>
      <trkpt lat="44.60739" lon="2.42095">
        <ele>626</ele>
        <time>2012-09-16T12:01:42Z</time>
      </trkpt>
      <trkpt lat="44.60727" lon="2.4209">
        <ele>626</ele>
        <time>2012-09-16T12:01:53Z</time>
      </trkpt>
      <trkpt lat="44.60713" lon="2.42094">
        <ele>624</ele>
        <time>2012-09-16T12:02:05Z</time>
      </trkpt>
      <trkpt lat="44.607" lon="2.42091">
        <ele>624</ele>
        <time>2012-09-16T12:02:16Z</time>
      </trkpt>
      <trkpt lat="44.60688" lon="2.42087">
        <ele>624</ele>
        <time>2012-09-16T12:02:27Z</time>
      </trkpt>
      <trkpt lat="44.60674" lon="2.42079">
        <ele>630</ele>
        <time>2012-09-16T12:02:38Z</time>
      </trkpt>
      <trkpt lat="44.60663" lon="2.42065">
        <ele>628</ele>
        <time>2012-09-16T12:02:50Z</time>
      </trkpt>
      <trkpt lat="44.60653" lon="2.42049">
        <ele>624</ele>
        <time>2012-09-16T12:03:03Z</time>
      </trkpt>
      <trkpt lat="44.60646" lon="2.42032">
        <ele>626</ele>
        <time>2012-09-16T12:03:14Z</time>
      </trkpt>
      <trkpt lat="44.60638" lon="2.42018">
        <ele>624</ele>
        <time>2012-09-16T12:03:25Z</time>
      </trkpt>
      <trkpt lat="44.60632" lon="2.42001">
        <ele>621</ele>
        <time>2012-09-16T12:03:36Z</time>
      </trkpt>
      <trkpt lat="44.60627" lon="2.41981">
        <ele>622</ele>
        <time>2012-09-16T12:03:49Z</time>
      </trkpt>
      <trkpt lat="44.60619" lon="2.41965">
        <ele>628</ele>
        <time>2012-09-16T12:04:00Z</time>
      </trkpt>
      <trkpt lat="44.60612" lon="2.41948">
        <ele>619</ele>
        <time>2012-09-16T12:04:13Z</time>
      </trkpt>
      <trkpt lat="44.60608" lon="2.41931">
        <ele>618</ele>
        <time>2012-09-16T12:04:26Z</time>
      </trkpt>
      <trkpt lat="44.60604" lon="2.41915">
        <ele>619</ele>
        <time>2012-09-16T12:04:40Z</time>
      </trkpt>
      <trkpt lat="44.60597" lon="2.41892">
        <ele>617</ele>
        <time>2012-09-16T12:04:52Z</time>
      </trkpt>
      <trkpt lat="44.60593" lon="2.41874">
        <ele>612</ele>
        <time>2012-09-16T12:05:05Z</time>
      </trkpt>
      <trkpt lat="44.60587" lon="2.41857">
        <ele>613</ele>
        <time>2012-09-16T12:05:16Z</time>
      </trkpt>
      <trkpt lat="44.60578" lon="2.41844">
        <ele>611</ele>
        <time>2012-09-16T12:05:27Z</time>
      </trkpt>
      <trkpt lat="44.60572" lon="2.41833">
        <ele>610</ele>
        <time>2012-09-16T12:05:38Z</time>
      </trkpt>
      <trkpt lat="44.6056" lon="2.41829">
        <ele>611</ele>
        <time>2012-09-16T12:05:49Z</time>
      </trkpt>
      <trkpt lat="44.60541" lon="2.41829">
        <ele>609</ele>
        <time>2012-09-16T12:06:02Z</time>
      </trkpt>
      <trkpt lat="44.60527" lon="2.41828">
        <ele>609</ele>
        <time>2012-09-16T12:06:12Z</time>
      </trkpt>
      <trkpt lat="44.6051" lon="2.41823">
        <ele>614</ele>
        <time>2012-09-16T12:06:25Z</time>
      </trkpt>
      <trkpt lat="44.60499" lon="2.41808">
        <ele>611</ele>
        <time>2012-09-16T12:06:37Z</time>
      </trkpt>
      <trkpt lat="44.60491" lon="2.4179">
        <ele>611</ele>
        <time>2012-09-16T12:06:48Z</time>
      </trkpt>
      <trkpt lat="44.60485" lon="2.41772">
        <ele>614</ele>
        <time>2012-09-16T12:06:59Z</time>
      </trkpt>
      <trkpt lat="44.60481" lon="2.41754">
        <ele>608</ele>
        <time>2012-09-16T12:07:09Z</time>
      </trkpt>
      <trkpt lat="44.60475" lon="2.41736">
        <ele>607</ele>
        <time>2012-09-16T12:07:20Z</time>
      </trkpt>
      <trkpt lat="44.60469" lon="2.41718">
        <ele>608</ele>
        <time>2012-09-16T12:07:31Z</time>
      </trkpt>
      <trkpt lat="44.60463" lon="2.41703">
        <ele>610</ele>
        <time>2012-09-16T12:07:41Z</time>
      </trkpt>
      <trkpt lat="44.60456" lon="2.41688">
        <ele>611</ele>
        <time>2012-09-16T12:07:52Z</time>
      </trkpt>
      <trkpt lat="44.60451" lon="2.41672">
        <ele>622</ele>
        <time>2012-09-16T12:08:02Z</time>
      </trkpt>
      <trkpt lat="44.60444" lon="2.41654">
        <ele>614</ele>
        <time>2012-09-16T12:08:14Z</time>
      </trkpt>
      <trkpt lat="44.60441" lon="2.41631">
        <ele>616</ele>
        <time>2012-09-16T12:08:27Z</time>
      </trkpt>
      <trkpt lat="44.60439" lon="2.41609">
        <ele>614</ele>
        <time>2012-09-16T12:08:39Z</time>
      </trkpt>
      <trkpt lat="44.60441" lon="2.41589">
        <ele>612</ele>
        <time>2012-09-16T12:08:51Z</time>
      </trkpt>
      <trkpt lat="44.60446" lon="2.41569">
        <ele>612</ele>
        <time>2012-09-16T12:09:03Z</time>
      </trkpt>
      <trkpt lat="44.60455" lon="2.41549">
        <ele>616</ele>
        <time>2012-09-16T12:09:15Z</time>
      </trkpt>
      <trkpt lat="44.60464" lon="2.41531">
        <ele>613</ele>
        <time>2012-09-16T12:09:27Z</time>
      </trkpt>
      <trkpt lat="44.60471" lon="2.41515">
        <ele>615</ele>
        <time>2012-09-16T12:09:38Z</time>
      </trkpt>
      <trkpt lat="44.60482" lon="2.41501">
        <ele>610</ele>
        <time>2012-09-16T12:09:50Z</time>
      </trkpt>
      <trkpt lat="44.60492" lon="2.41487">
        <ele>610</ele>
        <time>2012-09-16T12:10:01Z</time>
      </trkpt>
      <trkpt lat="44.60503" lon="2.41472">
        <ele>607</ele>
        <time>2012-09-16T12:10:12Z</time>
      </trkpt>
      <trkpt lat="44.60515" lon="2.4146">
        <ele>612</ele>
        <time>2012-09-16T12:10:24Z</time>
      </trkpt>
      <trkpt lat="44.60524" lon="2.41449">
        <ele>610</ele>
        <time>2012-09-16T12:10:35Z</time>
      </trkpt>
      <trkpt lat="44.60535" lon="2.41436">
        <ele>608</ele>
        <time>2012-09-16T12:10:46Z</time>
      </trkpt>
      <trkpt lat="44.60545" lon="2.41423">
        <ele>613</ele>
        <time>2012-09-16T12:10:57Z</time>
      </trkpt>
      <trkpt lat="44.60555" lon="2.41412">
        <ele>612</ele>
        <time>2012-09-16T12:11:08Z</time>
      </trkpt>
      <trkpt lat="44.60565" lon="2.41401">
        <ele>609</ele>
        <time>2012-09-16T12:11:18Z</time>
      </trkpt>
      <trkpt lat="44.6057" lon="2.41388">
        <ele>614</ele>
        <time>2012-09-16T12:11:28Z</time>
      </trkpt>
      <trkpt lat="44.60584" lon="2.41375">
        <ele>609</ele>
        <time>2012-09-16T12:11:41Z</time>
      </trkpt>
      <trkpt lat="44.60596" lon="2.41361">
        <ele>608</ele>
        <time>2012-09-16T12:11:52Z</time>
      </trkpt>
      <trkpt lat="44.60608" lon="2.41348">
        <ele>608</ele>
        <time>2012-09-16T12:12:03Z</time>
      </trkpt>
      <trkpt lat="44.60617" lon="2.41336">
        <ele>608</ele>
        <time>2012-09-16T12:12:13Z</time>
      </trkpt>
      <trkpt lat="44.60626" lon="2.41322">
        <ele>608</ele>
        <time>2012-09-16T12:12:24Z</time>
      </trkpt>
      <trkpt lat="44.60634" lon="2.41308">
        <ele>606</ele>
        <time>2012-09-16T12:12:35Z</time>
      </trkpt>
      <trkpt lat="44.60642" lon="2.41292">
        <ele>605</ele>
        <time>2012-09-16T12:12:46Z</time>
      </trkpt>
      <trkpt lat="44.60643" lon="2.41275">
        <ele>605</ele>
        <time>2012-09-16T12:12:57Z</time>
      </trkpt>
      <trkpt lat="44.6064" lon="2.41255">
        <ele>605</ele>
        <time>2012-09-16T12:13:08Z</time>
      </trkpt>
      <trkpt lat="44.60634" lon="2.41234">
        <ele>603</ele>
        <time>2012-09-16T12:13:21Z</time>
      </trkpt>
      <trkpt lat="44.60627" lon="2.41218">
        <ele>600</ele>
        <time>2012-09-16T12:13:33Z</time>
      </trkpt>
      <trkpt lat="44.60619" lon="2.41203">
        <ele>605</ele>
        <time>2012-09-16T12:13:43Z</time>
      </trkpt>
      <trkpt lat="44.60612" lon="2.41189">
        <ele>601</ele>
        <time>2012-09-16T12:13:55Z</time>
      </trkpt>
      <trkpt lat="44.606" lon="2.41177">
        <ele>606</ele>
        <time>2012-09-16T12:14:06Z</time>
      </trkpt>
      <trkpt lat="44.60585" lon="2.41168">
        <ele>602</ele>
        <time>2012-09-16T12:14:17Z</time>
      </trkpt>
      <trkpt lat="44.60574" lon="2.41154">
        <ele>599</ele>
        <time>2012-09-16T12:14:28Z</time>
      </trkpt>
      <trkpt lat="44.60564" lon="2.41141">
        <ele>600</ele>
        <time>2012-09-16T12:14:40Z</time>
      </trkpt>
      <trkpt lat="44.60559" lon="2.41123">
        <ele>598</ele>
        <time>2012-09-16T12:14:52Z</time>
      </trkpt>
      <trkpt lat="44.60558" lon="2.41103">
        <ele>595</ele>
        <time>2012-09-16T12:15:03Z</time>
      </trkpt>
      <trkpt lat="44.60555" lon="2.4108">
        <ele>600</ele>
        <time>2012-09-16T12:15:16Z</time>
      </trkpt>
      <trkpt lat="44.60552" lon="2.41063">
        <ele>596</ele>
        <time>2012-09-16T12:15:27Z</time>
      </trkpt>
      <trkpt lat="44.60549" lon="2.41042">
        <ele>597</ele>
        <time>2012-09-16T12:15:39Z</time>
      </trkpt>
      <trkpt lat="44.60547" lon="2.41023">
        <ele>597</ele>
        <time>2012-09-16T12:15:49Z</time>
      </trkpt>
      <trkpt lat="44.60544" lon="2.41009">
        <ele>593</ele>
        <time>2012-09-16T12:16:01Z</time>
      </trkpt>
      <trkpt lat="44.60543" lon="2.40992">
        <ele>592</ele>
        <time>2012-09-16T12:16:11Z</time>
      </trkpt>
      <trkpt lat="44.60539" lon="2.40974">
        <ele>598</ele>
        <time>2012-09-16T12:16:22Z</time>
      </trkpt>
      <trkpt lat="44.60537" lon="2.40954">
        <ele>596</ele>
        <time>2012-09-16T12:16:34Z</time>
      </trkpt>
      <trkpt lat="44.60535" lon="2.40937">
        <ele>599</ele>
        <time>2012-09-16T12:16:44Z</time>
      </trkpt>
      <trkpt lat="44.60531" lon="2.40915">
        <ele>596</ele>
        <time>2012-09-16T12:16:56Z</time>
      </trkpt>
      <trkpt lat="44.60527" lon="2.40895">
        <ele>598</ele>
        <time>2012-09-16T12:17:08Z</time>
      </trkpt>
      <trkpt lat="44.60523" lon="2.40876">
        <ele>599</ele>
        <time>2012-09-16T12:17:19Z</time>
      </trkpt>
      <trkpt lat="44.60519" lon="2.40858">
        <ele>595</ele>
        <time>2012-09-16T12:17:31Z</time>
      </trkpt>
      <trkpt lat="44.60513" lon="2.40839">
        <ele>597</ele>
        <time>2012-09-16T12:17:43Z</time>
      </trkpt>
      <trkpt lat="44.60507" lon="2.40823">
        <ele>594</ele>
        <time>2012-09-16T12:17:54Z</time>
      </trkpt>
      <trkpt lat="44.60499" lon="2.40809">
        <ele>594</ele>
        <time>2012-09-16T12:18:04Z</time>
      </trkpt>
      <trkpt lat="44.60489" lon="2.40798">
        <ele>596</ele>
        <time>2012-09-16T12:18:15Z</time>
      </trkpt>
      <trkpt lat="44.60487" lon="2.40797">
        <ele>590</ele>
        <time>2012-09-16T12:19:05Z</time>
      </trkpt>
      <trkpt lat="44.60477" lon="2.40795">
        <ele>598</ele>
        <time>2012-09-16T12:19:16Z</time>
      </trkpt>
      <trkpt lat="44.60472" lon="2.40789">
        <ele>596</ele>
        <time>2012-09-16T12:19:27Z</time>
      </trkpt>
      <trkpt lat="44.60471" lon="2.40777">
        <ele>588</ele>
        <time>2012-09-16T12:19:39Z</time>
      </trkpt>
      <trkpt lat="44.60472" lon="2.40762">
        <ele>589</ele>
        <time>2012-09-16T12:19:50Z</time>
      </trkpt>
      <trkpt lat="44.60471" lon="2.40744">
        <ele>580</ele>
        <time>2012-09-16T12:20:12Z</time>
      </trkpt>
      <trkpt lat="44.60469" lon="2.40736">
        <ele>575</ele>
        <time>2012-09-16T12:20:24Z</time>
      </trkpt>
      <trkpt lat="44.60462" lon="2.40724">
        <ele>587</ele>
        <time>2012-09-16T12:20:35Z</time>
      </trkpt>
      <trkpt lat="44.60458" lon="2.40713">
        <ele>583</ele>
        <time>2012-09-16T12:20:47Z</time>
      </trkpt>
      <trkpt lat="44.60455" lon="2.40701">
        <ele>590</ele>
        <time>2012-09-16T12:20:58Z</time>
      </trkpt>
      <trkpt lat="44.60449" lon="2.40686">
        <ele>573</ele>
        <time>2012-09-16T12:21:11Z</time>
      </trkpt>
      <trkpt lat="44.60442" lon="2.40678">
        <ele>573</ele>
        <time>2012-09-16T12:21:21Z</time>
      </trkpt>
      <trkpt lat="44.60435" lon="2.4067">
        <ele>569</ele>
        <time>2012-09-16T12:21:34Z</time>
      </trkpt>
      <trkpt lat="44.60429" lon="2.4066">
        <ele>569</ele>
        <time>2012-09-16T12:21:47Z</time>
      </trkpt>
      <trkpt lat="44.60421" lon="2.4065">
        <ele>566</ele>
        <time>2012-09-16T12:22:00Z</time>
      </trkpt>
      <trkpt lat="44.60413" lon="2.40637">
        <ele>569</ele>
        <time>2012-09-16T12:22:13Z</time>
      </trkpt>
      <trkpt lat="44.60407" lon="2.40627">
        <ele>564</ele>
        <time>2012-09-16T12:22:23Z</time>
      </trkpt>
      <trkpt lat="44.60402" lon="2.40617">
        <ele>562</ele>
        <time>2012-09-16T12:22:36Z</time>
      </trkpt>
      <trkpt lat="44.60395" lon="2.40605">
        <ele>562</ele>
        <time>2012-09-16T12:22:48Z</time>
      </trkpt>
      <trkpt lat="44.60389" lon="2.40595">
        <ele>559</ele>
        <time>2012-09-16T12:22:58Z</time>
      </trkpt>
      <trkpt lat="44.60384" lon="2.40581">
        <ele>546</ele>
        <time>2012-09-16T12:23:09Z</time>
      </trkpt>
      <trkpt lat="44.60381" lon="2.40569">
        <ele>548</ele>
        <time>2012-09-16T12:23:20Z</time>
      </trkpt>
      <trkpt lat="44.60378" lon="2.40558">
        <ele>551</ele>
        <time>2012-09-16T12:23:31Z</time>
      </trkpt>
      <trkpt lat="44.60373" lon="2.40552">
        <ele>551</ele>
        <time>2012-09-16T12:23:52Z</time>
      </trkpt>
      <trkpt lat="44.6037" lon="2.40544">
        <ele>549</ele>
        <time>2012-09-16T12:24:04Z</time>
      </trkpt>
      <trkpt lat="44.60365" lon="2.40536">
        <ele>546</ele>
        <time>2012-09-16T12:24:17Z</time>
      </trkpt>
      <trkpt lat="44.60367" lon="2.40531">
        <ele>547</ele>
        <time>2012-09-16T12:24:43Z</time>
      </trkpt>
      <trkpt lat="44.60366" lon="2.4052">
        <ele>549</ele>
        <time>2012-09-16T12:25:05Z</time>
      </trkpt>
      <trkpt lat="44.60361" lon="2.40514">
        <ele>547</ele>
        <time>2012-09-16T12:25:16Z</time>
      </trkpt>
      <trkpt lat="44.60355" lon="2.40512">
        <ele>574</ele>
        <time>2012-09-16T12:25:31Z</time>
      </trkpt>
      <trkpt lat="44.6035" lon="2.40511">
        <ele>580</ele>
        <time>2012-09-16T12:25:46Z</time>
      </trkpt>
      <trkpt lat="44.60344" lon="2.40508">
        <ele>554</ele>
        <time>2012-09-16T12:26:00Z</time>
      </trkpt>
      <trkpt lat="44.60342" lon="2.40505">
        <ele>558</ele>
        <time>2012-09-16T12:26:12Z</time>
      </trkpt>
      <trkpt lat="44.60336" lon="2.40491">
        <ele>552</ele>
        <time>2012-09-16T12:26:24Z</time>
      </trkpt>
      <trkpt lat="44.60338" lon="2.40478">
        <ele>546</ele>
        <time>2012-09-16T12:26:36Z</time>
      </trkpt>
      <trkpt lat="44.60329" lon="2.40465">
        <ele>532</ele>
        <time>2012-09-16T12:26:48Z</time>
      </trkpt>
      <trkpt lat="44.60321" lon="2.40456">
        <ele>537</ele>
        <time>2012-09-16T12:27:00Z</time>
      </trkpt>
      <trkpt lat="44.60312" lon="2.40446">
        <ele>534</ele>
        <time>2012-09-16T12:27:16Z</time>
      </trkpt>
      <trkpt lat="44.60305" lon="2.4043">
        <ele>537</ele>
        <time>2012-09-16T12:27:29Z</time>
      </trkpt>
      <trkpt lat="44.60294" lon="2.40422">
        <ele>526</ele>
        <time>2012-09-16T12:27:40Z</time>
      </trkpt>
      <trkpt lat="44.6029" lon="2.40412">
        <ele>527</ele>
        <time>2012-09-16T12:28:02Z</time>
      </trkpt>
      <trkpt lat="44.60285" lon="2.40411">
        <ele>521</ele>
        <time>2012-09-16T12:28:14Z</time>
      </trkpt>
      <trkpt lat="44.60276" lon="2.40404">
        <ele>515</ele>
        <time>2012-09-16T12:28:26Z</time>
      </trkpt>
      <trkpt lat="44.60268" lon="2.40396">
        <ele>515</ele>
        <time>2012-09-16T12:28:36Z</time>
      </trkpt>
      <trkpt lat="44.60258" lon="2.40387">
        <ele>514</ele>
        <time>2012-09-16T12:28:49Z</time>
      </trkpt>
      <trkpt lat="44.60252" lon="2.40376">
        <ele>518</ele>
        <time>2012-09-16T12:29:01Z</time>
      </trkpt>
      <trkpt lat="44.60247" lon="2.40365">
        <ele>516</ele>
        <time>2012-09-16T12:29:14Z</time>
      </trkpt>
      <trkpt lat="44.60234" lon="2.40356">
        <ele>518</ele>
        <time>2012-09-16T12:29:26Z</time>
      </trkpt>
      <trkpt lat="44.60225" lon="2.4035">
        <ele>513</ele>
        <time>2012-09-16T12:29:36Z</time>
      </trkpt>
      <trkpt lat="44.60218" lon="2.40344">
        <ele>509</ele>
        <time>2012-09-16T12:29:50Z</time>
      </trkpt>
      <trkpt lat="44.60215" lon="2.40344">
        <ele>500</ele>
        <time>2012-09-16T12:30:10Z</time>
      </trkpt>
      <trkpt lat="44.60212" lon="2.40342">
        <ele>509</ele>
        <time>2012-09-16T12:30:27Z</time>
      </trkpt>
      <trkpt lat="44.60202" lon="2.40331">
        <ele>507</ele>
        <time>2012-09-16T12:30:39Z</time>
      </trkpt>
      <trkpt lat="44.60195" lon="2.40324">
        <ele>510</ele>
        <time>2012-09-16T12:30:51Z</time>
      </trkpt>
      <trkpt lat="44.60192" lon="2.40322">
        <ele>511</ele>
        <time>2012-09-16T12:31:16Z</time>
      </trkpt>
      <trkpt lat="44.6019" lon="2.4032">
        <ele>511</ele>
        <time>2012-09-16T12:31:31Z</time>
      </trkpt>
      <trkpt lat="44.60189" lon="2.40307">
        <ele>509</ele>
        <time>2012-09-16T12:31:42Z</time>
      </trkpt>
      <trkpt lat="44.60189" lon="2.40291">
        <ele>499</ele>
        <time>2012-09-16T12:31:56Z</time>
      </trkpt>
      <trkpt lat="44.60189" lon="2.40279">
        <ele>503</ele>
        <time>2012-09-16T12:32:07Z</time>
      </trkpt>
      <trkpt lat="44.60189" lon="2.40266">
        <ele>499</ele>
        <time>2012-09-16T12:32:20Z</time>
      </trkpt>
      <trkpt lat="44.60186" lon="2.40256">
        <ele>493</ele>
        <time>2012-09-16T12:32:34Z</time>
      </trkpt>
      <trkpt lat="44.60176" lon="2.4026">
        <ele>486</ele>
        <time>2012-09-16T12:32:48Z</time>
      </trkpt>
      <trkpt lat="44.6017" lon="2.40271">
        <ele>485</ele>
        <time>2012-09-16T12:32:59Z</time>
      </trkpt>
      <trkpt lat="44.60163" lon="2.40286">
        <ele>485</ele>
        <time>2012-09-16T12:33:13Z</time>
      </trkpt>
      <trkpt lat="44.60158" lon="2.40301">
        <ele>485</ele>
        <time>2012-09-16T12:33:25Z</time>
      </trkpt>
      <trkpt lat="44.60153" lon="2.4032">
        <ele>480</ele>
        <time>2012-09-16T12:33:38Z</time>
      </trkpt>
      <trkpt lat="44.60146" lon="2.40336">
        <ele>477</ele>
        <time>2012-09-16T12:33:50Z</time>
      </trkpt>
      <trkpt lat="44.60145" lon="2.40339">
        <ele>483</ele>
        <time>2012-09-16T12:34:26Z</time>
      </trkpt>
      <trkpt lat="44.60144" lon="2.40352">
        <ele>482</ele>
        <time>2012-09-16T12:34:37Z</time>
      </trkpt>
      <trkpt lat="44.60143" lon="2.40365">
        <ele>474</ele>
        <time>2012-09-16T12:35:32Z</time>
      </trkpt>
      <trkpt lat="44.60144" lon="2.40378">
        <ele>475</ele>
        <time>2012-09-16T12:35:43Z</time>
      </trkpt>
      <trkpt lat="44.60149" lon="2.40387">
        <ele>476</ele>
        <time>2012-09-16T12:35:53Z</time>
      </trkpt>
      <trkpt lat="44.60157" lon="2.40401">
        <ele>471</ele>
        <time>2012-09-16T12:36:08Z</time>
      </trkpt>
      <trkpt lat="44.6016" lon="2.40414">
        <ele>480</ele>
        <time>2012-09-16T12:36:18Z</time>
      </trkpt>
      <trkpt lat="44.60162" lon="2.40428">
        <ele>477</ele>
        <time>2012-09-16T12:36:28Z</time>
      </trkpt>
      <trkpt lat="44.60167" lon="2.40444">
        <ele>476</ele>
        <time>2012-09-16T12:36:40Z</time>
      </trkpt>
      <trkpt lat="44.60172" lon="2.40461">
        <ele>475</ele>
        <time>2012-09-16T12:36:52Z</time>
      </trkpt>
      <trkpt lat="44.60172" lon="2.40474">
        <ele>473</ele>
        <time>2012-09-16T12:37:02Z</time>
      </trkpt>
      <trkpt lat="44.60176" lon="2.40491">
        <ele>467</ele>
        <time>2012-09-16T12:37:13Z</time>
      </trkpt>
      <trkpt lat="44.60179" lon="2.40504">
        <ele>479</ele>
        <time>2012-09-16T12:37:23Z</time>
      </trkpt>
      <trkpt lat="44.60178" lon="2.40514">
        <ele>473</ele>
        <time>2012-09-16T12:37:36Z</time>
      </trkpt>
      <trkpt lat="44.60177" lon="2.40526">
        <ele>472</ele>
        <time>2012-09-16T12:37:49Z</time>
      </trkpt>
      <trkpt lat="44.60168" lon="2.40537">
        <ele>462</ele>
        <time>2012-09-16T12:38:01Z</time>
      </trkpt>
      <trkpt lat="44.60171" lon="2.40542">
        <ele>462</ele>
        <time>2012-09-16T12:38:19Z</time>
      </trkpt>
      <trkpt lat="44.60168" lon="2.40554">
        <ele>462</ele>
        <time>2012-09-16T12:38:33Z</time>
      </trkpt>
      <trkpt lat="44.60157" lon="2.40558">
        <ele>453</ele>
        <time>2012-09-16T12:38:46Z</time>
      </trkpt>
      <trkpt lat="44.60151" lon="2.40567">
        <ele>456</ele>
        <time>2012-09-16T12:38:57Z</time>
      </trkpt>
      <trkpt lat="44.60144" lon="2.40582">
        <ele>446</ele>
        <time>2012-09-16T12:39:11Z</time>
      </trkpt>
      <trkpt lat="44.60138" lon="2.40586">
        <ele>449</ele>
        <time>2012-09-16T12:39:21Z</time>
      </trkpt>
      <trkpt lat="44.60133" lon="2.40592">
        <ele>445</ele>
        <time>2012-09-16T12:39:32Z</time>
      </trkpt>
      <trkpt lat="44.60127" lon="2.40598">
        <ele>447</ele>
        <time>2012-09-16T12:40:02Z</time>
      </trkpt>
      <trkpt lat="44.60125" lon="2.40601">
        <ele>442</ele>
        <time>2012-09-16T12:40:17Z</time>
      </trkpt>
      <trkpt lat="44.60116" lon="2.406">
        <ele>442</ele>
        <time>2012-09-16T12:40:28Z</time>
      </trkpt>
      <trkpt lat="44.60107" lon="2.40602">
        <ele>443</ele>
        <time>2012-09-16T12:40:40Z</time>
      </trkpt>
      <trkpt lat="44.60101" lon="2.40598">
        <ele>443</ele>
        <time>2012-09-16T12:40:53Z</time>
      </trkpt>
      <trkpt lat="44.60091" lon="2.40612">
        <ele>434</ele>
        <time>2012-09-16T12:41:06Z</time>
      </trkpt>
      <trkpt lat="44.60091" lon="2.40613">
        <ele>435</ele>
        <time>2012-09-16T12:41:18Z</time>
      </trkpt>
      <trkpt lat="44.60091" lon="2.406">
        <ele>433</ele>
        <time>2012-09-16T12:41:36Z</time>
      </trkpt>
      <trkpt lat="44.60088" lon="2.40599">
        <ele>445</ele>
        <time>2012-09-16T12:42:01Z</time>
      </trkpt>
      <trkpt lat="44.60091" lon="2.40596">
        <ele>439</ele>
        <time>2012-09-16T12:42:54Z</time>
      </trkpt>
      <trkpt lat="44.60136" lon="2.40633">
        <ele>448</ele>
        <time>2012-09-16T12:45:50Z</time>
      </trkpt>
      <trkpt lat="44.6013" lon="2.40632">
        <ele>440</ele>
        <time>2012-09-16T12:46:03Z</time>
      </trkpt>
      <trkpt lat="44.60095" lon="2.40608">
        <ele>436</ele>
        <time>2012-09-16T12:46:15Z</time>
      </trkpt>
      <trkpt lat="44.60091" lon="2.40599">
        <ele>434</ele>
        <time>2012-09-16T12:46:28Z</time>
      </trkpt>
      <trkpt lat="44.60073" lon="2.40586">
        <ele>428</ele>
        <time>2012-09-16T12:46:39Z</time>
      </trkpt>
      <trkpt lat="44.60065" lon="2.40582">
        <ele>430</ele>
        <time>2012-09-16T12:46:53Z</time>
      </trkpt>
      <trkpt lat="44.60059" lon="2.40579">
        <ele>426</ele>
        <time>2012-09-16T12:47:03Z</time>
      </trkpt>
      <trkpt lat="44.60052" lon="2.40573">
        <ele>422</ele>
        <time>2012-09-16T12:47:36Z</time>
      </trkpt>
      <trkpt lat="44.60052" lon="2.40568">
        <ele>413</ele>
        <time>2012-09-16T12:47:53Z</time>
      </trkpt>
      <trkpt lat="44.60044" lon="2.40554">
        <ele>420</ele>
        <time>2012-09-16T12:48:08Z</time>
      </trkpt>
      <trkpt lat="44.60038" lon="2.40544">
        <ele>426</ele>
        <time>2012-09-16T12:48:18Z</time>
      </trkpt>
      <trkpt lat="44.60031" lon="2.40529">
        <ele>423</ele>
        <time>2012-09-16T12:48:31Z</time>
      </trkpt>
      <trkpt lat="44.60028" lon="2.40526">
        <ele>417</ele>
        <time>2012-09-16T12:48:48Z</time>
      </trkpt>
      <trkpt lat="44.60025" lon="2.40513">
        <ele>411</ele>
        <time>2012-09-16T12:48:58Z</time>
      </trkpt>
      <trkpt lat="44.60019" lon="2.40495">
        <ele>408</ele>
        <time>2012-09-16T12:49:11Z</time>
      </trkpt>
      <trkpt lat="44.60012" lon="2.40475">
        <ele>405</ele>
        <time>2012-09-16T12:49:24Z</time>
      </trkpt>
      <trkpt lat="44.60006" lon="2.40459">
        <ele>413</ele>
        <time>2012-09-16T12:49:38Z</time>
      </trkpt>
      <trkpt lat="44.6" lon="2.40448">
        <ele>412</ele>
        <time>2012-09-16T12:49:48Z</time>
      </trkpt>
      <trkpt lat="44.59996" lon="2.40433">
        <ele>416</ele>
        <time>2012-09-16T12:49:58Z</time>
      </trkpt>
      <trkpt lat="44.5999" lon="2.40418">
        <ele>408</ele>
        <time>2012-09-16T12:50:10Z</time>
      </trkpt>
      <trkpt lat="44.59986" lon="2.40406">
        <ele>401</ele>
        <time>2012-09-16T12:50:20Z</time>
      </trkpt>
      <trkpt lat="44.59982" lon="2.4039">
        <ele>396</ele>
        <time>2012-09-16T12:50:32Z</time>
      </trkpt>
      <trkpt lat="44.5998" lon="2.40372">
        <ele>391</ele>
        <time>2012-09-16T12:50:44Z</time>
      </trkpt>
      <trkpt lat="44.59977" lon="2.40355">
        <ele>399</ele>
        <time>2012-09-16T12:50:57Z</time>
      </trkpt>
      <trkpt lat="44.59973" lon="2.40336">
        <ele>392</ele>
        <time>2012-09-16T12:51:09Z</time>
      </trkpt>
      <trkpt lat="44.5997" lon="2.40317">
        <ele>390</ele>
        <time>2012-09-16T12:51:22Z</time>
      </trkpt>
      <trkpt lat="44.59969" lon="2.40299">
        <ele>388</ele>
        <time>2012-09-16T12:51:34Z</time>
      </trkpt>
      <trkpt lat="44.59966" lon="2.40287">
        <ele>387</ele>
        <time>2012-09-16T12:51:45Z</time>
      </trkpt>
      <trkpt lat="44.59961" lon="2.40283">
        <ele>385</ele>
        <time>2012-09-16T12:51:58Z</time>
      </trkpt>
      <trkpt lat="44.59962" lon="2.40265">
        <ele>384</ele>
        <time>2012-09-16T12:52:10Z</time>
      </trkpt>
      <trkpt lat="44.59964" lon="2.40247">
        <ele>386</ele>
        <time>2012-09-16T12:52:22Z</time>
      </trkpt>
      <trkpt lat="44.59965" lon="2.40228">
        <ele>380</ele>
        <time>2012-09-16T12:52:34Z</time>
      </trkpt>
      <trkpt lat="44.59964" lon="2.4021">
        <ele>382</ele>
        <time>2012-09-16T12:52:46Z</time>
      </trkpt>
      <trkpt lat="44.59961" lon="2.40192">
        <ele>385</ele>
        <time>2012-09-16T12:52:58Z</time>
      </trkpt>
      <trkpt lat="44.59959" lon="2.40174">
        <ele>384</ele>
        <time>2012-09-16T12:53:10Z</time>
      </trkpt>
      <trkpt lat="44.5996" lon="2.40154">
        <ele>378</ele>
        <time>2012-09-16T12:53:22Z</time>
      </trkpt>
      <trkpt lat="44.59958" lon="2.40137">
        <ele>375</ele>
        <time>2012-09-16T12:53:33Z</time>
      </trkpt>
      <trkpt lat="44.59958" lon="2.40119">
        <ele>375</ele>
        <time>2012-09-16T12:53:45Z</time>
      </trkpt>
      <trkpt lat="44.59956" lon="2.40102">
        <ele>375</ele>
        <time>2012-09-16T12:53:55Z</time>
      </trkpt>
      <trkpt lat="44.59956" lon="2.40083">
        <ele>375</ele>
        <time>2012-09-16T12:54:08Z</time>
      </trkpt>
      <trkpt lat="44.59955" lon="2.40063">
        <ele>371</ele>
        <time>2012-09-16T12:54:20Z</time>
      </trkpt>
      <trkpt lat="44.59953" lon="2.40061">
        <ele>384</ele>
        <time>2012-09-16T12:55:13Z</time>
      </trkpt>
      <trkpt lat="44.59954" lon="2.40064">
        <ele>379</ele>
        <time>2012-09-16T12:57:08Z</time>
      </trkpt>
      <trkpt lat="44.59957" lon="2.40064">
        <ele>370</ele>
        <time>2012-09-16T12:57:41Z</time>
      </trkpt>
      <trkpt lat="44.59957" lon="2.4006">
        <ele>375</ele>
        <time>2012-09-16T12:57:55Z</time>
      </trkpt>
      <trkpt lat="44.59954" lon="2.40047">
        <ele>377</ele>
        <time>2012-09-16T12:58:05Z</time>
      </trkpt>
      <trkpt lat="44.59954" lon="2.40031">
        <ele>368</ele>
        <time>2012-09-16T12:58:20Z</time>
      </trkpt>
      <trkpt lat="44.59953" lon="2.40027">
        <ele>375</ele>
        <time>2012-09-16T12:58:33Z</time>
      </trkpt>
      <trkpt lat="44.59952" lon="2.40012">
        <ele>373</ele>
        <time>2012-09-16T12:58:44Z</time>
      </trkpt>
      <trkpt lat="44.59948" lon="2.40001">
        <ele>370</ele>
        <time>2012-09-16T12:58:55Z</time>
      </trkpt>
      <trkpt lat="44.59945" lon="2.39988">
        <ele>373</ele>
        <time>2012-09-16T12:59:06Z</time>
      </trkpt>
      <trkpt lat="44.59937" lon="2.39972">
        <ele>372</ele>
        <time>2012-09-16T12:59:18Z</time>
      </trkpt>
      <trkpt lat="44.59935" lon="2.3996">
        <ele>375</ele>
        <time>2012-09-16T12:59:29Z</time>
      </trkpt>
      <trkpt lat="44.59931" lon="2.39946">
        <ele>371</ele>
        <time>2012-09-16T12:59:40Z</time>
      </trkpt>
      <trkpt lat="44.59935" lon="2.39936">
        <ele>373</ele>
        <time>2012-09-16T12:59:59Z</time>
      </trkpt>
      <trkpt lat="44.59939" lon="2.39934">
        <ele>381</ele>
        <time>2012-09-16T13:00:17Z</time>
      </trkpt>
      <trkpt lat="44.59946" lon="2.3992">
        <ele>365</ele>
        <time>2012-09-16T13:00:42Z</time>
      </trkpt>
      <trkpt lat="44.59946" lon="2.39913">
        <ele>377</ele>
        <time>2012-09-16T13:00:53Z</time>
      </trkpt>
      <trkpt lat="44.59943" lon="2.39896">
        <ele>374</ele>
        <time>2012-09-16T13:01:06Z</time>
      </trkpt>
      <trkpt lat="44.59946" lon="2.39883">
        <ele>366</ele>
        <time>2012-09-16T13:01:21Z</time>
      </trkpt>
      <trkpt lat="44.59946" lon="2.39868">
        <ele>364</ele>
        <time>2012-09-16T13:01:31Z</time>
      </trkpt>
      <trkpt lat="44.59944" lon="2.39866">
        <ele>368</ele>
        <time>2012-09-16T13:01:41Z</time>
      </trkpt>
      <trkpt lat="44.59941" lon="2.39867">
        <ele>364</ele>
        <time>2012-09-16T13:02:10Z</time>
      </trkpt>
      <trkpt lat="44.59945" lon="2.39867">
        <ele>369</ele>
        <time>2012-09-16T13:02:20Z</time>
      </trkpt>
      <trkpt lat="44.59951" lon="2.39858">
        <ele>359</ele>
        <time>2012-09-16T13:02:32Z</time>
      </trkpt>
      <trkpt lat="44.59955" lon="2.39854">
        <ele>352</ele>
        <time>2012-09-16T13:02:51Z</time>
      </trkpt>
      <trkpt lat="44.59956" lon="2.3985">
        <ele>354</ele>
        <time>2012-09-16T13:03:10Z</time>
      </trkpt>
      <trkpt lat="44.59957" lon="2.39846">
        <ele>364</ele>
        <time>2012-09-16T13:04:34Z</time>
      </trkpt>
      <trkpt lat="44.59954" lon="2.39848">
        <ele>359</ele>
        <time>2012-09-16T13:07:12Z</time>
      </trkpt>
      <trkpt lat="44.59951" lon="2.3985">
        <ele>352</ele>
        <time>2012-09-16T13:07:25Z</time>
      </trkpt>
      <trkpt lat="44.59952" lon="2.39859">
        <ele>350</ele>
        <time>2012-09-16T13:07:38Z</time>
      </trkpt>
      <trkpt lat="44.59947" lon="2.39862">
        <ele>348</ele>
        <time>2012-09-16T13:07:50Z</time>
      </trkpt>
      <trkpt lat="44.59944" lon="2.39869">
        <ele>357</ele>
        <time>2012-09-16T13:08:04Z</time>
      </trkpt>
      <trkpt lat="44.59941" lon="2.39871">
        <ele>354</ele>
        <time>2012-09-16T13:08:15Z</time>
      </trkpt>
      <trkpt lat="44.59938" lon="2.39876">
        <ele>357</ele>
        <time>2012-09-16T13:08:34Z</time>
      </trkpt>
      <trkpt lat="44.59931" lon="2.39886">
        <ele>360</ele>
        <time>2012-09-16T13:08:47Z</time>
      </trkpt>
      <trkpt lat="44.59925" lon="2.39896">
        <ele>357</ele>
        <time>2012-09-16T13:08:58Z</time>
      </trkpt>
      <trkpt lat="44.59919" lon="2.39914">
        <ele>361</ele>
        <time>2012-09-16T13:09:12Z</time>
      </trkpt>
      <trkpt lat="44.59916" lon="2.39926">
        <ele>358</ele>
        <time>2012-09-16T13:09:24Z</time>
      </trkpt>
      <trkpt lat="44.59915" lon="2.39938">
        <ele>363</ele>
        <time>2012-09-16T13:09:36Z</time>
      </trkpt>
      <trkpt lat="44.59909" lon="2.39956">
        <ele>362</ele>
        <time>2012-09-16T13:09:49Z</time>
      </trkpt>
      <trkpt lat="44.59906" lon="2.3997">
        <ele>364</ele>
        <time>2012-09-16T13:10:01Z</time>
      </trkpt>
      <trkpt lat="44.59912" lon="2.39987">
        <ele>361</ele>
        <time>2012-09-16T13:10:13Z</time>
      </trkpt>
      <trkpt lat="44.59916" lon="2.40004">
        <ele>365</ele>
        <time>2012-09-16T13:10:27Z</time>
      </trkpt>
      <trkpt lat="44.59919" lon="2.40017">
        <ele>355</ele>
        <time>2012-09-16T13:10:38Z</time>
      </trkpt>
      <trkpt lat="44.59923" lon="2.40029">
        <ele>355</ele>
        <time>2012-09-16T13:10:50Z</time>
      </trkpt>
      <trkpt lat="44.59927" lon="2.40043">
        <ele>351</ele>
        <time>2012-09-16T13:11:01Z</time>
      </trkpt>
      <trkpt lat="44.59927" lon="2.40057">
        <ele>364</ele>
        <time>2012-09-16T13:11:12Z</time>
      </trkpt>
      <trkpt lat="44.59926" lon="2.40069">
        <ele>371</ele>
        <time>2012-09-16T13:11:26Z</time>
      </trkpt>
      <trkpt lat="44.59924" lon="2.40082">
        <ele>374</ele>
        <time>2012-09-16T13:11:38Z</time>
      </trkpt>
      <trkpt lat="44.59922" lon="2.40102">
        <ele>375</ele>
        <time>2012-09-16T13:11:50Z</time>
      </trkpt>
      <trkpt lat="44.59921" lon="2.40117">
        <ele>367</ele>
        <time>2012-09-16T13:12:00Z</time>
      </trkpt>
      <trkpt lat="44.59918" lon="2.40133">
        <ele>368</ele>
        <time>2012-09-16T13:12:14Z</time>
      </trkpt>
      <trkpt lat="44.59917" lon="2.40148">
        <ele>367</ele>
        <time>2012-09-16T13:12:25Z</time>
      </trkpt>
      <trkpt lat="44.5992" lon="2.40161">
        <ele>369</ele>
        <time>2012-09-16T13:12:35Z</time>
      </trkpt>
      <trkpt lat="44.59924" lon="2.40178">
        <ele>372</ele>
        <time>2012-09-16T13:12:47Z</time>
      </trkpt>
      <trkpt lat="44.59924" lon="2.40192">
        <ele>369</ele>
        <time>2012-09-16T13:12:58Z</time>
      </trkpt>
      <trkpt lat="44.59922" lon="2.402">
        <ele>370</ele>
        <time>2012-09-16T13:13:13Z</time>
      </trkpt>
      <trkpt lat="44.59917" lon="2.40213">
        <ele>364</ele>
        <time>2012-09-16T13:13:24Z</time>
      </trkpt>
      <trkpt lat="44.59916" lon="2.40225">
        <ele>368</ele>
        <time>2012-09-16T13:13:37Z</time>
      </trkpt>
      <trkpt lat="44.59916" lon="2.40237">
        <ele>368</ele>
        <time>2012-09-16T13:13:47Z</time>
      </trkpt>
      <trkpt lat="44.59916" lon="2.40255">
        <ele>366</ele>
        <time>2012-09-16T13:13:58Z</time>
      </trkpt>
    </trkseg>
  </trk>
</gpx>